<?xml version="1.0" encoding="UTF-8" standalone="no" ?>
<gpx xmlns="http://www.topografix.com/GPX/1/1" xmlns:xsi="http://www.w3.org/2001/XMLSchema-instance" xsi:schemaLocation="http://www.topografix.com/GPX/1/1 http://www.topografix.com/GPX/1/1/gpx.xsd" version="1.1" creator="VisuGPX - https://www.visugpx.com">
  <metadata>
    <name>lundi 2016 06</name>
    <desc><![CDATA[cumul des lundi du mois de juin 2016]]></desc>
  </metadata>
  <trk>
    <name><![CDATA[lundi 2016 06 06]]></name>
    <trkseg>
      <trkpt lat="48.85798" lon="2.34695">
        <ele>40.200000762939</ele>
        <time>2016-06-06T18:20:15.000Z</time>
      </trkpt>
      <trkpt lat="48.85798" lon="2.34693">
        <ele>40.200000762939</ele>
        <time>2016-06-06T18:20:16.000Z</time>
      </trkpt>
      <trkpt lat="48.85801" lon="2.34675">
        <ele>40.799999237061</ele>
        <time>2016-06-06T18:20:20.000Z</time>
      </trkpt>
      <trkpt lat="48.85801" lon="2.34672">
        <ele>41</ele>
        <time>2016-06-06T18:20:21.000Z</time>
      </trkpt>
      <trkpt lat="48.85811" lon="2.34648">
        <ele>44.200000762939</ele>
        <time>2016-06-06T18:20:28.000Z</time>
      </trkpt>
      <trkpt lat="48.85816" lon="2.34618">
        <ele>47.200000762939</ele>
        <time>2016-06-06T18:20:33.000Z</time>
      </trkpt>
      <trkpt lat="48.85818" lon="2.34604">
        <ele>47.799999237061</ele>
        <time>2016-06-06T18:20:35.000Z</time>
      </trkpt>
      <trkpt lat="48.85826" lon="2.34597">
        <ele>48.400001525879</ele>
        <time>2016-06-06T18:20:41.000Z</time>
      </trkpt>
      <trkpt lat="48.85827" lon="2.34596">
        <ele>48.599998474121</ele>
        <time>2016-06-06T18:20:42.000Z</time>
      </trkpt>
      <trkpt lat="48.85837" lon="2.34591">
        <ele>49.400001525879</ele>
        <time>2016-06-06T18:20:47.000Z</time>
      </trkpt>
      <trkpt lat="48.85844" lon="2.34589">
        <ele>50</ele>
        <time>2016-06-06T18:20:50.000Z</time>
      </trkpt>
      <trkpt lat="48.85848" lon="2.34587">
        <ele>50.200000762939</ele>
        <time>2016-06-06T18:20:52.000Z</time>
      </trkpt>
      <trkpt lat="48.85852" lon="2.34588">
        <ele>50.599998474121</ele>
        <time>2016-06-06T18:20:54.000Z</time>
      </trkpt>
      <trkpt lat="48.85864" lon="2.34586">
        <ele>50.799999237061</ele>
        <time>2016-06-06T18:20:59.000Z</time>
      </trkpt>
      <trkpt lat="48.8587" lon="2.34579">
        <ele>51</ele>
        <time>2016-06-06T18:21:03.000Z</time>
      </trkpt>
      <trkpt lat="48.85885" lon="2.34556">
        <ele>50.200000762939</ele>
        <time>2016-06-06T18:21:11.000Z</time>
      </trkpt>
      <trkpt lat="48.85897" lon="2.3453">
        <ele>49.400001525879</ele>
        <time>2016-06-06T18:21:18.000Z</time>
      </trkpt>
      <trkpt lat="48.85909" lon="2.34511">
        <ele>50</ele>
        <time>2016-06-06T18:21:23.000Z</time>
      </trkpt>
      <trkpt lat="48.85926" lon="2.34505">
        <ele>50.599998474121</ele>
        <time>2016-06-06T18:21:31.000Z</time>
      </trkpt>
      <trkpt lat="48.85943" lon="2.34508">
        <ele>51</ele>
        <time>2016-06-06T18:21:40.000Z</time>
      </trkpt>
      <trkpt lat="48.85954" lon="2.345">
        <ele>51.200000762939</ele>
        <time>2016-06-06T18:22:19.000Z</time>
      </trkpt>
      <trkpt lat="48.85963" lon="2.34473">
        <ele>51.799999237061</ele>
        <time>2016-06-06T18:22:25.000Z</time>
      </trkpt>
      <trkpt lat="48.85973" lon="2.34446">
        <ele>52.400001525879</ele>
        <time>2016-06-06T18:22:30.000Z</time>
      </trkpt>
      <trkpt lat="48.85984" lon="2.3442">
        <ele>53</ele>
        <time>2016-06-06T18:22:35.000Z</time>
      </trkpt>
      <trkpt lat="48.85994" lon="2.34392">
        <ele>53.599998474121</ele>
        <time>2016-06-06T18:22:40.000Z</time>
      </trkpt>
      <trkpt lat="48.86006" lon="2.34365">
        <ele>53.400001525879</ele>
        <time>2016-06-06T18:22:45.000Z</time>
      </trkpt>
      <trkpt lat="48.86018" lon="2.34337">
        <ele>53</ele>
        <time>2016-06-06T18:22:50.000Z</time>
      </trkpt>
      <trkpt lat="48.86027" lon="2.34312">
        <ele>51.799999237061</ele>
        <time>2016-06-06T18:22:54.000Z</time>
      </trkpt>
      <trkpt lat="48.86036" lon="2.34286">
        <ele>50</ele>
        <time>2016-06-06T18:22:58.000Z</time>
      </trkpt>
      <trkpt lat="48.86038" lon="2.34279">
        <ele>49.599998474121</ele>
        <time>2016-06-06T18:22:59.000Z</time>
      </trkpt>
      <trkpt lat="48.86046" lon="2.34251">
        <ele>48.400001525879</ele>
        <time>2016-06-06T18:23:03.000Z</time>
      </trkpt>
      <trkpt lat="48.86053" lon="2.34224">
        <ele>48.400001525879</ele>
        <time>2016-06-06T18:23:07.000Z</time>
      </trkpt>
      <trkpt lat="48.86061" lon="2.34196">
        <ele>48.400001525879</ele>
        <time>2016-06-06T18:23:11.000Z</time>
      </trkpt>
      <trkpt lat="48.86069" lon="2.34168">
        <ele>48</ele>
        <time>2016-06-06T18:23:15.000Z</time>
      </trkpt>
      <trkpt lat="48.86076" lon="2.3414">
        <ele>48</ele>
        <time>2016-06-06T18:23:19.000Z</time>
      </trkpt>
      <trkpt lat="48.86081" lon="2.34129">
        <ele>47.799999237061</ele>
        <time>2016-06-06T18:23:21.000Z</time>
      </trkpt>
      <trkpt lat="48.86087" lon="2.34115">
        <ele>47.200000762939</ele>
        <time>2016-06-06T18:23:24.000Z</time>
      </trkpt>
      <trkpt lat="48.86091" lon="2.34104">
        <ele>47</ele>
        <time>2016-06-06T18:23:28.000Z</time>
      </trkpt>
      <trkpt lat="48.86093" lon="2.341">
        <ele>46.799999237061</ele>
        <time>2016-06-06T18:23:30.000Z</time>
      </trkpt>
      <trkpt lat="48.86095" lon="2.3409">
        <ele>46.400001525879</ele>
        <time>2016-06-06T18:23:33.000Z</time>
      </trkpt>
      <trkpt lat="48.86106" lon="2.34065">
        <ele>46.200000762939</ele>
        <time>2016-06-06T18:23:39.000Z</time>
      </trkpt>
      <trkpt lat="48.86117" lon="2.34035">
        <ele>47</ele>
        <time>2016-06-06T18:23:44.000Z</time>
      </trkpt>
      <trkpt lat="48.86125" lon="2.34007">
        <ele>47.400001525879</ele>
        <time>2016-06-06T18:23:48.000Z</time>
      </trkpt>
      <trkpt lat="48.86133" lon="2.33978">
        <ele>48.599998474121</ele>
        <time>2016-06-06T18:23:52.000Z</time>
      </trkpt>
      <trkpt lat="48.86142" lon="2.33952">
        <ele>50</ele>
        <time>2016-06-06T18:23:56.000Z</time>
      </trkpt>
      <trkpt lat="48.8615" lon="2.33924">
        <ele>48.200000762939</ele>
        <time>2016-06-06T18:24:00.000Z</time>
      </trkpt>
      <trkpt lat="48.86159" lon="2.33897">
        <ele>47.599998474121</ele>
        <time>2016-06-06T18:24:04.000Z</time>
      </trkpt>
      <trkpt lat="48.86167" lon="2.33869">
        <ele>46.599998474121</ele>
        <time>2016-06-06T18:24:08.000Z</time>
      </trkpt>
      <trkpt lat="48.86175" lon="2.33843">
        <ele>45</ele>
        <time>2016-06-06T18:24:12.000Z</time>
      </trkpt>
      <trkpt lat="48.86183" lon="2.33815">
        <ele>43.799999237061</ele>
        <time>2016-06-06T18:24:16.000Z</time>
      </trkpt>
      <trkpt lat="48.86192" lon="2.33787">
        <ele>45.200000762939</ele>
        <time>2016-06-06T18:24:20.000Z</time>
      </trkpt>
      <trkpt lat="48.86201" lon="2.33757">
        <ele>46.799999237061</ele>
        <time>2016-06-06T18:24:24.000Z</time>
      </trkpt>
      <trkpt lat="48.86209" lon="2.33727">
        <ele>47.799999237061</ele>
        <time>2016-06-06T18:24:28.000Z</time>
      </trkpt>
      <trkpt lat="48.86219" lon="2.33697">
        <ele>49</ele>
        <time>2016-06-06T18:24:32.000Z</time>
      </trkpt>
      <trkpt lat="48.86224" lon="2.33684">
        <ele>49</ele>
        <time>2016-06-06T18:24:34.000Z</time>
      </trkpt>
      <trkpt lat="48.86235" lon="2.3366">
        <ele>48.799999237061</ele>
        <time>2016-06-06T18:24:38.000Z</time>
      </trkpt>
      <trkpt lat="48.86247" lon="2.33636">
        <ele>48</ele>
        <time>2016-06-06T18:24:42.000Z</time>
      </trkpt>
      <trkpt lat="48.86257" lon="2.33609">
        <ele>48</ele>
        <time>2016-06-06T18:24:46.000Z</time>
      </trkpt>
      <trkpt lat="48.86266" lon="2.3358">
        <ele>48.200000762939</ele>
        <time>2016-06-06T18:24:50.000Z</time>
      </trkpt>
      <trkpt lat="48.86271" lon="2.3355">
        <ele>46.599998474121</ele>
        <time>2016-06-06T18:24:54.000Z</time>
      </trkpt>
      <trkpt lat="48.86281" lon="2.33524">
        <ele>45.200000762939</ele>
        <time>2016-06-06T18:24:58.000Z</time>
      </trkpt>
      <trkpt lat="48.86291" lon="2.33501">
        <ele>44.799999237061</ele>
        <time>2016-06-06T18:25:02.000Z</time>
      </trkpt>
      <trkpt lat="48.86298" lon="2.33489">
        <ele>45</ele>
        <time>2016-06-06T18:25:04.000Z</time>
      </trkpt>
      <trkpt lat="48.86308" lon="2.33461">
        <ele>45.200000762939</ele>
        <time>2016-06-06T18:25:08.000Z</time>
      </trkpt>
      <trkpt lat="48.86315" lon="2.3343">
        <ele>46.400001525879</ele>
        <time>2016-06-06T18:25:12.000Z</time>
      </trkpt>
      <trkpt lat="48.86322" lon="2.33399">
        <ele>48</ele>
        <time>2016-06-06T18:25:16.000Z</time>
      </trkpt>
      <trkpt lat="48.86327" lon="2.33388">
        <ele>48.799999237061</ele>
        <time>2016-06-06T18:25:18.000Z</time>
      </trkpt>
      <trkpt lat="48.86346" lon="2.33391">
        <ele>49.799999237061</ele>
        <time>2016-06-06T18:25:23.000Z</time>
      </trkpt>
      <trkpt lat="48.86349" lon="2.33393">
        <ele>50</ele>
        <time>2016-06-06T18:25:24.000Z</time>
      </trkpt>
      <trkpt lat="48.86356" lon="2.33395">
        <ele>50.400001525879</ele>
        <time>2016-06-06T18:25:26.000Z</time>
      </trkpt>
      <trkpt lat="48.86366" lon="2.33398">
        <ele>50.400001525879</ele>
        <time>2016-06-06T18:25:29.000Z</time>
      </trkpt>
      <trkpt lat="48.86369" lon="2.33403">
        <ele>50.400001525879</ele>
        <time>2016-06-06T18:25:31.000Z</time>
      </trkpt>
      <trkpt lat="48.8637" lon="2.3341">
        <ele>50.799999237061</ele>
        <time>2016-06-06T18:25:34.000Z</time>
      </trkpt>
      <trkpt lat="48.86372" lon="2.33415">
        <ele>50.799999237061</ele>
        <time>2016-06-06T18:25:38.000Z</time>
      </trkpt>
      <trkpt lat="48.86391" lon="2.33417">
        <ele>50.599998474121</ele>
        <time>2016-06-06T18:25:45.000Z</time>
      </trkpt>
      <trkpt lat="48.8641" lon="2.33421">
        <ele>50.400001525879</ele>
        <time>2016-06-06T18:25:51.000Z</time>
      </trkpt>
      <trkpt lat="48.86426" lon="2.33409">
        <ele>50</ele>
        <time>2016-06-06T18:25:56.000Z</time>
      </trkpt>
      <trkpt lat="48.86446" lon="2.33395">
        <ele>49.400001525879</ele>
        <time>2016-06-06T18:26:01.000Z</time>
      </trkpt>
      <trkpt lat="48.86464" lon="2.33394">
        <ele>49.200000762939</ele>
        <time>2016-06-06T18:26:05.000Z</time>
      </trkpt>
      <trkpt lat="48.86487" lon="2.33394">
        <ele>49</ele>
        <time>2016-06-06T18:26:09.000Z</time>
      </trkpt>
      <trkpt lat="48.86507" lon="2.33395">
        <ele>48.799999237061</ele>
        <time>2016-06-06T18:26:13.000Z</time>
      </trkpt>
      <trkpt lat="48.86512" lon="2.33396">
        <ele>48.799999237061</ele>
        <time>2016-06-06T18:26:14.000Z</time>
      </trkpt>
      <trkpt lat="48.86521" lon="2.33395">
        <ele>48.799999237061</ele>
        <time>2016-06-06T18:26:16.000Z</time>
      </trkpt>
      <trkpt lat="48.86536" lon="2.3338">
        <ele>48.400001525879</ele>
        <time>2016-06-06T18:26:20.000Z</time>
      </trkpt>
      <trkpt lat="48.86545" lon="2.33369">
        <ele>48.200000762939</ele>
        <time>2016-06-06T18:26:24.000Z</time>
      </trkpt>
      <trkpt lat="48.86551" lon="2.33361">
        <ele>48</ele>
        <time>2016-06-06T18:26:27.000Z</time>
      </trkpt>
      <trkpt lat="48.86572" lon="2.33361">
        <ele>47.599998474121</ele>
        <time>2016-06-06T18:26:32.000Z</time>
      </trkpt>
      <trkpt lat="48.86579" lon="2.33359">
        <ele>47.400001525879</ele>
        <time>2016-06-06T18:26:34.000Z</time>
      </trkpt>
      <trkpt lat="48.86582" lon="2.33357">
        <ele>47.200000762939</ele>
        <time>2016-06-06T18:26:35.000Z</time>
      </trkpt>
      <trkpt lat="48.86598" lon="2.33342">
        <ele>46.400001525879</ele>
        <time>2016-06-06T18:26:43.000Z</time>
      </trkpt>
      <trkpt lat="48.86617" lon="2.33329">
        <ele>46.400001525879</ele>
        <time>2016-06-06T18:26:49.000Z</time>
      </trkpt>
      <trkpt lat="48.86634" lon="2.3332">
        <ele>46.799999237061</ele>
        <time>2016-06-06T18:26:56.000Z</time>
      </trkpt>
      <trkpt lat="48.86639" lon="2.33322">
        <ele>47</ele>
        <time>2016-06-06T18:26:58.000Z</time>
      </trkpt>
      <trkpt lat="48.86658" lon="2.3333">
        <ele>47.799999237061</ele>
        <time>2016-06-06T18:27:03.000Z</time>
      </trkpt>
      <trkpt lat="48.86679" lon="2.33338">
        <ele>48.599998474121</ele>
        <time>2016-06-06T18:27:10.000Z</time>
      </trkpt>
      <trkpt lat="48.86697" lon="2.33348">
        <ele>49.200000762939</ele>
        <time>2016-06-06T18:27:15.000Z</time>
      </trkpt>
      <trkpt lat="48.86709" lon="2.33351">
        <ele>49.400001525879</ele>
        <time>2016-06-06T18:27:18.000Z</time>
      </trkpt>
      <trkpt lat="48.86724" lon="2.3333">
        <ele>49</ele>
        <time>2016-06-06T18:27:23.000Z</time>
      </trkpt>
      <trkpt lat="48.86726" lon="2.3332">
        <ele>48.799999237061</ele>
        <time>2016-06-06T18:27:25.000Z</time>
      </trkpt>
      <trkpt lat="48.86731" lon="2.33291">
        <ele>48</ele>
        <time>2016-06-06T18:27:30.000Z</time>
      </trkpt>
      <trkpt lat="48.86736" lon="2.33264">
        <ele>47.400001525879</ele>
        <time>2016-06-06T18:27:35.000Z</time>
      </trkpt>
      <trkpt lat="48.86736" lon="2.33234">
        <ele>46.799999237061</ele>
        <time>2016-06-06T18:27:40.000Z</time>
      </trkpt>
      <trkpt lat="48.86745" lon="2.33213">
        <ele>46.599998474121</ele>
        <time>2016-06-06T18:27:48.000Z</time>
      </trkpt>
      <trkpt lat="48.86762" lon="2.33222">
        <ele>46.799999237061</ele>
        <time>2016-06-06T18:27:54.000Z</time>
      </trkpt>
      <trkpt lat="48.86779" lon="2.33204">
        <ele>47.200000762939</ele>
        <time>2016-06-06T18:28:00.000Z</time>
      </trkpt>
      <trkpt lat="48.86789" lon="2.33176">
        <ele>47.599998474121</ele>
        <time>2016-06-06T18:28:05.000Z</time>
      </trkpt>
      <trkpt lat="48.86801" lon="2.33155">
        <ele>48.200000762939</ele>
        <time>2016-06-06T18:28:09.000Z</time>
      </trkpt>
      <trkpt lat="48.86812" lon="2.33131">
        <ele>49.200000762939</ele>
        <time>2016-06-06T18:28:13.000Z</time>
      </trkpt>
      <trkpt lat="48.86821" lon="2.33107">
        <ele>49.799999237061</ele>
        <time>2016-06-06T18:28:17.000Z</time>
      </trkpt>
      <trkpt lat="48.86831" lon="2.33083">
        <ele>50.400001525879</ele>
        <time>2016-06-06T18:28:21.000Z</time>
      </trkpt>
      <trkpt lat="48.86838" lon="2.33055">
        <ele>48.799999237061</ele>
        <time>2016-06-06T18:28:27.000Z</time>
      </trkpt>
      <trkpt lat="48.86838" lon="2.33046">
        <ele>48.200000762939</ele>
        <time>2016-06-06T18:28:32.000Z</time>
      </trkpt>
      <trkpt lat="48.86845" lon="2.33048">
        <ele>48.599998474121</ele>
        <time>2016-06-06T18:28:44.000Z</time>
      </trkpt>
      <trkpt lat="48.86844" lon="2.33036">
        <ele>48</ele>
        <time>2016-06-06T18:28:47.000Z</time>
      </trkpt>
      <trkpt lat="48.86854" lon="2.33008">
        <ele>46.599998474121</ele>
        <time>2016-06-06T18:28:53.000Z</time>
      </trkpt>
      <trkpt lat="48.86865" lon="2.32981">
        <ele>46.599998474121</ele>
        <time>2016-06-06T18:28:58.000Z</time>
      </trkpt>
      <trkpt lat="48.86873" lon="2.32951">
        <ele>47</ele>
        <time>2016-06-06T18:29:03.000Z</time>
      </trkpt>
      <trkpt lat="48.86884" lon="2.32931">
        <ele>47.599998474121</ele>
        <time>2016-06-06T18:29:07.000Z</time>
      </trkpt>
      <trkpt lat="48.86898" lon="2.32913">
        <ele>48</ele>
        <time>2016-06-06T18:29:11.000Z</time>
      </trkpt>
      <trkpt lat="48.86916" lon="2.32897">
        <ele>49.599998474121</ele>
        <time>2016-06-06T18:29:15.000Z</time>
      </trkpt>
      <trkpt lat="48.86928" lon="2.32876">
        <ele>50</ele>
        <time>2016-06-06T18:29:19.000Z</time>
      </trkpt>
      <trkpt lat="48.86942" lon="2.32857">
        <ele>50</ele>
        <time>2016-06-06T18:29:23.000Z</time>
      </trkpt>
      <trkpt lat="48.86955" lon="2.32836">
        <ele>49.599998474121</ele>
        <time>2016-06-06T18:29:28.000Z</time>
      </trkpt>
      <trkpt lat="48.86966" lon="2.32815">
        <ele>49</ele>
        <time>2016-06-06T18:29:34.000Z</time>
      </trkpt>
      <trkpt lat="48.86979" lon="2.32788">
        <ele>48.599998474121</ele>
        <time>2016-06-06T18:29:40.000Z</time>
      </trkpt>
      <trkpt lat="48.86994" lon="2.32764">
        <ele>48</ele>
        <time>2016-06-06T18:29:45.000Z</time>
      </trkpt>
      <trkpt lat="48.87007" lon="2.32737">
        <ele>47.200000762939</ele>
        <time>2016-06-06T18:29:50.000Z</time>
      </trkpt>
      <trkpt lat="48.87021" lon="2.32717">
        <ele>47.400001525879</ele>
        <time>2016-06-06T18:29:54.000Z</time>
      </trkpt>
      <trkpt lat="48.87037" lon="2.32695">
        <ele>48</ele>
        <time>2016-06-06T18:29:59.000Z</time>
      </trkpt>
      <trkpt lat="48.87039" lon="2.3269">
        <ele>48</ele>
        <time>2016-06-06T18:30:00.000Z</time>
      </trkpt>
      <trkpt lat="48.87044" lon="2.32667">
        <ele>48.400001525879</ele>
        <time>2016-06-06T18:30:04.000Z</time>
      </trkpt>
      <trkpt lat="48.87053" lon="2.32639">
        <ele>48.200000762939</ele>
        <time>2016-06-06T18:30:09.000Z</time>
      </trkpt>
      <trkpt lat="48.87058" lon="2.32629">
        <ele>48</ele>
        <time>2016-06-06T18:30:11.000Z</time>
      </trkpt>
      <trkpt lat="48.87063" lon="2.326">
        <ele>47.200000762939</ele>
        <time>2016-06-06T18:30:16.000Z</time>
      </trkpt>
      <trkpt lat="48.87066" lon="2.32582">
        <ele>46.599998474121</ele>
        <time>2016-06-06T18:30:19.000Z</time>
      </trkpt>
      <trkpt lat="48.87072" lon="2.32552">
        <ele>44.200000762939</ele>
        <time>2016-06-06T18:30:24.000Z</time>
      </trkpt>
      <trkpt lat="48.87081" lon="2.32523">
        <ele>44.200000762939</ele>
        <time>2016-06-06T18:30:29.000Z</time>
      </trkpt>
      <trkpt lat="48.87084" lon="2.32514">
        <ele>44.400001525879</ele>
        <time>2016-06-06T18:30:31.000Z</time>
      </trkpt>
      <trkpt lat="48.87086" lon="2.32505">
        <ele>44.400001525879</ele>
        <time>2016-06-06T18:30:34.000Z</time>
      </trkpt>
      <trkpt lat="48.87087" lon="2.32501">
        <ele>44.400001525879</ele>
        <time>2016-06-06T18:30:37.000Z</time>
      </trkpt>
      <trkpt lat="48.87096" lon="2.32476">
        <ele>45.200000762939</ele>
        <time>2016-06-06T18:30:45.000Z</time>
      </trkpt>
      <trkpt lat="48.87106" lon="2.3245">
        <ele>46</ele>
        <time>2016-06-06T18:30:52.000Z</time>
      </trkpt>
      <trkpt lat="48.87118" lon="2.32427">
        <ele>46.799999237061</ele>
        <time>2016-06-06T18:30:57.000Z</time>
      </trkpt>
      <trkpt lat="48.87127" lon="2.32399">
        <ele>47</ele>
        <time>2016-06-06T18:31:02.000Z</time>
      </trkpt>
      <trkpt lat="48.87136" lon="2.32375">
        <ele>47.400001525879</ele>
        <time>2016-06-06T18:31:07.000Z</time>
      </trkpt>
      <trkpt lat="48.8715" lon="2.32356">
        <ele>48</ele>
        <time>2016-06-06T18:31:12.000Z</time>
      </trkpt>
      <trkpt lat="48.8717" lon="2.32361">
        <ele>49.200000762939</ele>
        <time>2016-06-06T18:31:18.000Z</time>
      </trkpt>
      <trkpt lat="48.87192" lon="2.32368">
        <ele>50.400001525879</ele>
        <time>2016-06-06T18:31:23.000Z</time>
      </trkpt>
      <trkpt lat="48.87213" lon="2.32375">
        <ele>49.599998474121</ele>
        <time>2016-06-06T18:31:28.000Z</time>
      </trkpt>
      <trkpt lat="48.8723" lon="2.32383">
        <ele>49.200000762939</ele>
        <time>2016-06-06T18:31:32.000Z</time>
      </trkpt>
      <trkpt lat="48.87251" lon="2.32392">
        <ele>48.599998474121</ele>
        <time>2016-06-06T18:31:37.000Z</time>
      </trkpt>
      <trkpt lat="48.87271" lon="2.32405">
        <ele>48</ele>
        <time>2016-06-06T18:31:42.000Z</time>
      </trkpt>
      <trkpt lat="48.87291" lon="2.32415">
        <ele>47.400001525879</ele>
        <time>2016-06-06T18:31:47.000Z</time>
      </trkpt>
      <trkpt lat="48.87311" lon="2.32423">
        <ele>46.799999237061</ele>
        <time>2016-06-06T18:31:53.000Z</time>
      </trkpt>
      <trkpt lat="48.87329" lon="2.3243">
        <ele>46.400001525879</ele>
        <time>2016-06-06T18:32:00.000Z</time>
      </trkpt>
      <trkpt lat="48.87349" lon="2.32438">
        <ele>45.799999237061</ele>
        <time>2016-06-06T18:32:06.000Z</time>
      </trkpt>
      <trkpt lat="48.87368" lon="2.32442">
        <ele>45</ele>
        <time>2016-06-06T18:32:12.000Z</time>
      </trkpt>
      <trkpt lat="48.87387" lon="2.32444">
        <ele>44</ele>
        <time>2016-06-06T18:32:20.000Z</time>
      </trkpt>
      <trkpt lat="48.87394" lon="2.32448">
        <ele>43.599998474121</ele>
        <time>2016-06-06T18:32:25.000Z</time>
      </trkpt>
      <trkpt lat="48.87401" lon="2.32453">
        <ele>43.400001525879</ele>
        <time>2016-06-06T18:32:32.000Z</time>
      </trkpt>
      <trkpt lat="48.87402" lon="2.32453">
        <ele>43.400001525879</ele>
        <time>2016-06-06T18:32:34.000Z</time>
      </trkpt>
      <trkpt lat="48.87419" lon="2.32452">
        <ele>43</ele>
        <time>2016-06-06T18:32:39.000Z</time>
      </trkpt>
      <trkpt lat="48.87437" lon="2.32453">
        <ele>42.599998474121</ele>
        <time>2016-06-06T18:32:43.000Z</time>
      </trkpt>
      <trkpt lat="48.87456" lon="2.32457">
        <ele>42.599998474121</ele>
        <time>2016-06-06T18:32:47.000Z</time>
      </trkpt>
      <trkpt lat="48.87475" lon="2.3246">
        <ele>42.799999237061</ele>
        <time>2016-06-06T18:32:52.000Z</time>
      </trkpt>
      <trkpt lat="48.87493" lon="2.32452">
        <ele>43</ele>
        <time>2016-06-06T18:32:57.000Z</time>
      </trkpt>
      <trkpt lat="48.87509" lon="2.32439">
        <ele>43</ele>
        <time>2016-06-06T18:33:03.000Z</time>
      </trkpt>
      <trkpt lat="48.87511" lon="2.32439">
        <ele>43</ele>
        <time>2016-06-06T18:33:04.000Z</time>
      </trkpt>
      <trkpt lat="48.87516" lon="2.32439">
        <ele>43</ele>
        <time>2016-06-06T18:33:08.000Z</time>
      </trkpt>
      <trkpt lat="48.87516" lon="2.3243">
        <ele>43</ele>
        <time>2016-06-06T18:33:37.000Z</time>
      </trkpt>
      <trkpt lat="48.87532" lon="2.32409">
        <ele>42.400001525879</ele>
        <time>2016-06-06T18:33:51.000Z</time>
      </trkpt>
      <trkpt lat="48.87538" lon="2.32405">
        <ele>42</ele>
        <time>2016-06-06T18:33:56.000Z</time>
      </trkpt>
      <trkpt lat="48.87535" lon="2.324">
        <ele>42.400001525879</ele>
        <time>2016-06-06T18:34:01.000Z</time>
      </trkpt>
      <trkpt lat="48.87549" lon="2.32379">
        <ele>42</ele>
        <time>2016-06-06T18:34:10.000Z</time>
      </trkpt>
      <trkpt lat="48.87558" lon="2.32359">
        <ele>42</ele>
        <time>2016-06-06T18:34:14.000Z</time>
      </trkpt>
      <trkpt lat="48.87566" lon="2.32333">
        <ele>43.799999237061</ele>
        <time>2016-06-06T18:34:19.000Z</time>
      </trkpt>
      <trkpt lat="48.87575" lon="2.32309">
        <ele>44.200000762939</ele>
        <time>2016-06-06T18:34:24.000Z</time>
      </trkpt>
      <trkpt lat="48.87588" lon="2.32285">
        <ele>45.400001525879</ele>
        <time>2016-06-06T18:34:33.000Z</time>
      </trkpt>
      <trkpt lat="48.87598" lon="2.32258">
        <ele>47.200000762939</ele>
        <time>2016-06-06T18:34:39.000Z</time>
      </trkpt>
      <trkpt lat="48.87609" lon="2.32234">
        <ele>48</ele>
        <time>2016-06-06T18:34:44.000Z</time>
      </trkpt>
      <trkpt lat="48.87621" lon="2.32209">
        <ele>47.799999237061</ele>
        <time>2016-06-06T18:34:50.000Z</time>
      </trkpt>
      <trkpt lat="48.87635" lon="2.32186">
        <ele>48.200000762939</ele>
        <time>2016-06-06T18:34:56.000Z</time>
      </trkpt>
      <trkpt lat="48.87648" lon="2.32166">
        <ele>50</ele>
        <time>2016-06-06T18:35:02.000Z</time>
      </trkpt>
      <trkpt lat="48.87669" lon="2.32161">
        <ele>51.599998474121</ele>
        <time>2016-06-06T18:35:08.000Z</time>
      </trkpt>
      <trkpt lat="48.87688" lon="2.32176">
        <ele>52.400001525879</ele>
        <time>2016-06-06T18:35:18.000Z</time>
      </trkpt>
      <trkpt lat="48.87695" lon="2.32166">
        <ele>53.400001525879</ele>
        <time>2016-06-06T18:35:29.000Z</time>
      </trkpt>
      <trkpt lat="48.87709" lon="2.32146">
        <ele>54.200000762939</ele>
        <time>2016-06-06T18:35:34.000Z</time>
      </trkpt>
      <trkpt lat="48.87723" lon="2.32128">
        <ele>54.799999237061</ele>
        <time>2016-06-06T18:35:39.000Z</time>
      </trkpt>
      <trkpt lat="48.87737" lon="2.32104">
        <ele>55.599998474121</ele>
        <time>2016-06-06T18:35:46.000Z</time>
      </trkpt>
      <trkpt lat="48.8775" lon="2.32083">
        <ele>56.400001525879</ele>
        <time>2016-06-06T18:35:51.000Z</time>
      </trkpt>
      <trkpt lat="48.87764" lon="2.3206">
        <ele>57.200000762939</ele>
        <time>2016-06-06T18:35:56.000Z</time>
      </trkpt>
      <trkpt lat="48.87777" lon="2.32041">
        <ele>57.200000762939</ele>
        <time>2016-06-06T18:36:00.000Z</time>
      </trkpt>
      <trkpt lat="48.87791" lon="2.32019">
        <ele>56.400001525879</ele>
        <time>2016-06-06T18:36:04.000Z</time>
      </trkpt>
      <trkpt lat="48.87804" lon="2.31999">
        <ele>56.200000762939</ele>
        <time>2016-06-06T18:36:08.000Z</time>
      </trkpt>
      <trkpt lat="48.87818" lon="2.31988">
        <ele>56.799999237061</ele>
        <time>2016-06-06T18:36:11.000Z</time>
      </trkpt>
      <trkpt lat="48.87834" lon="2.31969">
        <ele>57.599998474121</ele>
        <time>2016-06-06T18:36:15.000Z</time>
      </trkpt>
      <trkpt lat="48.87846" lon="2.31948">
        <ele>58.200000762939</ele>
        <time>2016-06-06T18:36:19.000Z</time>
      </trkpt>
      <trkpt lat="48.8786" lon="2.31923">
        <ele>59.200000762939</ele>
        <time>2016-06-06T18:36:24.000Z</time>
      </trkpt>
      <trkpt lat="48.87874" lon="2.31903">
        <ele>60.200000762939</ele>
        <time>2016-06-06T18:36:29.000Z</time>
      </trkpt>
      <trkpt lat="48.87888" lon="2.31883">
        <ele>61.200000762939</ele>
        <time>2016-06-06T18:36:34.000Z</time>
      </trkpt>
      <trkpt lat="48.87905" lon="2.31865">
        <ele>62.200000762939</ele>
        <time>2016-06-06T18:36:39.000Z</time>
      </trkpt>
      <trkpt lat="48.87914" lon="2.31855">
        <ele>62.400001525879</ele>
        <time>2016-06-06T18:36:42.000Z</time>
      </trkpt>
      <trkpt lat="48.87925" lon="2.31848">
        <ele>62.599998474121</ele>
        <time>2016-06-06T18:36:45.000Z</time>
      </trkpt>
      <trkpt lat="48.87934" lon="2.31832">
        <ele>62.799999237061</ele>
        <time>2016-06-06T18:36:50.000Z</time>
      </trkpt>
      <trkpt lat="48.87937" lon="2.31825">
        <ele>62.799999237061</ele>
        <time>2016-06-06T18:36:54.000Z</time>
      </trkpt>
      <trkpt lat="48.87941" lon="2.31821">
        <ele>62.799999237061</ele>
        <time>2016-06-06T18:36:59.000Z</time>
      </trkpt>
      <trkpt lat="48.87955" lon="2.31807">
        <ele>62.799999237061</ele>
        <time>2016-06-06T18:37:08.000Z</time>
      </trkpt>
      <trkpt lat="48.87972" lon="2.31794">
        <ele>63</ele>
        <time>2016-06-06T18:37:15.000Z</time>
      </trkpt>
      <trkpt lat="48.87988" lon="2.31773">
        <ele>63</ele>
        <time>2016-06-06T18:37:22.000Z</time>
      </trkpt>
      <trkpt lat="48.88004" lon="2.31759">
        <ele>63.400001525879</ele>
        <time>2016-06-06T18:37:28.000Z</time>
      </trkpt>
      <trkpt lat="48.8802" lon="2.31742">
        <ele>63.599998474121</ele>
        <time>2016-06-06T18:37:35.000Z</time>
      </trkpt>
      <trkpt lat="48.8804" lon="2.31734">
        <ele>63.799999237061</ele>
        <time>2016-06-06T18:37:41.000Z</time>
      </trkpt>
      <trkpt lat="48.88058" lon="2.3172">
        <ele>63.400001525879</ele>
        <time>2016-06-06T18:37:49.000Z</time>
      </trkpt>
      <trkpt lat="48.88074" lon="2.31705">
        <ele>63.400001525879</ele>
        <time>2016-06-06T18:37:56.000Z</time>
      </trkpt>
      <trkpt lat="48.88092" lon="2.31691">
        <ele>63.799999237061</ele>
        <time>2016-06-06T18:38:03.000Z</time>
      </trkpt>
      <trkpt lat="48.88092" lon="2.31689">
        <ele>63.799999237061</ele>
        <time>2016-06-06T18:38:04.000Z</time>
      </trkpt>
      <trkpt lat="48.88104" lon="2.31675">
        <ele>64</ele>
        <time>2016-06-06T18:38:13.000Z</time>
      </trkpt>
      <trkpt lat="48.88104" lon="2.31674">
        <ele>64</ele>
        <time>2016-06-06T18:38:14.000Z</time>
      </trkpt>
      <trkpt lat="48.88122" lon="2.31679">
        <ele>63.599998474121</ele>
        <time>2016-06-06T18:38:27.000Z</time>
      </trkpt>
      <trkpt lat="48.88136" lon="2.31659">
        <ele>62.799999237061</ele>
        <time>2016-06-06T18:38:32.000Z</time>
      </trkpt>
      <trkpt lat="48.88144" lon="2.31634">
        <ele>62</ele>
        <time>2016-06-06T18:38:36.000Z</time>
      </trkpt>
      <trkpt lat="48.88148" lon="2.31616">
        <ele>61.599998474121</ele>
        <time>2016-06-06T18:38:39.000Z</time>
      </trkpt>
      <trkpt lat="48.88155" lon="2.31587">
        <ele>62.400001525879</ele>
        <time>2016-06-06T18:38:44.000Z</time>
      </trkpt>
      <trkpt lat="48.8816" lon="2.31558">
        <ele>63.400001525879</ele>
        <time>2016-06-06T18:38:48.000Z</time>
      </trkpt>
      <trkpt lat="48.88166" lon="2.3153">
        <ele>63.599998474121</ele>
        <time>2016-06-06T18:38:52.000Z</time>
      </trkpt>
      <trkpt lat="48.88173" lon="2.31504">
        <ele>63.400001525879</ele>
        <time>2016-06-06T18:38:56.000Z</time>
      </trkpt>
      <trkpt lat="48.88183" lon="2.31477">
        <ele>63.400001525879</ele>
        <time>2016-06-06T18:39:01.000Z</time>
      </trkpt>
      <trkpt lat="48.88197" lon="2.31449">
        <ele>63.799999237061</ele>
        <time>2016-06-06T18:39:06.000Z</time>
      </trkpt>
      <trkpt lat="48.88213" lon="2.31422">
        <ele>63.799999237061</ele>
        <time>2016-06-06T18:39:11.000Z</time>
      </trkpt>
      <trkpt lat="48.88227" lon="2.314">
        <ele>62.799999237061</ele>
        <time>2016-06-06T18:39:15.000Z</time>
      </trkpt>
      <trkpt lat="48.88241" lon="2.31379">
        <ele>61.799999237061</ele>
        <time>2016-06-06T18:39:19.000Z</time>
      </trkpt>
      <trkpt lat="48.88255" lon="2.31357">
        <ele>61</ele>
        <time>2016-06-06T18:39:23.000Z</time>
      </trkpt>
      <trkpt lat="48.88269" lon="2.31334">
        <ele>60.200000762939</ele>
        <time>2016-06-06T18:39:27.000Z</time>
      </trkpt>
      <trkpt lat="48.88276" lon="2.31323">
        <ele>59.799999237061</ele>
        <time>2016-06-06T18:39:29.000Z</time>
      </trkpt>
      <trkpt lat="48.88287" lon="2.31297">
        <ele>59.400001525879</ele>
        <time>2016-06-06T18:39:33.000Z</time>
      </trkpt>
      <trkpt lat="48.88297" lon="2.31275">
        <ele>59</ele>
        <time>2016-06-06T18:39:37.000Z</time>
      </trkpt>
      <trkpt lat="48.883" lon="2.31272">
        <ele>59</ele>
        <time>2016-06-06T18:39:38.000Z</time>
      </trkpt>
      <trkpt lat="48.8832" lon="2.31264">
        <ele>59.400001525879</ele>
        <time>2016-06-06T18:39:43.000Z</time>
      </trkpt>
      <trkpt lat="48.88332" lon="2.31257">
        <ele>59.599998474121</ele>
        <time>2016-06-06T18:39:46.000Z</time>
      </trkpt>
      <trkpt lat="48.8834" lon="2.3125">
        <ele>59.799999237061</ele>
        <time>2016-06-06T18:39:48.000Z</time>
      </trkpt>
      <trkpt lat="48.88355" lon="2.31228">
        <ele>59.599998474121</ele>
        <time>2016-06-06T18:39:53.000Z</time>
      </trkpt>
      <trkpt lat="48.88369" lon="2.31212">
        <ele>58.799999237061</ele>
        <time>2016-06-06T18:39:57.000Z</time>
      </trkpt>
      <trkpt lat="48.88379" lon="2.31197">
        <ele>58.200000762939</ele>
        <time>2016-06-06T18:40:00.000Z</time>
      </trkpt>
      <trkpt lat="48.88395" lon="2.31179">
        <ele>57.400001525879</ele>
        <time>2016-06-06T18:40:04.000Z</time>
      </trkpt>
      <trkpt lat="48.8841" lon="2.3116">
        <ele>56.599998474121</ele>
        <time>2016-06-06T18:40:08.000Z</time>
      </trkpt>
      <trkpt lat="48.88421" lon="2.31142">
        <ele>56</ele>
        <time>2016-06-06T18:40:11.000Z</time>
      </trkpt>
      <trkpt lat="48.88439" lon="2.31129">
        <ele>55.200000762939</ele>
        <time>2016-06-06T18:40:14.000Z</time>
      </trkpt>
      <trkpt lat="48.88455" lon="2.3111">
        <ele>54.799999237061</ele>
        <time>2016-06-06T18:40:18.000Z</time>
      </trkpt>
      <trkpt lat="48.8847" lon="2.31092">
        <ele>54.599998474121</ele>
        <time>2016-06-06T18:40:22.000Z</time>
      </trkpt>
      <trkpt lat="48.88485" lon="2.31071">
        <ele>54.599998474121</ele>
        <time>2016-06-06T18:40:27.000Z</time>
      </trkpt>
      <trkpt lat="48.88489" lon="2.3107">
        <ele>54.599998474121</ele>
        <time>2016-06-06T18:40:28.000Z</time>
      </trkpt>
      <trkpt lat="48.88507" lon="2.31092">
        <ele>55</ele>
        <time>2016-06-06T18:40:35.000Z</time>
      </trkpt>
      <trkpt lat="48.88514" lon="2.31101">
        <ele>55.400001525879</ele>
        <time>2016-06-06T18:40:37.000Z</time>
      </trkpt>
      <trkpt lat="48.88525" lon="2.31114">
        <ele>55.799999237061</ele>
        <time>2016-06-06T18:40:40.000Z</time>
      </trkpt>
      <trkpt lat="48.88532" lon="2.31127">
        <ele>56</ele>
        <time>2016-06-06T18:40:43.000Z</time>
      </trkpt>
      <trkpt lat="48.88545" lon="2.31146">
        <ele>56</ele>
        <time>2016-06-06T18:40:46.000Z</time>
      </trkpt>
      <trkpt lat="48.88563" lon="2.31168">
        <ele>56</ele>
        <time>2016-06-06T18:40:51.000Z</time>
      </trkpt>
      <trkpt lat="48.88579" lon="2.3119">
        <ele>56</ele>
        <time>2016-06-06T18:40:55.000Z</time>
      </trkpt>
      <trkpt lat="48.88588" lon="2.31199">
        <ele>55.799999237061</ele>
        <time>2016-06-06T18:40:57.000Z</time>
      </trkpt>
      <trkpt lat="48.88604" lon="2.31221">
        <ele>55.799999237061</ele>
        <time>2016-06-06T18:41:01.000Z</time>
      </trkpt>
      <trkpt lat="48.88618" lon="2.31242">
        <ele>55.200000762939</ele>
        <time>2016-06-06T18:41:05.000Z</time>
      </trkpt>
      <trkpt lat="48.88631" lon="2.31267">
        <ele>55</ele>
        <time>2016-06-06T18:41:10.000Z</time>
      </trkpt>
      <trkpt lat="48.88641" lon="2.31278">
        <ele>54.599998474121</ele>
        <time>2016-06-06T18:41:13.000Z</time>
      </trkpt>
      <trkpt lat="48.88646" lon="2.31296">
        <ele>54.400001525879</ele>
        <time>2016-06-06T18:41:17.000Z</time>
      </trkpt>
      <trkpt lat="48.88655" lon="2.31311">
        <ele>54</ele>
        <time>2016-06-06T18:41:21.000Z</time>
      </trkpt>
      <trkpt lat="48.88666" lon="2.31324">
        <ele>53.599998474121</ele>
        <time>2016-06-06T18:41:24.000Z</time>
      </trkpt>
      <trkpt lat="48.8868" lon="2.31349">
        <ele>53.599998474121</ele>
        <time>2016-06-06T18:41:29.000Z</time>
      </trkpt>
      <trkpt lat="48.88692" lon="2.31367">
        <ele>53.599998474121</ele>
        <time>2016-06-06T18:41:33.000Z</time>
      </trkpt>
      <trkpt lat="48.88709" lon="2.31381">
        <ele>52.400001525879</ele>
        <time>2016-06-06T18:41:38.000Z</time>
      </trkpt>
      <trkpt lat="48.88716" lon="2.31388">
        <ele>51.799999237061</ele>
        <time>2016-06-06T18:41:46.000Z</time>
      </trkpt>
      <trkpt lat="48.88719" lon="2.31393">
        <ele>51.799999237061</ele>
        <time>2016-06-06T18:41:48.000Z</time>
      </trkpt>
      <trkpt lat="48.8873" lon="2.31416">
        <ele>51.200000762939</ele>
        <time>2016-06-06T18:41:55.000Z</time>
      </trkpt>
      <trkpt lat="48.88742" lon="2.31437">
        <ele>49.599998474121</ele>
        <time>2016-06-06T18:42:00.000Z</time>
      </trkpt>
      <trkpt lat="48.88757" lon="2.31458">
        <ele>48</ele>
        <time>2016-06-06T18:42:05.000Z</time>
      </trkpt>
      <trkpt lat="48.88774" lon="2.31479">
        <ele>46.200000762939</ele>
        <time>2016-06-06T18:42:10.000Z</time>
      </trkpt>
      <trkpt lat="48.8879" lon="2.31502">
        <ele>45.400001525879</ele>
        <time>2016-06-06T18:42:15.000Z</time>
      </trkpt>
      <trkpt lat="48.88809" lon="2.31518">
        <ele>45.599998474121</ele>
        <time>2016-06-06T18:42:20.000Z</time>
      </trkpt>
      <trkpt lat="48.88826" lon="2.31537">
        <ele>45.799999237061</ele>
        <time>2016-06-06T18:42:25.000Z</time>
      </trkpt>
      <trkpt lat="48.88842" lon="2.31556">
        <ele>46.200000762939</ele>
        <time>2016-06-06T18:42:30.000Z</time>
      </trkpt>
      <trkpt lat="48.88845" lon="2.31566">
        <ele>46.599998474121</ele>
        <time>2016-06-06T18:42:32.000Z</time>
      </trkpt>
      <trkpt lat="48.88839" lon="2.31587">
        <ele>47</ele>
        <time>2016-06-06T18:42:37.000Z</time>
      </trkpt>
      <trkpt lat="48.88825" lon="2.31609">
        <ele>48</ele>
        <time>2016-06-06T18:42:42.000Z</time>
      </trkpt>
      <trkpt lat="48.88812" lon="2.31632">
        <ele>49.200000762939</ele>
        <time>2016-06-06T18:42:47.000Z</time>
      </trkpt>
      <trkpt lat="48.88804" lon="2.31654">
        <ele>50.599998474121</ele>
        <time>2016-06-06T18:42:52.000Z</time>
      </trkpt>
      <trkpt lat="48.88809" lon="2.31683">
        <ele>52</ele>
        <time>2016-06-06T18:42:59.000Z</time>
      </trkpt>
      <trkpt lat="48.88827" lon="2.31704">
        <ele>52.599998474121</ele>
        <time>2016-06-06T18:43:04.000Z</time>
      </trkpt>
      <trkpt lat="48.8884" lon="2.31726">
        <ele>53.200000762939</ele>
        <time>2016-06-06T18:43:08.000Z</time>
      </trkpt>
      <trkpt lat="48.88852" lon="2.31747">
        <ele>54</ele>
        <time>2016-06-06T18:43:13.000Z</time>
      </trkpt>
      <trkpt lat="48.88865" lon="2.31772">
        <ele>54</ele>
        <time>2016-06-06T18:43:19.000Z</time>
      </trkpt>
      <trkpt lat="48.88878" lon="2.31794">
        <ele>53.799999237061</ele>
        <time>2016-06-06T18:43:24.000Z</time>
      </trkpt>
      <trkpt lat="48.8889" lon="2.31815">
        <ele>53.599998474121</ele>
        <time>2016-06-06T18:43:30.000Z</time>
      </trkpt>
      <trkpt lat="48.88905" lon="2.31835">
        <ele>53.200000762939</ele>
        <time>2016-06-06T18:43:34.000Z</time>
      </trkpt>
      <trkpt lat="48.88918" lon="2.31856">
        <ele>52.799999237061</ele>
        <time>2016-06-06T18:43:39.000Z</time>
      </trkpt>
      <trkpt lat="48.88914" lon="2.31881">
        <ele>53</ele>
        <time>2016-06-06T18:43:44.000Z</time>
      </trkpt>
      <trkpt lat="48.88907" lon="2.31913">
        <ele>53.599998474121</ele>
        <time>2016-06-06T18:43:50.000Z</time>
      </trkpt>
      <trkpt lat="48.88899" lon="2.31941">
        <ele>54.599998474121</ele>
        <time>2016-06-06T18:43:55.000Z</time>
      </trkpt>
      <trkpt lat="48.88885" lon="2.31965">
        <ele>55.599998474121</ele>
        <time>2016-06-06T18:44:00.000Z</time>
      </trkpt>
      <trkpt lat="48.88872" lon="2.31991">
        <ele>56.400001525879</ele>
        <time>2016-06-06T18:44:05.000Z</time>
      </trkpt>
      <trkpt lat="48.88864" lon="2.32012">
        <ele>57</ele>
        <time>2016-06-06T18:44:10.000Z</time>
      </trkpt>
      <trkpt lat="48.88868" lon="2.32032">
        <ele>57</ele>
        <time>2016-06-06T18:44:15.000Z</time>
      </trkpt>
      <trkpt lat="48.88884" lon="2.32051">
        <ele>56.599998474121</ele>
        <time>2016-06-06T18:44:21.000Z</time>
      </trkpt>
      <trkpt lat="48.889" lon="2.32068">
        <ele>56.200000762939</ele>
        <time>2016-06-06T18:44:27.000Z</time>
      </trkpt>
      <trkpt lat="48.88912" lon="2.32092">
        <ele>56.200000762939</ele>
        <time>2016-06-06T18:44:35.000Z</time>
      </trkpt>
      <trkpt lat="48.88925" lon="2.32112">
        <ele>55.799999237061</ele>
        <time>2016-06-06T18:44:42.000Z</time>
      </trkpt>
      <trkpt lat="48.88942" lon="2.3213">
        <ele>55.599998474121</ele>
        <time>2016-06-06T18:44:48.000Z</time>
      </trkpt>
      <trkpt lat="48.88952" lon="2.32144">
        <ele>55.799999237061</ele>
        <time>2016-06-06T18:44:54.000Z</time>
      </trkpt>
      <trkpt lat="48.88968" lon="2.32167">
        <ele>56</ele>
        <time>2016-06-06T18:45:08.000Z</time>
      </trkpt>
      <trkpt lat="48.8897" lon="2.32171">
        <ele>56</ele>
        <time>2016-06-06T18:45:09.000Z</time>
      </trkpt>
      <trkpt lat="48.88982" lon="2.32192">
        <ele>56</ele>
        <time>2016-06-06T18:45:16.000Z</time>
      </trkpt>
      <trkpt lat="48.88997" lon="2.32211">
        <ele>56</ele>
        <time>2016-06-06T18:45:22.000Z</time>
      </trkpt>
      <trkpt lat="48.89015" lon="2.32235">
        <ele>56</ele>
        <time>2016-06-06T18:45:27.000Z</time>
      </trkpt>
      <trkpt lat="48.89034" lon="2.32252">
        <ele>55.599998474121</ele>
        <time>2016-06-06T18:45:31.000Z</time>
      </trkpt>
      <trkpt lat="48.89048" lon="2.32271">
        <ele>55.400001525879</ele>
        <time>2016-06-06T18:45:37.000Z</time>
      </trkpt>
      <trkpt lat="48.89065" lon="2.32286">
        <ele>55</ele>
        <time>2016-06-06T18:45:43.000Z</time>
      </trkpt>
      <trkpt lat="48.89082" lon="2.32304">
        <ele>54.400001525879</ele>
        <time>2016-06-06T18:45:48.000Z</time>
      </trkpt>
      <trkpt lat="48.89097" lon="2.32321">
        <ele>54.200000762939</ele>
        <time>2016-06-06T18:45:53.000Z</time>
      </trkpt>
      <trkpt lat="48.89122" lon="2.32334">
        <ele>53.599998474121</ele>
        <time>2016-06-06T18:45:57.000Z</time>
      </trkpt>
      <trkpt lat="48.8913" lon="2.32356">
        <ele>53.799999237061</ele>
        <time>2016-06-06T18:46:00.000Z</time>
      </trkpt>
      <trkpt lat="48.89132" lon="2.32386">
        <ele>55.200000762939</ele>
        <time>2016-06-06T18:46:04.000Z</time>
      </trkpt>
      <trkpt lat="48.89128" lon="2.3242">
        <ele>56.599998474121</ele>
        <time>2016-06-06T18:46:09.000Z</time>
      </trkpt>
      <trkpt lat="48.89119" lon="2.32445">
        <ele>57</ele>
        <time>2016-06-06T18:46:13.000Z</time>
      </trkpt>
      <trkpt lat="48.89109" lon="2.32474">
        <ele>57.799999237061</ele>
        <time>2016-06-06T18:46:18.000Z</time>
      </trkpt>
      <trkpt lat="48.89096" lon="2.32494">
        <ele>58.200000762939</ele>
        <time>2016-06-06T18:46:22.000Z</time>
      </trkpt>
      <trkpt lat="48.89098" lon="2.32501">
        <ele>58.200000762939</ele>
        <time>2016-06-06T18:46:23.000Z</time>
      </trkpt>
      <trkpt lat="48.89088" lon="2.32527">
        <ele>58.400001525879</ele>
        <time>2016-06-06T18:46:28.000Z</time>
      </trkpt>
      <trkpt lat="48.89079" lon="2.3254">
        <ele>58.599998474121</ele>
        <time>2016-06-06T18:46:31.000Z</time>
      </trkpt>
      <trkpt lat="48.89071" lon="2.32562">
        <ele>58.599998474121</ele>
        <time>2016-06-06T18:46:35.000Z</time>
      </trkpt>
      <trkpt lat="48.89073" lon="2.32575">
        <ele>58.400001525879</ele>
        <time>2016-06-06T18:46:37.000Z</time>
      </trkpt>
      <trkpt lat="48.89068" lon="2.32602">
        <ele>58.400001525879</ele>
        <time>2016-06-06T18:46:42.000Z</time>
      </trkpt>
      <trkpt lat="48.89062" lon="2.32634">
        <ele>59</ele>
        <time>2016-06-06T18:46:48.000Z</time>
      </trkpt>
      <trkpt lat="48.89061" lon="2.32641">
        <ele>59.400001525879</ele>
        <time>2016-06-06T18:46:50.000Z</time>
      </trkpt>
      <trkpt lat="48.89064" lon="2.32657">
        <ele>59.799999237061</ele>
        <time>2016-06-06T18:46:55.000Z</time>
      </trkpt>
      <trkpt lat="48.89064" lon="2.32658">
        <ele>59.799999237061</ele>
        <time>2016-06-06T18:46:56.000Z</time>
      </trkpt>
      <trkpt lat="48.89063" lon="2.32666">
        <ele>60.200000762939</ele>
        <time>2016-06-06T18:47:06.000Z</time>
      </trkpt>
      <trkpt lat="48.89081" lon="2.32672">
        <ele>59.400001525879</ele>
        <time>2016-06-06T18:47:13.000Z</time>
      </trkpt>
      <trkpt lat="48.891" lon="2.32674">
        <ele>58.599998474121</ele>
        <time>2016-06-06T18:47:20.000Z</time>
      </trkpt>
      <trkpt lat="48.89116" lon="2.32686">
        <ele>58</ele>
        <time>2016-06-06T18:47:27.000Z</time>
      </trkpt>
      <trkpt lat="48.89114" lon="2.32701">
        <ele>58.599998474121</ele>
        <time>2016-06-06T18:47:31.000Z</time>
      </trkpt>
      <trkpt lat="48.89111" lon="2.32729">
        <ele>59.400001525879</ele>
        <time>2016-06-06T18:47:37.000Z</time>
      </trkpt>
      <trkpt lat="48.89108" lon="2.32758">
        <ele>60.400001525879</ele>
        <time>2016-06-06T18:47:42.000Z</time>
      </trkpt>
      <trkpt lat="48.89104" lon="2.32787">
        <ele>62</ele>
        <time>2016-06-06T18:47:47.000Z</time>
      </trkpt>
      <trkpt lat="48.89097" lon="2.32815">
        <ele>63.400001525879</ele>
        <time>2016-06-06T18:47:52.000Z</time>
      </trkpt>
      <trkpt lat="48.89097" lon="2.32844">
        <ele>64.400001525879</ele>
        <time>2016-06-06T18:47:57.000Z</time>
      </trkpt>
      <trkpt lat="48.89093" lon="2.32875">
        <ele>65.400001525879</ele>
        <time>2016-06-06T18:48:02.000Z</time>
      </trkpt>
      <trkpt lat="48.89096" lon="2.32909">
        <ele>66.400001525879</ele>
        <time>2016-06-06T18:48:08.000Z</time>
      </trkpt>
      <trkpt lat="48.89097" lon="2.32937">
        <ele>66.199996948242</ele>
        <time>2016-06-06T18:48:13.000Z</time>
      </trkpt>
      <trkpt lat="48.89091" lon="2.3296">
        <ele>65.800003051758</ele>
        <time>2016-06-06T18:48:18.000Z</time>
      </trkpt>
      <trkpt lat="48.89085" lon="2.32988">
        <ele>65.199996948242</ele>
        <time>2016-06-06T18:48:26.000Z</time>
      </trkpt>
      <trkpt lat="48.8908" lon="2.33018">
        <ele>65</ele>
        <time>2016-06-06T18:48:32.000Z</time>
      </trkpt>
      <trkpt lat="48.8908" lon="2.33048">
        <ele>65</ele>
        <time>2016-06-06T18:48:37.000Z</time>
      </trkpt>
      <trkpt lat="48.89074" lon="2.33076">
        <ele>65.599998474121</ele>
        <time>2016-06-06T18:48:43.000Z</time>
      </trkpt>
      <trkpt lat="48.89082" lon="2.33091">
        <ele>66</ele>
        <time>2016-06-06T18:48:49.000Z</time>
      </trkpt>
      <trkpt lat="48.8908" lon="2.33106">
        <ele>66.599998474121</ele>
        <time>2016-06-06T18:49:02.000Z</time>
      </trkpt>
      <trkpt lat="48.89086" lon="2.33135">
        <ele>67.800003051758</ele>
        <time>2016-06-06T18:49:09.000Z</time>
      </trkpt>
      <trkpt lat="48.89088" lon="2.33139">
        <ele>67.800003051758</ele>
        <time>2016-06-06T18:49:10.000Z</time>
      </trkpt>
      <trkpt lat="48.89087" lon="2.3317">
        <ele>69</ele>
        <time>2016-06-06T18:49:16.000Z</time>
      </trkpt>
      <trkpt lat="48.89086" lon="2.33199">
        <ele>69.599998474121</ele>
        <time>2016-06-06T18:49:21.000Z</time>
      </trkpt>
      <trkpt lat="48.89083" lon="2.33228">
        <ele>70.400001525879</ele>
        <time>2016-06-06T18:49:26.000Z</time>
      </trkpt>
      <trkpt lat="48.8908" lon="2.3326">
        <ele>72.599998474121</ele>
        <time>2016-06-06T18:49:32.000Z</time>
      </trkpt>
      <trkpt lat="48.89079" lon="2.33293">
        <ele>73.400001525879</ele>
        <time>2016-06-06T18:49:37.000Z</time>
      </trkpt>
      <trkpt lat="48.89073" lon="2.33321">
        <ele>75.199996948242</ele>
        <time>2016-06-06T18:49:41.000Z</time>
      </trkpt>
      <trkpt lat="48.89065" lon="2.33348">
        <ele>77.400001525879</ele>
        <time>2016-06-06T18:49:45.000Z</time>
      </trkpt>
      <trkpt lat="48.89057" lon="2.33371">
        <ele>79</ele>
        <time>2016-06-06T18:49:48.000Z</time>
      </trkpt>
      <trkpt lat="48.89055" lon="2.33397">
        <ele>80</ele>
        <time>2016-06-06T18:49:51.000Z</time>
      </trkpt>
      <trkpt lat="48.89055" lon="2.33426">
        <ele>80.800003051758</ele>
        <time>2016-06-06T18:49:57.000Z</time>
      </trkpt>
      <trkpt lat="48.89055" lon="2.33432">
        <ele>81</ele>
        <time>2016-06-06T18:50:00.000Z</time>
      </trkpt>
      <trkpt lat="48.89047" lon="2.33454">
        <ele>83.400001525879</ele>
        <time>2016-06-06T18:50:19.000Z</time>
      </trkpt>
      <trkpt lat="48.89039" lon="2.33481">
        <ele>87.400001525879</ele>
        <time>2016-06-06T18:50:24.000Z</time>
      </trkpt>
      <trkpt lat="48.89032" lon="2.33506">
        <ele>90.400001525879</ele>
        <time>2016-06-06T18:50:29.000Z</time>
      </trkpt>
      <trkpt lat="48.89025" lon="2.33532">
        <ele>91.199996948242</ele>
        <time>2016-06-06T18:50:33.000Z</time>
      </trkpt>
      <trkpt lat="48.89018" lon="2.3356">
        <ele>92.199996948242</ele>
        <time>2016-06-06T18:50:37.000Z</time>
      </trkpt>
      <trkpt lat="48.89021" lon="2.33568">
        <ele>91.599998474121</ele>
        <time>2016-06-06T18:50:38.000Z</time>
      </trkpt>
      <trkpt lat="48.89015" lon="2.33596">
        <ele>92.800003051758</ele>
        <time>2016-06-06T18:50:42.000Z</time>
      </trkpt>
      <trkpt lat="48.89011" lon="2.33626">
        <ele>94.199996948242</ele>
        <time>2016-06-06T18:50:46.000Z</time>
      </trkpt>
      <trkpt lat="48.89011" lon="2.33634">
        <ele>94.400001525879</ele>
        <time>2016-06-06T18:50:47.000Z</time>
      </trkpt>
      <trkpt lat="48.8901" lon="2.3365">
        <ele>95</ele>
        <time>2016-06-06T18:50:50.000Z</time>
      </trkpt>
      <trkpt lat="48.89013" lon="2.33667">
        <ele>94.800003051758</ele>
        <time>2016-06-06T18:50:54.000Z</time>
      </trkpt>
      <trkpt lat="48.89013" lon="2.3367">
        <ele>94.599998474121</ele>
        <time>2016-06-06T18:50:55.000Z</time>
      </trkpt>
      <trkpt lat="48.89013" lon="2.33676">
        <ele>94.599998474121</ele>
        <time>2016-06-06T18:50:58.000Z</time>
      </trkpt>
      <trkpt lat="48.89013" lon="2.33702">
        <ele>94.599998474121</ele>
        <time>2016-06-06T18:51:15.000Z</time>
      </trkpt>
      <trkpt lat="48.89007" lon="2.33731">
        <ele>95.800003051758</ele>
        <time>2016-06-06T18:51:21.000Z</time>
      </trkpt>
      <trkpt lat="48.89005" lon="2.33761">
        <ele>95.800003051758</ele>
        <time>2016-06-06T18:51:26.000Z</time>
      </trkpt>
      <trkpt lat="48.89004" lon="2.33786">
        <ele>96.199996948242</ele>
        <time>2016-06-06T18:51:29.000Z</time>
      </trkpt>
      <trkpt lat="48.89" lon="2.33811">
        <ele>97</ele>
        <time>2016-06-06T18:51:32.000Z</time>
      </trkpt>
      <trkpt lat="48.88992" lon="2.33836">
        <ele>96.800003051758</ele>
        <time>2016-06-06T18:51:35.000Z</time>
      </trkpt>
      <trkpt lat="48.88994" lon="2.33868">
        <ele>96.400001525879</ele>
        <time>2016-06-06T18:51:39.000Z</time>
      </trkpt>
      <trkpt lat="48.88994" lon="2.33877">
        <ele>96.199996948242</ele>
        <time>2016-06-06T18:51:41.000Z</time>
      </trkpt>
      <trkpt lat="48.88984" lon="2.33874">
        <ele>97.199996948242</ele>
        <time>2016-06-06T18:52:15.000Z</time>
      </trkpt>
      <trkpt lat="48.88971" lon="2.33874">
        <ele>98.199996948242</ele>
        <time>2016-06-06T18:52:42.000Z</time>
      </trkpt>
      <trkpt lat="48.88968" lon="2.33869">
        <ele>98.599998474121</ele>
        <time>2016-06-06T18:52:46.000Z</time>
      </trkpt>
      <trkpt lat="48.88952" lon="2.33862">
        <ele>100</ele>
        <time>2016-06-06T18:53:16.000Z</time>
      </trkpt>
      <trkpt lat="48.8895" lon="2.33882">
        <ele>99.400001525879</ele>
        <time>2016-06-06T18:53:31.000Z</time>
      </trkpt>
      <trkpt lat="48.88948" lon="2.33915">
        <ele>98.400001525879</ele>
        <time>2016-06-06T18:53:37.000Z</time>
      </trkpt>
      <trkpt lat="48.88954" lon="2.33943">
        <ele>98.800003051758</ele>
        <time>2016-06-06T18:53:41.000Z</time>
      </trkpt>
      <trkpt lat="48.88957" lon="2.33973">
        <ele>99.800003051758</ele>
        <time>2016-06-06T18:53:45.000Z</time>
      </trkpt>
      <trkpt lat="48.88957" lon="2.34002">
        <ele>100.80000305176</ele>
        <time>2016-06-06T18:53:49.000Z</time>
      </trkpt>
      <trkpt lat="48.88958" lon="2.34031">
        <ele>101.19999694824</ele>
        <time>2016-06-06T18:53:54.000Z</time>
      </trkpt>
      <trkpt lat="48.88957" lon="2.34065">
        <ele>102.59999847412</ele>
        <time>2016-06-06T18:53:59.000Z</time>
      </trkpt>
      <trkpt lat="48.88959" lon="2.34095">
        <ele>102.80000305176</ele>
        <time>2016-06-06T18:54:03.000Z</time>
      </trkpt>
      <trkpt lat="48.88961" lon="2.34126">
        <ele>101.80000305176</ele>
        <time>2016-06-06T18:54:07.000Z</time>
      </trkpt>
      <trkpt lat="48.88961" lon="2.34156">
        <ele>101.19999694824</ele>
        <time>2016-06-06T18:54:11.000Z</time>
      </trkpt>
      <trkpt lat="48.88962" lon="2.34188">
        <ele>100.80000305176</ele>
        <time>2016-06-06T18:54:15.000Z</time>
      </trkpt>
      <trkpt lat="48.88964" lon="2.34221">
        <ele>100.40000152588</ele>
        <time>2016-06-06T18:54:19.000Z</time>
      </trkpt>
      <trkpt lat="48.8897" lon="2.34254">
        <ele>99.800003051758</ele>
        <time>2016-06-06T18:54:23.000Z</time>
      </trkpt>
      <trkpt lat="48.88972" lon="2.34286">
        <ele>100</ele>
        <time>2016-06-06T18:54:27.000Z</time>
      </trkpt>
      <trkpt lat="48.8897" lon="2.343">
        <ele>100.19999694824</ele>
        <time>2016-06-06T18:54:29.000Z</time>
      </trkpt>
      <trkpt lat="48.88962" lon="2.34326">
        <ele>100.59999847412</ele>
        <time>2016-06-06T18:54:33.000Z</time>
      </trkpt>
      <trkpt lat="48.88956" lon="2.34353">
        <ele>100.59999847412</ele>
        <time>2016-06-06T18:54:37.000Z</time>
      </trkpt>
      <trkpt lat="48.88948" lon="2.3438">
        <ele>99.400001525879</ele>
        <time>2016-06-06T18:54:41.000Z</time>
      </trkpt>
      <trkpt lat="48.88942" lon="2.34393">
        <ele>99</ele>
        <time>2016-06-06T18:54:43.000Z</time>
      </trkpt>
      <trkpt lat="48.88931" lon="2.3442">
        <ele>98.599998474121</ele>
        <time>2016-06-06T18:54:47.000Z</time>
      </trkpt>
      <trkpt lat="48.88923" lon="2.34447">
        <ele>97.199996948242</ele>
        <time>2016-06-06T18:54:51.000Z</time>
      </trkpt>
      <trkpt lat="48.88924" lon="2.34479">
        <ele>94.599998474121</ele>
        <time>2016-06-06T18:54:55.000Z</time>
      </trkpt>
      <trkpt lat="48.88921" lon="2.34507">
        <ele>92.400001525879</ele>
        <time>2016-06-06T18:54:59.000Z</time>
      </trkpt>
      <trkpt lat="48.88923" lon="2.34528">
        <ele>91.599998474121</ele>
        <time>2016-06-06T18:55:03.000Z</time>
      </trkpt>
      <trkpt lat="48.8892" lon="2.34545">
        <ele>91.199996948242</ele>
        <time>2016-06-06T18:55:09.000Z</time>
      </trkpt>
      <trkpt lat="48.88918" lon="2.34549">
        <ele>91.199996948242</ele>
        <time>2016-06-06T18:55:10.000Z</time>
      </trkpt>
      <trkpt lat="48.88913" lon="2.34562">
        <ele>91</ele>
        <time>2016-06-06T18:55:13.000Z</time>
      </trkpt>
      <trkpt lat="48.88887" lon="2.34569">
        <ele>92</ele>
        <time>2016-06-06T18:55:26.000Z</time>
      </trkpt>
      <trkpt lat="48.88869" lon="2.34581">
        <ele>92.199996948242</ele>
        <time>2016-06-06T18:55:41.000Z</time>
      </trkpt>
      <trkpt lat="48.88863" lon="2.34584">
        <ele>92.400001525879</ele>
        <time>2016-06-06T18:55:44.000Z</time>
      </trkpt>
      <trkpt lat="48.88851" lon="2.34596">
        <ele>92.800003051758</ele>
        <time>2016-06-06T18:55:54.000Z</time>
      </trkpt>
      <trkpt lat="48.88845" lon="2.34602">
        <ele>93</ele>
        <time>2016-06-06T18:56:01.000Z</time>
      </trkpt>
      <trkpt lat="48.88838" lon="2.34603">
        <ele>93.400001525879</ele>
        <time>2016-06-06T18:56:04.000Z</time>
      </trkpt>
      <trkpt lat="48.88833" lon="2.34604">
        <ele>93.800003051758</ele>
        <time>2016-06-06T18:56:09.000Z</time>
      </trkpt>
      <trkpt lat="48.88832" lon="2.34605">
        <ele>93.800003051758</ele>
        <time>2016-06-06T18:56:10.000Z</time>
      </trkpt>
      <trkpt lat="48.88829" lon="2.34608">
        <ele>94</ele>
        <time>2016-06-06T18:56:13.000Z</time>
      </trkpt>
      <trkpt lat="48.88822" lon="2.34614">
        <ele>94.400001525879</ele>
        <time>2016-06-06T18:56:27.000Z</time>
      </trkpt>
      <trkpt lat="48.88824" lon="2.34625">
        <ele>93.599998474121</ele>
        <time>2016-06-06T18:56:32.000Z</time>
      </trkpt>
      <trkpt lat="48.88824" lon="2.34636">
        <ele>92.800003051758</ele>
        <time>2016-06-06T18:56:36.000Z</time>
      </trkpt>
      <trkpt lat="48.88821" lon="2.34649">
        <ele>91.400001525879</ele>
        <time>2016-06-06T18:56:41.000Z</time>
      </trkpt>
      <trkpt lat="48.88816" lon="2.34669">
        <ele>89.599998474121</ele>
        <time>2016-06-06T18:56:53.000Z</time>
      </trkpt>
      <trkpt lat="48.88816" lon="2.3467">
        <ele>89.599998474121</ele>
        <time>2016-06-06T18:57:19.000Z</time>
      </trkpt>
      <trkpt lat="48.88813" lon="2.34684">
        <ele>88.599998474121</ele>
        <time>2016-06-06T18:57:46.000Z</time>
      </trkpt>
      <trkpt lat="48.88795" lon="2.347">
        <ele>88.599998474121</ele>
        <time>2016-06-06T18:57:53.000Z</time>
      </trkpt>
      <trkpt lat="48.88778" lon="2.3471">
        <ele>89.599998474121</ele>
        <time>2016-06-06T18:57:59.000Z</time>
      </trkpt>
      <trkpt lat="48.88761" lon="2.34723">
        <ele>89</ele>
        <time>2016-06-06T18:58:06.000Z</time>
      </trkpt>
      <trkpt lat="48.88743" lon="2.34732">
        <ele>88</ele>
        <time>2016-06-06T18:58:13.000Z</time>
      </trkpt>
      <trkpt lat="48.88724" lon="2.34745">
        <ele>87.199996948242</ele>
        <time>2016-06-06T18:58:20.000Z</time>
      </trkpt>
      <trkpt lat="48.88705" lon="2.34755">
        <ele>86.199996948242</ele>
        <time>2016-06-06T18:58:27.000Z</time>
      </trkpt>
      <trkpt lat="48.88687" lon="2.34757">
        <ele>85.400001525879</ele>
        <time>2016-06-06T18:58:34.000Z</time>
      </trkpt>
      <trkpt lat="48.88668" lon="2.34755">
        <ele>84.800003051758</ele>
        <time>2016-06-06T18:58:39.000Z</time>
      </trkpt>
      <trkpt lat="48.88648" lon="2.34752">
        <ele>84.199996948242</ele>
        <time>2016-06-06T18:58:44.000Z</time>
      </trkpt>
      <trkpt lat="48.88629" lon="2.34753">
        <ele>83.599998474121</ele>
        <time>2016-06-06T18:58:50.000Z</time>
      </trkpt>
      <trkpt lat="48.88609" lon="2.3475">
        <ele>83</ele>
        <time>2016-06-06T18:58:57.000Z</time>
      </trkpt>
      <trkpt lat="48.88591" lon="2.34746">
        <ele>82</ele>
        <time>2016-06-06T18:59:02.000Z</time>
      </trkpt>
      <trkpt lat="48.88568" lon="2.34747">
        <ele>80.800003051758</ele>
        <time>2016-06-06T18:59:07.000Z</time>
      </trkpt>
      <trkpt lat="48.88546" lon="2.34747">
        <ele>79.400001525879</ele>
        <time>2016-06-06T18:59:12.000Z</time>
      </trkpt>
      <trkpt lat="48.88525" lon="2.34746">
        <ele>78.199996948242</ele>
        <time>2016-06-06T18:59:17.000Z</time>
      </trkpt>
      <trkpt lat="48.88506" lon="2.3474">
        <ele>77.599998474121</ele>
        <time>2016-06-06T18:59:22.000Z</time>
      </trkpt>
      <trkpt lat="48.88488" lon="2.34733">
        <ele>77</ele>
        <time>2016-06-06T18:59:27.000Z</time>
      </trkpt>
      <trkpt lat="48.88469" lon="2.34731">
        <ele>76.199996948242</ele>
        <time>2016-06-06T18:59:32.000Z</time>
      </trkpt>
      <trkpt lat="48.8845" lon="2.34725">
        <ele>75.599998474121</ele>
        <time>2016-06-06T18:59:37.000Z</time>
      </trkpt>
      <trkpt lat="48.88431" lon="2.34721">
        <ele>74.800003051758</ele>
        <time>2016-06-06T18:59:42.000Z</time>
      </trkpt>
      <trkpt lat="48.88409" lon="2.34719">
        <ele>73.599998474121</ele>
        <time>2016-06-06T18:59:48.000Z</time>
      </trkpt>
      <trkpt lat="48.88391" lon="2.34718">
        <ele>73.199996948242</ele>
        <time>2016-06-06T18:59:53.000Z</time>
      </trkpt>
      <trkpt lat="48.88371" lon="2.34709">
        <ele>72.800003051758</ele>
        <time>2016-06-06T18:59:59.000Z</time>
      </trkpt>
      <trkpt lat="48.88356" lon="2.347">
        <ele>72.599998474121</ele>
        <time>2016-06-06T19:00:07.000Z</time>
      </trkpt>
      <trkpt lat="48.88357" lon="2.34697">
        <ele>72.599998474121</ele>
        <time>2016-06-06T19:00:19.000Z</time>
      </trkpt>
      <trkpt lat="48.88345" lon="2.34682">
        <ele>73.199996948242</ele>
        <time>2016-06-06T19:00:35.000Z</time>
      </trkpt>
      <trkpt lat="48.8834" lon="2.34679">
        <ele>73.400001525879</ele>
        <time>2016-06-06T19:00:37.000Z</time>
      </trkpt>
      <trkpt lat="48.88328" lon="2.3468">
        <ele>73.800003051758</ele>
        <time>2016-06-06T19:00:42.000Z</time>
      </trkpt>
      <trkpt lat="48.88315" lon="2.34675">
        <ele>74.400001525879</ele>
        <time>2016-06-06T19:00:45.000Z</time>
      </trkpt>
      <trkpt lat="48.88299" lon="2.34658">
        <ele>75.199996948242</ele>
        <time>2016-06-06T19:00:50.000Z</time>
      </trkpt>
      <trkpt lat="48.88285" lon="2.3464">
        <ele>75.800003051758</ele>
        <time>2016-06-06T19:00:55.000Z</time>
      </trkpt>
      <trkpt lat="48.88269" lon="2.34621">
        <ele>76.400001525879</ele>
        <time>2016-06-06T19:01:01.000Z</time>
      </trkpt>
      <trkpt lat="48.88254" lon="2.346">
        <ele>76.400001525879</ele>
        <time>2016-06-06T19:01:06.000Z</time>
      </trkpt>
      <trkpt lat="48.88239" lon="2.34579">
        <ele>76.199996948242</ele>
        <time>2016-06-06T19:01:11.000Z</time>
      </trkpt>
      <trkpt lat="48.88224" lon="2.3456">
        <ele>75.599998474121</ele>
        <time>2016-06-06T19:01:17.000Z</time>
      </trkpt>
      <trkpt lat="48.88206" lon="2.34541">
        <ele>75</ele>
        <time>2016-06-06T19:01:22.000Z</time>
      </trkpt>
      <trkpt lat="48.88188" lon="2.34521">
        <ele>74.199996948242</ele>
        <time>2016-06-06T19:01:26.000Z</time>
      </trkpt>
      <trkpt lat="48.88177" lon="2.3451">
        <ele>73.800003051758</ele>
        <time>2016-06-06T19:01:31.000Z</time>
      </trkpt>
      <trkpt lat="48.88171" lon="2.34504">
        <ele>73.599998474121</ele>
        <time>2016-06-06T19:01:35.000Z</time>
      </trkpt>
      <trkpt lat="48.88156" lon="2.34489">
        <ele>73.199996948242</ele>
        <time>2016-06-06T19:01:41.000Z</time>
      </trkpt>
      <trkpt lat="48.88136" lon="2.34494">
        <ele>72.800003051758</ele>
        <time>2016-06-06T19:01:49.000Z</time>
      </trkpt>
      <trkpt lat="48.88119" lon="2.34504">
        <ele>72.400001525879</ele>
        <time>2016-06-06T19:01:54.000Z</time>
      </trkpt>
      <trkpt lat="48.88098" lon="2.34513">
        <ele>72</ele>
        <time>2016-06-06T19:02:00.000Z</time>
      </trkpt>
      <trkpt lat="48.8808" lon="2.34523">
        <ele>71.400001525879</ele>
        <time>2016-06-06T19:02:05.000Z</time>
      </trkpt>
      <trkpt lat="48.88059" lon="2.34532">
        <ele>70.599998474121</ele>
        <time>2016-06-06T19:02:10.000Z</time>
      </trkpt>
      <trkpt lat="48.8804" lon="2.34544">
        <ele>69.199996948242</ele>
        <time>2016-06-06T19:02:16.000Z</time>
      </trkpt>
      <trkpt lat="48.88022" lon="2.34549">
        <ele>68</ele>
        <time>2016-06-06T19:02:20.000Z</time>
      </trkpt>
      <trkpt lat="48.88002" lon="2.34555">
        <ele>66.800003051758</ele>
        <time>2016-06-06T19:02:25.000Z</time>
      </trkpt>
      <trkpt lat="48.87991" lon="2.34566">
        <ele>66</ele>
        <time>2016-06-06T19:02:32.000Z</time>
      </trkpt>
      <trkpt lat="48.87994" lon="2.34534">
        <ele>66.199996948242</ele>
        <time>2016-06-06T19:02:40.000Z</time>
      </trkpt>
      <trkpt lat="48.88" lon="2.34506">
        <ele>66.599998474121</ele>
        <time>2016-06-06T19:02:45.000Z</time>
      </trkpt>
      <trkpt lat="48.88006" lon="2.34478">
        <ele>67</ele>
        <time>2016-06-06T19:02:50.000Z</time>
      </trkpt>
      <trkpt lat="48.88011" lon="2.34452">
        <ele>67.599998474121</ele>
        <time>2016-06-06T19:02:54.000Z</time>
      </trkpt>
      <trkpt lat="48.88019" lon="2.34423">
        <ele>68.599998474121</ele>
        <time>2016-06-06T19:02:58.000Z</time>
      </trkpt>
      <trkpt lat="48.88025" lon="2.34392">
        <ele>68.800003051758</ele>
        <time>2016-06-06T19:03:03.000Z</time>
      </trkpt>
      <trkpt lat="48.88023" lon="2.34374">
        <ele>68.599998474121</ele>
        <time>2016-06-06T19:03:09.000Z</time>
      </trkpt>
      <trkpt lat="48.88005" lon="2.34367">
        <ele>67.599998474121</ele>
        <time>2016-06-06T19:03:24.000Z</time>
      </trkpt>
      <trkpt lat="48.87987" lon="2.34372">
        <ele>66.800003051758</ele>
        <time>2016-06-06T19:03:29.000Z</time>
      </trkpt>
      <trkpt lat="48.87966" lon="2.34371">
        <ele>65.400001525879</ele>
        <time>2016-06-06T19:03:35.000Z</time>
      </trkpt>
      <trkpt lat="48.87948" lon="2.34357">
        <ele>64.199996948242</ele>
        <time>2016-06-06T19:03:43.000Z</time>
      </trkpt>
      <trkpt lat="48.87934" lon="2.34334">
        <ele>63.799999237061</ele>
        <time>2016-06-06T19:03:48.000Z</time>
      </trkpt>
      <trkpt lat="48.87931" lon="2.34333">
        <ele>63.599998474121</ele>
        <time>2016-06-06T19:03:49.000Z</time>
      </trkpt>
      <trkpt lat="48.87912" lon="2.34325">
        <ele>62.799999237061</ele>
        <time>2016-06-06T19:03:54.000Z</time>
      </trkpt>
      <trkpt lat="48.87893" lon="2.34319">
        <ele>62</ele>
        <time>2016-06-06T19:03:59.000Z</time>
      </trkpt>
      <trkpt lat="48.87874" lon="2.3431">
        <ele>61.200000762939</ele>
        <time>2016-06-06T19:04:04.000Z</time>
      </trkpt>
      <trkpt lat="48.87855" lon="2.34299">
        <ele>60.200000762939</ele>
        <time>2016-06-06T19:04:10.000Z</time>
      </trkpt>
      <trkpt lat="48.87836" lon="2.34288">
        <ele>59</ele>
        <time>2016-06-06T19:04:16.000Z</time>
      </trkpt>
      <trkpt lat="48.87818" lon="2.34277">
        <ele>57.799999237061</ele>
        <time>2016-06-06T19:04:22.000Z</time>
      </trkpt>
      <trkpt lat="48.87797" lon="2.34264">
        <ele>56.599998474121</ele>
        <time>2016-06-06T19:04:28.000Z</time>
      </trkpt>
      <trkpt lat="48.87779" lon="2.34257">
        <ele>55.400001525879</ele>
        <time>2016-06-06T19:04:32.000Z</time>
      </trkpt>
      <trkpt lat="48.87758" lon="2.34249">
        <ele>54.400001525879</ele>
        <time>2016-06-06T19:04:37.000Z</time>
      </trkpt>
      <trkpt lat="48.87739" lon="2.34241">
        <ele>53.799999237061</ele>
        <time>2016-06-06T19:04:44.000Z</time>
      </trkpt>
      <trkpt lat="48.87738" lon="2.3423">
        <ele>53.799999237061</ele>
        <time>2016-06-06T19:04:46.000Z</time>
      </trkpt>
      <trkpt lat="48.87724" lon="2.34224">
        <ele>53.200000762939</ele>
        <time>2016-06-06T19:05:10.000Z</time>
      </trkpt>
      <trkpt lat="48.8772" lon="2.34224">
        <ele>53.200000762939</ele>
        <time>2016-06-06T19:05:12.000Z</time>
      </trkpt>
      <trkpt lat="48.87712" lon="2.34221">
        <ele>52.799999237061</ele>
        <time>2016-06-06T19:05:16.000Z</time>
      </trkpt>
      <trkpt lat="48.87705" lon="2.34215">
        <ele>52.599998474121</ele>
        <time>2016-06-06T19:05:36.000Z</time>
      </trkpt>
      <trkpt lat="48.87694" lon="2.34191">
        <ele>52.200000762939</ele>
        <time>2016-06-06T19:05:40.000Z</time>
      </trkpt>
      <trkpt lat="48.87678" lon="2.34165">
        <ele>51.599998474121</ele>
        <time>2016-06-06T19:05:44.000Z</time>
      </trkpt>
      <trkpt lat="48.87665" lon="2.34136">
        <ele>51</ele>
        <time>2016-06-06T19:05:48.000Z</time>
      </trkpt>
      <trkpt lat="48.87655" lon="2.34111">
        <ele>50.400001525879</ele>
        <time>2016-06-06T19:05:51.000Z</time>
      </trkpt>
      <trkpt lat="48.87644" lon="2.34088">
        <ele>49.599998474121</ele>
        <time>2016-06-06T19:05:54.000Z</time>
      </trkpt>
      <trkpt lat="48.8763" lon="2.3406">
        <ele>48.799999237061</ele>
        <time>2016-06-06T19:05:58.000Z</time>
      </trkpt>
      <trkpt lat="48.87617" lon="2.34038">
        <ele>48.200000762939</ele>
        <time>2016-06-06T19:06:01.000Z</time>
      </trkpt>
      <trkpt lat="48.87614" lon="2.34031">
        <ele>47.799999237061</ele>
        <time>2016-06-06T19:06:02.000Z</time>
      </trkpt>
      <trkpt lat="48.87602" lon="2.34003">
        <ele>47.200000762939</ele>
        <time>2016-06-06T19:06:06.000Z</time>
      </trkpt>
      <trkpt lat="48.87591" lon="2.33987">
        <ele>46.799999237061</ele>
        <time>2016-06-06T19:06:09.000Z</time>
      </trkpt>
      <trkpt lat="48.87573" lon="2.3398">
        <ele>46.599998474121</ele>
        <time>2016-06-06T19:06:13.000Z</time>
      </trkpt>
      <trkpt lat="48.8755" lon="2.33973">
        <ele>46.400001525879</ele>
        <time>2016-06-06T19:06:18.000Z</time>
      </trkpt>
      <trkpt lat="48.87533" lon="2.33969">
        <ele>46.400001525879</ele>
        <time>2016-06-06T19:06:22.000Z</time>
      </trkpt>
      <trkpt lat="48.87516" lon="2.33967">
        <ele>46.400001525879</ele>
        <time>2016-06-06T19:06:26.000Z</time>
      </trkpt>
      <trkpt lat="48.87497" lon="2.33958">
        <ele>46.599998474121</ele>
        <time>2016-06-06T19:06:30.000Z</time>
      </trkpt>
      <trkpt lat="48.87487" lon="2.33952">
        <ele>46.799999237061</ele>
        <time>2016-06-06T19:06:33.000Z</time>
      </trkpt>
      <trkpt lat="48.8748" lon="2.33947">
        <ele>46.799999237061</ele>
        <time>2016-06-06T19:06:36.000Z</time>
      </trkpt>
      <trkpt lat="48.87469" lon="2.33942">
        <ele>47</ele>
        <time>2016-06-06T19:06:40.000Z</time>
      </trkpt>
      <trkpt lat="48.87459" lon="2.33938">
        <ele>47</ele>
        <time>2016-06-06T19:06:43.000Z</time>
      </trkpt>
      <trkpt lat="48.8744" lon="2.33932">
        <ele>47</ele>
        <time>2016-06-06T19:06:48.000Z</time>
      </trkpt>
      <trkpt lat="48.87421" lon="2.33927">
        <ele>47.200000762939</ele>
        <time>2016-06-06T19:06:53.000Z</time>
      </trkpt>
      <trkpt lat="48.87404" lon="2.33914">
        <ele>47.400001525879</ele>
        <time>2016-06-06T19:06:59.000Z</time>
      </trkpt>
      <trkpt lat="48.87384" lon="2.33909">
        <ele>47.599998474121</ele>
        <time>2016-06-06T19:07:04.000Z</time>
      </trkpt>
      <trkpt lat="48.87366" lon="2.33901">
        <ele>47.799999237061</ele>
        <time>2016-06-06T19:07:08.000Z</time>
      </trkpt>
      <trkpt lat="48.87348" lon="2.33895">
        <ele>48.200000762939</ele>
        <time>2016-06-06T19:07:12.000Z</time>
      </trkpt>
      <trkpt lat="48.87329" lon="2.33881">
        <ele>49</ele>
        <time>2016-06-06T19:07:16.000Z</time>
      </trkpt>
      <trkpt lat="48.8731" lon="2.33873">
        <ele>49.599998474121</ele>
        <time>2016-06-06T19:07:20.000Z</time>
      </trkpt>
      <trkpt lat="48.87293" lon="2.3387">
        <ele>50.200000762939</ele>
        <time>2016-06-06T19:07:24.000Z</time>
      </trkpt>
      <trkpt lat="48.87286" lon="2.33869">
        <ele>50.599998474121</ele>
        <time>2016-06-06T19:07:26.000Z</time>
      </trkpt>
      <trkpt lat="48.87265" lon="2.33864">
        <ele>51</ele>
        <time>2016-06-06T19:07:32.000Z</time>
      </trkpt>
      <trkpt lat="48.8725" lon="2.33861">
        <ele>50.799999237061</ele>
        <time>2016-06-06T19:07:36.000Z</time>
      </trkpt>
      <trkpt lat="48.87239" lon="2.33854">
        <ele>50.599998474121</ele>
        <time>2016-06-06T19:07:40.000Z</time>
      </trkpt>
      <trkpt lat="48.87223" lon="2.33838">
        <ele>50.400001525879</ele>
        <time>2016-06-06T19:07:48.000Z</time>
      </trkpt>
      <trkpt lat="48.87205" lon="2.33832">
        <ele>50.200000762939</ele>
        <time>2016-06-06T19:07:55.000Z</time>
      </trkpt>
      <trkpt lat="48.87186" lon="2.33834">
        <ele>50</ele>
        <time>2016-06-06T19:08:01.000Z</time>
      </trkpt>
      <trkpt lat="48.87184" lon="2.33832">
        <ele>50</ele>
        <time>2016-06-06T19:08:02.000Z</time>
      </trkpt>
      <trkpt lat="48.87184" lon="2.33826">
        <ele>50</ele>
        <time>2016-06-06T19:08:05.000Z</time>
      </trkpt>
      <trkpt lat="48.87182" lon="2.33835">
        <ele>50</ele>
        <time>2016-06-06T19:08:16.000Z</time>
      </trkpt>
      <trkpt lat="48.87185" lon="2.33863">
        <ele>50</ele>
        <time>2016-06-06T19:08:22.000Z</time>
      </trkpt>
      <trkpt lat="48.87188" lon="2.33892">
        <ele>50</ele>
        <time>2016-06-06T19:08:28.000Z</time>
      </trkpt>
      <trkpt lat="48.87191" lon="2.3392">
        <ele>49.799999237061</ele>
        <time>2016-06-06T19:08:34.000Z</time>
      </trkpt>
      <trkpt lat="48.87197" lon="2.33951">
        <ele>49</ele>
        <time>2016-06-06T19:08:41.000Z</time>
      </trkpt>
      <trkpt lat="48.87202" lon="2.33979">
        <ele>48.200000762939</ele>
        <time>2016-06-06T19:08:48.000Z</time>
      </trkpt>
      <trkpt lat="48.87195" lon="2.33989">
        <ele>48.200000762939</ele>
        <time>2016-06-06T19:08:50.000Z</time>
      </trkpt>
      <trkpt lat="48.87176" lon="2.33992">
        <ele>48</ele>
        <time>2016-06-06T19:08:54.000Z</time>
      </trkpt>
      <trkpt lat="48.87157" lon="2.33986">
        <ele>47.799999237061</ele>
        <time>2016-06-06T19:08:58.000Z</time>
      </trkpt>
      <trkpt lat="48.87139" lon="2.33975">
        <ele>47.799999237061</ele>
        <time>2016-06-06T19:09:02.000Z</time>
      </trkpt>
      <trkpt lat="48.87116" lon="2.33965">
        <ele>47.599998474121</ele>
        <time>2016-06-06T19:09:07.000Z</time>
      </trkpt>
      <trkpt lat="48.87097" lon="2.33959">
        <ele>47.799999237061</ele>
        <time>2016-06-06T19:09:11.000Z</time>
      </trkpt>
      <trkpt lat="48.87078" lon="2.33953">
        <ele>48.400001525879</ele>
        <time>2016-06-06T19:09:15.000Z</time>
      </trkpt>
      <trkpt lat="48.87061" lon="2.33943">
        <ele>49</ele>
        <time>2016-06-06T19:09:20.000Z</time>
      </trkpt>
      <trkpt lat="48.87043" lon="2.33933">
        <ele>49.599998474121</ele>
        <time>2016-06-06T19:09:25.000Z</time>
      </trkpt>
      <trkpt lat="48.87021" lon="2.33924">
        <ele>49.799999237061</ele>
        <time>2016-06-06T19:09:30.000Z</time>
      </trkpt>
      <trkpt lat="48.87002" lon="2.33916">
        <ele>49.799999237061</ele>
        <time>2016-06-06T19:09:34.000Z</time>
      </trkpt>
      <trkpt lat="48.86982" lon="2.33908">
        <ele>49.599998474121</ele>
        <time>2016-06-06T19:09:38.000Z</time>
      </trkpt>
      <trkpt lat="48.86975" lon="2.33907">
        <ele>49.599998474121</ele>
        <time>2016-06-06T19:09:40.000Z</time>
      </trkpt>
      <trkpt lat="48.86956" lon="2.33898">
        <ele>49.400001525879</ele>
        <time>2016-06-06T19:09:45.000Z</time>
      </trkpt>
      <trkpt lat="48.86953" lon="2.33896">
        <ele>49.400001525879</ele>
        <time>2016-06-06T19:09:46.000Z</time>
      </trkpt>
      <trkpt lat="48.86948" lon="2.33893">
        <ele>49.400001525879</ele>
        <time>2016-06-06T19:09:48.000Z</time>
      </trkpt>
      <trkpt lat="48.8694" lon="2.33888">
        <ele>49.400001525879</ele>
        <time>2016-06-06T19:09:51.000Z</time>
      </trkpt>
      <trkpt lat="48.86936" lon="2.33884">
        <ele>49.400001525879</ele>
        <time>2016-06-06T19:09:53.000Z</time>
      </trkpt>
      <trkpt lat="48.8692" lon="2.33871">
        <ele>49.799999237061</ele>
        <time>2016-06-06T19:10:00.000Z</time>
      </trkpt>
      <trkpt lat="48.86899" lon="2.3387">
        <ele>50</ele>
        <time>2016-06-06T19:10:06.000Z</time>
      </trkpt>
      <trkpt lat="48.8688" lon="2.33866">
        <ele>50.200000762939</ele>
        <time>2016-06-06T19:10:10.000Z</time>
      </trkpt>
      <trkpt lat="48.86862" lon="2.33862">
        <ele>50.200000762939</ele>
        <time>2016-06-06T19:10:14.000Z</time>
      </trkpt>
      <trkpt lat="48.86846" lon="2.3385">
        <ele>50.200000762939</ele>
        <time>2016-06-06T19:10:18.000Z</time>
      </trkpt>
      <trkpt lat="48.86829" lon="2.3383">
        <ele>50.400001525879</ele>
        <time>2016-06-06T19:10:23.000Z</time>
      </trkpt>
      <trkpt lat="48.86811" lon="2.33816">
        <ele>50.200000762939</ele>
        <time>2016-06-06T19:10:29.000Z</time>
      </trkpt>
      <trkpt lat="48.86787" lon="2.33803">
        <ele>50</ele>
        <time>2016-06-06T19:10:32.000Z</time>
      </trkpt>
      <trkpt lat="48.86769" lon="2.33796">
        <ele>49.799999237061</ele>
        <time>2016-06-06T19:10:37.000Z</time>
      </trkpt>
      <trkpt lat="48.86751" lon="2.33791">
        <ele>50</ele>
        <time>2016-06-06T19:10:41.000Z</time>
      </trkpt>
      <trkpt lat="48.86733" lon="2.33785">
        <ele>50</ele>
        <time>2016-06-06T19:10:46.000Z</time>
      </trkpt>
      <trkpt lat="48.86722" lon="2.33774">
        <ele>50.400001525879</ele>
        <time>2016-06-06T19:10:49.000Z</time>
      </trkpt>
      <trkpt lat="48.86704" lon="2.33764">
        <ele>50.599998474121</ele>
        <time>2016-06-06T19:10:54.000Z</time>
      </trkpt>
      <trkpt lat="48.86683" lon="2.33759">
        <ele>50.400001525879</ele>
        <time>2016-06-06T19:11:00.000Z</time>
      </trkpt>
      <trkpt lat="48.86665" lon="2.33749">
        <ele>49.599998474121</ele>
        <time>2016-06-06T19:11:03.000Z</time>
      </trkpt>
      <trkpt lat="48.86644" lon="2.33747">
        <ele>48.200000762939</ele>
        <time>2016-06-06T19:11:08.000Z</time>
      </trkpt>
      <trkpt lat="48.86624" lon="2.33739">
        <ele>47.400001525879</ele>
        <time>2016-06-06T19:11:13.000Z</time>
      </trkpt>
      <trkpt lat="48.86621" lon="2.33736">
        <ele>47.400001525879</ele>
        <time>2016-06-06T19:11:14.000Z</time>
      </trkpt>
      <trkpt lat="48.86606" lon="2.33728">
        <ele>47</ele>
        <time>2016-06-06T19:11:19.000Z</time>
      </trkpt>
      <trkpt lat="48.86599" lon="2.33725">
        <ele>47</ele>
        <time>2016-06-06T19:11:22.000Z</time>
      </trkpt>
      <trkpt lat="48.86583" lon="2.33713">
        <ele>47</ele>
        <time>2016-06-06T19:11:26.000Z</time>
      </trkpt>
      <trkpt lat="48.86563" lon="2.33702">
        <ele>47.200000762939</ele>
        <time>2016-06-06T19:11:30.000Z</time>
      </trkpt>
      <trkpt lat="48.8654" lon="2.33693">
        <ele>46.400001525879</ele>
        <time>2016-06-06T19:11:35.000Z</time>
      </trkpt>
      <trkpt lat="48.86519" lon="2.33683">
        <ele>46</ele>
        <time>2016-06-06T19:11:40.000Z</time>
      </trkpt>
      <trkpt lat="48.8651" lon="2.33679">
        <ele>46.200000762939</ele>
        <time>2016-06-06T19:11:42.000Z</time>
      </trkpt>
      <trkpt lat="48.8649" lon="2.33667">
        <ele>46.599998474121</ele>
        <time>2016-06-06T19:11:46.000Z</time>
      </trkpt>
      <trkpt lat="48.86469" lon="2.33658">
        <ele>46.200000762939</ele>
        <time>2016-06-06T19:11:50.000Z</time>
      </trkpt>
      <trkpt lat="48.86452" lon="2.33651">
        <ele>45.799999237061</ele>
        <time>2016-06-06T19:11:53.000Z</time>
      </trkpt>
      <trkpt lat="48.8643" lon="2.33644">
        <ele>45.400001525879</ele>
        <time>2016-06-06T19:11:57.000Z</time>
      </trkpt>
      <trkpt lat="48.8641" lon="2.33635">
        <ele>45.599998474121</ele>
        <time>2016-06-06T19:12:03.000Z</time>
      </trkpt>
      <trkpt lat="48.86405" lon="2.33628">
        <ele>45.799999237061</ele>
        <time>2016-06-06T19:12:05.000Z</time>
      </trkpt>
      <trkpt lat="48.86396" lon="2.33619">
        <ele>46</ele>
        <time>2016-06-06T19:12:09.000Z</time>
      </trkpt>
      <trkpt lat="48.8638" lon="2.33604">
        <ele>46.400001525879</ele>
        <time>2016-06-06T19:12:17.000Z</time>
      </trkpt>
      <trkpt lat="48.86379" lon="2.33601">
        <ele>46.599998474121</ele>
        <time>2016-06-06T19:12:18.000Z</time>
      </trkpt>
      <trkpt lat="48.86361" lon="2.33584">
        <ele>47</ele>
        <time>2016-06-06T19:12:23.000Z</time>
      </trkpt>
      <trkpt lat="48.86339" lon="2.33581">
        <ele>47.200000762939</ele>
        <time>2016-06-06T19:12:29.000Z</time>
      </trkpt>
      <trkpt lat="48.86321" lon="2.33575">
        <ele>47.200000762939</ele>
        <time>2016-06-06T19:12:34.000Z</time>
      </trkpt>
      <trkpt lat="48.86307" lon="2.33569">
        <ele>47</ele>
        <time>2016-06-06T19:12:40.000Z</time>
      </trkpt>
      <trkpt lat="48.86297" lon="2.33565">
        <ele>47</ele>
        <time>2016-06-06T19:13:22.000Z</time>
      </trkpt>
      <trkpt lat="48.86283" lon="2.33543">
        <ele>46</ele>
        <time>2016-06-06T19:13:41.000Z</time>
      </trkpt>
      <trkpt lat="48.86271" lon="2.33539">
        <ele>46</ele>
        <time>2016-06-06T19:13:54.000Z</time>
      </trkpt>
      <trkpt lat="48.86264" lon="2.33536">
        <ele>45.799999237061</ele>
        <time>2016-06-06T19:14:00.000Z</time>
      </trkpt>
      <trkpt lat="48.86257" lon="2.33533">
        <ele>45.599998474121</ele>
        <time>2016-06-06T19:14:06.000Z</time>
      </trkpt>
      <trkpt lat="48.8625" lon="2.33534">
        <ele>45.400001525879</ele>
        <time>2016-06-06T19:14:13.000Z</time>
      </trkpt>
      <trkpt lat="48.86235" lon="2.33517">
        <ele>44.400001525879</ele>
        <time>2016-06-06T19:14:25.000Z</time>
      </trkpt>
      <trkpt lat="48.86219" lon="2.335">
        <ele>43.599998474121</ele>
        <time>2016-06-06T19:14:30.000Z</time>
      </trkpt>
      <trkpt lat="48.86213" lon="2.33499">
        <ele>43.400001525879</ele>
        <time>2016-06-06T19:14:32.000Z</time>
      </trkpt>
      <trkpt lat="48.86195" lon="2.33493">
        <ele>42.799999237061</ele>
        <time>2016-06-06T19:14:38.000Z</time>
      </trkpt>
      <trkpt lat="48.86176" lon="2.33485">
        <ele>42.599998474121</ele>
        <time>2016-06-06T19:14:44.000Z</time>
      </trkpt>
      <trkpt lat="48.86154" lon="2.33478">
        <ele>41.799999237061</ele>
        <time>2016-06-06T19:14:50.000Z</time>
      </trkpt>
      <trkpt lat="48.86135" lon="2.33471">
        <ele>41</ele>
        <time>2016-06-06T19:14:56.000Z</time>
      </trkpt>
      <trkpt lat="48.86117" lon="2.33457">
        <ele>40.400001525879</ele>
        <time>2016-06-06T19:15:03.000Z</time>
      </trkpt>
      <trkpt lat="48.86103" lon="2.33439">
        <ele>40.400001525879</ele>
        <time>2016-06-06T19:15:09.000Z</time>
      </trkpt>
      <trkpt lat="48.86095" lon="2.33411">
        <ele>41.200000762939</ele>
        <time>2016-06-06T19:15:17.000Z</time>
      </trkpt>
      <trkpt lat="48.86082" lon="2.33396">
        <ele>42.599998474121</ele>
        <time>2016-06-06T19:15:25.000Z</time>
      </trkpt>
      <trkpt lat="48.86065" lon="2.33388">
        <ele>44.400001525879</ele>
        <time>2016-06-06T19:15:41.000Z</time>
      </trkpt>
      <trkpt lat="48.86053" lon="2.33389">
        <ele>45.799999237061</ele>
        <time>2016-06-06T19:15:45.000Z</time>
      </trkpt>
      <trkpt lat="48.86046" lon="2.33376">
        <ele>46.400001525879</ele>
        <time>2016-06-06T19:15:50.000Z</time>
      </trkpt>
      <trkpt lat="48.86043" lon="2.33349">
        <ele>45.799999237061</ele>
        <time>2016-06-06T19:16:01.000Z</time>
      </trkpt>
      <trkpt lat="48.8604" lon="2.33343">
        <ele>45.799999237061</ele>
        <time>2016-06-06T19:16:05.000Z</time>
      </trkpt>
      <trkpt lat="48.86029" lon="2.3333">
        <ele>46.799999237061</ele>
        <time>2016-06-06T19:16:13.000Z</time>
      </trkpt>
      <trkpt lat="48.86013" lon="2.33314">
        <ele>46</ele>
        <time>2016-06-06T19:16:21.000Z</time>
      </trkpt>
      <trkpt lat="48.85999" lon="2.33297">
        <ele>43.400001525879</ele>
        <time>2016-06-06T19:16:29.000Z</time>
      </trkpt>
      <trkpt lat="48.85997" lon="2.33292">
        <ele>43</ele>
        <time>2016-06-06T19:16:33.000Z</time>
      </trkpt>
      <trkpt lat="48.86001" lon="2.33291">
        <ele>43.400001525879</ele>
        <time>2016-06-06T19:17:27.000Z</time>
      </trkpt>
      <trkpt lat="48.85998" lon="2.333">
        <ele>43.599998474121</ele>
        <time>2016-06-06T19:19:02.000Z</time>
      </trkpt>
      <trkpt lat="48.85978" lon="2.33295">
        <ele>41.599998474121</ele>
        <time>2016-06-06T19:19:09.000Z</time>
      </trkpt>
      <trkpt lat="48.85961" lon="2.33285">
        <ele>39.599998474121</ele>
        <time>2016-06-06T19:19:15.000Z</time>
      </trkpt>
      <trkpt lat="48.85943" lon="2.33275">
        <ele>37.599998474121</ele>
        <time>2016-06-06T19:19:21.000Z</time>
      </trkpt>
      <trkpt lat="48.85925" lon="2.33265">
        <ele>37.599998474121</ele>
        <time>2016-06-06T19:19:27.000Z</time>
      </trkpt>
      <trkpt lat="48.85906" lon="2.33255">
        <ele>38.200000762939</ele>
        <time>2016-06-06T19:19:33.000Z</time>
      </trkpt>
      <trkpt lat="48.85887" lon="2.33246">
        <ele>39</ele>
        <time>2016-06-06T19:19:39.000Z</time>
      </trkpt>
      <trkpt lat="48.85877" lon="2.33233">
        <ele>40.200000762939</ele>
        <time>2016-06-06T19:19:47.000Z</time>
      </trkpt>
      <trkpt lat="48.85864" lon="2.33247">
        <ele>41.200000762939</ele>
        <time>2016-06-06T19:20:10.000Z</time>
      </trkpt>
      <trkpt lat="48.85858" lon="2.33273">
        <ele>42.400001525879</ele>
        <time>2016-06-06T19:20:18.000Z</time>
      </trkpt>
      <trkpt lat="48.85848" lon="2.33297">
        <ele>43</ele>
        <time>2016-06-06T19:20:25.000Z</time>
      </trkpt>
      <trkpt lat="48.85844" lon="2.33302">
        <ele>43.400001525879</ele>
        <time>2016-06-06T19:20:29.000Z</time>
      </trkpt>
      <trkpt lat="48.85828" lon="2.33315">
        <ele>44</ele>
        <time>2016-06-06T19:20:44.000Z</time>
      </trkpt>
      <trkpt lat="48.85808" lon="2.33309">
        <ele>44.599998474121</ele>
        <time>2016-06-06T19:20:49.000Z</time>
      </trkpt>
      <trkpt lat="48.85791" lon="2.33295">
        <ele>45.400001525879</ele>
        <time>2016-06-06T19:20:53.000Z</time>
      </trkpt>
      <trkpt lat="48.85773" lon="2.33282">
        <ele>46.200000762939</ele>
        <time>2016-06-06T19:20:57.000Z</time>
      </trkpt>
      <trkpt lat="48.85754" lon="2.33266">
        <ele>46.599998474121</ele>
        <time>2016-06-06T19:21:01.000Z</time>
      </trkpt>
      <trkpt lat="48.85733" lon="2.33254">
        <ele>46.799999237061</ele>
        <time>2016-06-06T19:21:06.000Z</time>
      </trkpt>
      <trkpt lat="48.85716" lon="2.33242">
        <ele>46.799999237061</ele>
        <time>2016-06-06T19:21:09.000Z</time>
      </trkpt>
      <trkpt lat="48.85697" lon="2.33232">
        <ele>46.599998474121</ele>
        <time>2016-06-06T19:21:12.000Z</time>
      </trkpt>
      <trkpt lat="48.8568" lon="2.33222">
        <ele>47</ele>
        <time>2016-06-06T19:21:16.000Z</time>
      </trkpt>
      <trkpt lat="48.85664" lon="2.33211">
        <ele>48</ele>
        <time>2016-06-06T19:21:19.000Z</time>
      </trkpt>
      <trkpt lat="48.85644" lon="2.33195">
        <ele>49</ele>
        <time>2016-06-06T19:21:23.000Z</time>
      </trkpt>
      <trkpt lat="48.85637" lon="2.33185">
        <ele>49.200000762939</ele>
        <time>2016-06-06T19:21:25.000Z</time>
      </trkpt>
      <trkpt lat="48.85632" lon="2.33175">
        <ele>49.400001525879</ele>
        <time>2016-06-06T19:21:29.000Z</time>
      </trkpt>
      <trkpt lat="48.85614" lon="2.33162">
        <ele>50.400001525879</ele>
        <time>2016-06-06T19:21:41.000Z</time>
      </trkpt>
      <trkpt lat="48.85596" lon="2.33155">
        <ele>51.400001525879</ele>
        <time>2016-06-06T19:21:45.000Z</time>
      </trkpt>
      <trkpt lat="48.85578" lon="2.33143">
        <ele>52.400001525879</ele>
        <time>2016-06-06T19:21:49.000Z</time>
      </trkpt>
      <trkpt lat="48.85551" lon="2.33126">
        <ele>53.599998474121</ele>
        <time>2016-06-06T19:21:53.000Z</time>
      </trkpt>
      <trkpt lat="48.8554" lon="2.33119">
        <ele>54.200000762939</ele>
        <time>2016-06-06T19:21:55.000Z</time>
      </trkpt>
      <trkpt lat="48.85523" lon="2.33107">
        <ele>55</ele>
        <time>2016-06-06T19:21:58.000Z</time>
      </trkpt>
      <trkpt lat="48.85501" lon="2.33096">
        <ele>54.400001525879</ele>
        <time>2016-06-06T19:22:01.000Z</time>
      </trkpt>
      <trkpt lat="48.85482" lon="2.33085">
        <ele>54</ele>
        <time>2016-06-06T19:22:04.000Z</time>
      </trkpt>
      <trkpt lat="48.85468" lon="2.33079">
        <ele>53.599998474121</ele>
        <time>2016-06-06T19:22:07.000Z</time>
      </trkpt>
      <trkpt lat="48.85454" lon="2.33074">
        <ele>53</ele>
        <time>2016-06-06T19:22:11.000Z</time>
      </trkpt>
      <trkpt lat="48.85448" lon="2.33065">
        <ele>52.200000762939</ele>
        <time>2016-06-06T19:22:18.000Z</time>
      </trkpt>
      <trkpt lat="48.85448" lon="2.33063">
        <ele>52.200000762939</ele>
        <time>2016-06-06T19:22:19.000Z</time>
      </trkpt>
      <trkpt lat="48.85448" lon="2.33051">
        <ele>51.400001525879</ele>
        <time>2016-06-06T19:22:43.000Z</time>
      </trkpt>
      <trkpt lat="48.85441" lon="2.3304">
        <ele>50.599998474121</ele>
        <time>2016-06-06T19:22:48.000Z</time>
      </trkpt>
      <trkpt lat="48.85422" lon="2.33027">
        <ele>49.799999237061</ele>
        <time>2016-06-06T19:22:56.000Z</time>
      </trkpt>
      <trkpt lat="48.85403" lon="2.33015">
        <ele>49</ele>
        <time>2016-06-06T19:23:00.000Z</time>
      </trkpt>
      <trkpt lat="48.85384" lon="2.33007">
        <ele>48.599998474121</ele>
        <time>2016-06-06T19:23:07.000Z</time>
      </trkpt>
      <trkpt lat="48.85366" lon="2.33">
        <ele>48.200000762939</ele>
        <time>2016-06-06T19:23:11.000Z</time>
      </trkpt>
      <trkpt lat="48.85347" lon="2.32996">
        <ele>48</ele>
        <time>2016-06-06T19:23:16.000Z</time>
      </trkpt>
      <trkpt lat="48.8533" lon="2.32985">
        <ele>48</ele>
        <time>2016-06-06T19:23:21.000Z</time>
      </trkpt>
      <trkpt lat="48.85311" lon="2.32973">
        <ele>48</ele>
        <time>2016-06-06T19:23:25.000Z</time>
      </trkpt>
      <trkpt lat="48.85292" lon="2.32959">
        <ele>48.200000762939</ele>
        <time>2016-06-06T19:23:29.000Z</time>
      </trkpt>
      <trkpt lat="48.85274" lon="2.32943">
        <ele>48.400001525879</ele>
        <time>2016-06-06T19:23:33.000Z</time>
      </trkpt>
      <trkpt lat="48.85264" lon="2.32935">
        <ele>48.200000762939</ele>
        <time>2016-06-06T19:23:36.000Z</time>
      </trkpt>
      <trkpt lat="48.85245" lon="2.32918">
        <ele>48.200000762939</ele>
        <time>2016-06-06T19:23:41.000Z</time>
      </trkpt>
      <trkpt lat="48.8523" lon="2.32902">
        <ele>48.200000762939</ele>
        <time>2016-06-06T19:23:45.000Z</time>
      </trkpt>
      <trkpt lat="48.85209" lon="2.3288">
        <ele>48.200000762939</ele>
        <time>2016-06-06T19:23:51.000Z</time>
      </trkpt>
      <trkpt lat="48.85197" lon="2.32868">
        <ele>48.200000762939</ele>
        <time>2016-06-06T19:23:54.000Z</time>
      </trkpt>
      <trkpt lat="48.85192" lon="2.32851">
        <ele>48.599998474121</ele>
        <time>2016-06-06T19:23:57.000Z</time>
      </trkpt>
      <trkpt lat="48.85186" lon="2.32822">
        <ele>48.799999237061</ele>
        <time>2016-06-06T19:24:01.000Z</time>
      </trkpt>
      <trkpt lat="48.85181" lon="2.32792">
        <ele>48.200000762939</ele>
        <time>2016-06-06T19:24:04.000Z</time>
      </trkpt>
      <trkpt lat="48.85177" lon="2.32762">
        <ele>47.599998474121</ele>
        <time>2016-06-06T19:24:08.000Z</time>
      </trkpt>
      <trkpt lat="48.85176" lon="2.32731">
        <ele>46.799999237061</ele>
        <time>2016-06-06T19:24:12.000Z</time>
      </trkpt>
      <trkpt lat="48.85173" lon="2.3271">
        <ele>46.400001525879</ele>
        <time>2016-06-06T19:24:15.000Z</time>
      </trkpt>
      <trkpt lat="48.85171" lon="2.327">
        <ele>46</ele>
        <time>2016-06-06T19:24:18.000Z</time>
      </trkpt>
      <trkpt lat="48.85167" lon="2.32694">
        <ele>46</ele>
        <time>2016-06-06T19:24:21.000Z</time>
      </trkpt>
      <trkpt lat="48.85161" lon="2.32691">
        <ele>46</ele>
        <time>2016-06-06T19:24:26.000Z</time>
      </trkpt>
      <trkpt lat="48.8516" lon="2.3269">
        <ele>46</ele>
        <time>2016-06-06T19:24:27.000Z</time>
      </trkpt>
      <trkpt lat="48.85145" lon="2.32674">
        <ele>45.799999237061</ele>
        <time>2016-06-06T19:24:49.000Z</time>
      </trkpt>
      <trkpt lat="48.8513" lon="2.32658">
        <ele>45.599998474121</ele>
        <time>2016-06-06T19:24:54.000Z</time>
      </trkpt>
      <trkpt lat="48.85119" lon="2.32638">
        <ele>45.599998474121</ele>
        <time>2016-06-06T19:24:58.000Z</time>
      </trkpt>
      <trkpt lat="48.85109" lon="2.32614">
        <ele>45.400001525879</ele>
        <time>2016-06-06T19:25:02.000Z</time>
      </trkpt>
      <trkpt lat="48.85097" lon="2.32585">
        <ele>45.200000762939</ele>
        <time>2016-06-06T19:25:06.000Z</time>
      </trkpt>
      <trkpt lat="48.85087" lon="2.32554">
        <ele>45.599998474121</ele>
        <time>2016-06-06T19:25:10.000Z</time>
      </trkpt>
      <trkpt lat="48.85076" lon="2.32527">
        <ele>46</ele>
        <time>2016-06-06T19:25:14.000Z</time>
      </trkpt>
      <trkpt lat="48.85063" lon="2.325">
        <ele>46.400001525879</ele>
        <time>2016-06-06T19:25:18.000Z</time>
      </trkpt>
      <trkpt lat="48.85051" lon="2.32471">
        <ele>46</ele>
        <time>2016-06-06T19:25:22.000Z</time>
      </trkpt>
      <trkpt lat="48.8504" lon="2.32442">
        <ele>45.400001525879</ele>
        <time>2016-06-06T19:25:25.000Z</time>
      </trkpt>
      <trkpt lat="48.85029" lon="2.32413">
        <ele>45.200000762939</ele>
        <time>2016-06-06T19:25:30.000Z</time>
      </trkpt>
      <trkpt lat="48.85016" lon="2.32386">
        <ele>44.599998474121</ele>
        <time>2016-06-06T19:25:34.000Z</time>
      </trkpt>
      <trkpt lat="48.85004" lon="2.32357">
        <ele>44</ele>
        <time>2016-06-06T19:25:38.000Z</time>
      </trkpt>
      <trkpt lat="48.84996" lon="2.32325">
        <ele>43.799999237061</ele>
        <time>2016-06-06T19:25:41.000Z</time>
      </trkpt>
      <trkpt lat="48.84986" lon="2.323">
        <ele>43.599998474121</ele>
        <time>2016-06-06T19:25:44.000Z</time>
      </trkpt>
      <trkpt lat="48.84976" lon="2.32277">
        <ele>43</ele>
        <time>2016-06-06T19:25:47.000Z</time>
      </trkpt>
      <trkpt lat="48.84965" lon="2.32255">
        <ele>41.799999237061</ele>
        <time>2016-06-06T19:25:49.000Z</time>
      </trkpt>
      <trkpt lat="48.84953" lon="2.32232">
        <ele>41.599998474121</ele>
        <time>2016-06-06T19:25:53.000Z</time>
      </trkpt>
      <trkpt lat="48.84946" lon="2.32216">
        <ele>41.799999237061</ele>
        <time>2016-06-06T19:25:55.000Z</time>
      </trkpt>
      <trkpt lat="48.84935" lon="2.32194">
        <ele>42.200000762939</ele>
        <time>2016-06-06T19:25:57.000Z</time>
      </trkpt>
      <trkpt lat="48.84917" lon="2.32159">
        <ele>43.400001525879</ele>
        <time>2016-06-06T19:26:02.000Z</time>
      </trkpt>
      <trkpt lat="48.84904" lon="2.32132">
        <ele>45.599998474121</ele>
        <time>2016-06-06T19:26:07.000Z</time>
      </trkpt>
      <trkpt lat="48.84895" lon="2.3212">
        <ele>46.799999237061</ele>
        <time>2016-06-06T19:26:08.000Z</time>
      </trkpt>
      <trkpt lat="48.84881" lon="2.32094">
        <ele>48.400001525879</ele>
        <time>2016-06-06T19:26:12.000Z</time>
      </trkpt>
      <trkpt lat="48.84872" lon="2.32081">
        <ele>49.400001525879</ele>
        <time>2016-06-06T19:26:15.000Z</time>
      </trkpt>
      <trkpt lat="48.84856" lon="2.32057">
        <ele>49.799999237061</ele>
        <time>2016-06-06T19:26:18.000Z</time>
      </trkpt>
      <trkpt lat="48.84841" lon="2.32038">
        <ele>49.400001525879</ele>
        <time>2016-06-06T19:26:21.000Z</time>
      </trkpt>
      <trkpt lat="48.84826" lon="2.32022">
        <ele>49</ele>
        <time>2016-06-06T19:26:25.000Z</time>
      </trkpt>
      <trkpt lat="48.84809" lon="2.31991">
        <ele>48</ele>
        <time>2016-06-06T19:26:29.000Z</time>
      </trkpt>
      <trkpt lat="48.84799" lon="2.3197">
        <ele>48</ele>
        <time>2016-06-06T19:26:32.000Z</time>
      </trkpt>
      <trkpt lat="48.84794" lon="2.31956">
        <ele>48</ele>
        <time>2016-06-06T19:26:35.000Z</time>
      </trkpt>
      <trkpt lat="48.84789" lon="2.31934">
        <ele>47.799999237061</ele>
        <time>2016-06-06T19:26:38.000Z</time>
      </trkpt>
      <trkpt lat="48.84777" lon="2.31903">
        <ele>48</ele>
        <time>2016-06-06T19:26:42.000Z</time>
      </trkpt>
      <trkpt lat="48.84768" lon="2.31877">
        <ele>48</ele>
        <time>2016-06-06T19:26:44.000Z</time>
      </trkpt>
      <trkpt lat="48.84758" lon="2.31852">
        <ele>48</ele>
        <time>2016-06-06T19:26:47.000Z</time>
      </trkpt>
      <trkpt lat="48.84747" lon="2.31829">
        <ele>48</ele>
        <time>2016-06-06T19:26:50.000Z</time>
      </trkpt>
      <trkpt lat="48.84737" lon="2.31804">
        <ele>47</ele>
        <time>2016-06-06T19:26:53.000Z</time>
      </trkpt>
      <trkpt lat="48.84728" lon="2.31778">
        <ele>46.599998474121</ele>
        <time>2016-06-06T19:26:56.000Z</time>
      </trkpt>
      <trkpt lat="48.84714" lon="2.31741">
        <ele>46.400001525879</ele>
        <time>2016-06-06T19:27:01.000Z</time>
      </trkpt>
      <trkpt lat="48.84706" lon="2.31715">
        <ele>45.200000762939</ele>
        <time>2016-06-06T19:27:05.000Z</time>
      </trkpt>
      <trkpt lat="48.84704" lon="2.3171">
        <ele>45</ele>
        <time>2016-06-06T19:27:07.000Z</time>
      </trkpt>
      <trkpt lat="48.84701" lon="2.31683">
        <ele>44.200000762939</ele>
        <time>2016-06-06T19:27:13.000Z</time>
      </trkpt>
      <trkpt lat="48.84701" lon="2.31664">
        <ele>44</ele>
        <time>2016-06-06T19:27:18.000Z</time>
      </trkpt>
      <trkpt lat="48.84693" lon="2.31645">
        <ele>42.599998474121</ele>
        <time>2016-06-06T19:27:56.000Z</time>
      </trkpt>
      <trkpt lat="48.84678" lon="2.31624">
        <ele>42</ele>
        <time>2016-06-06T19:28:03.000Z</time>
      </trkpt>
      <trkpt lat="48.84668" lon="2.31597">
        <ele>41.400001525879</ele>
        <time>2016-06-06T19:28:08.000Z</time>
      </trkpt>
      <trkpt lat="48.84656" lon="2.31567">
        <ele>41</ele>
        <time>2016-06-06T19:28:13.000Z</time>
      </trkpt>
      <trkpt lat="48.84645" lon="2.31524">
        <ele>41.599998474121</ele>
        <time>2016-06-06T19:28:17.000Z</time>
      </trkpt>
      <trkpt lat="48.84636" lon="2.31499">
        <ele>42.400001525879</ele>
        <time>2016-06-06T19:28:21.000Z</time>
      </trkpt>
      <trkpt lat="48.84628" lon="2.3147">
        <ele>42</ele>
        <time>2016-06-06T19:28:24.000Z</time>
      </trkpt>
      <trkpt lat="48.84618" lon="2.3144">
        <ele>41.400001525879</ele>
        <time>2016-06-06T19:28:27.000Z</time>
      </trkpt>
      <trkpt lat="48.84607" lon="2.31407">
        <ele>41.200000762939</ele>
        <time>2016-06-06T19:28:30.000Z</time>
      </trkpt>
      <trkpt lat="48.84605" lon="2.31395">
        <ele>41.400001525879</ele>
        <time>2016-06-06T19:28:31.000Z</time>
      </trkpt>
      <trkpt lat="48.84596" lon="2.31361">
        <ele>42</ele>
        <time>2016-06-06T19:28:33.000Z</time>
      </trkpt>
      <trkpt lat="48.84582" lon="2.31331">
        <ele>42.200000762939</ele>
        <time>2016-06-06T19:28:37.000Z</time>
      </trkpt>
      <trkpt lat="48.84573" lon="2.31299">
        <ele>42.599998474121</ele>
        <time>2016-06-06T19:28:40.000Z</time>
      </trkpt>
      <trkpt lat="48.84565" lon="2.31265">
        <ele>42.799999237061</ele>
        <time>2016-06-06T19:28:43.000Z</time>
      </trkpt>
      <trkpt lat="48.84563" lon="2.31255">
        <ele>42.799999237061</ele>
        <time>2016-06-06T19:28:44.000Z</time>
      </trkpt>
      <trkpt lat="48.84554" lon="2.31226">
        <ele>42.799999237061</ele>
        <time>2016-06-06T19:28:47.000Z</time>
      </trkpt>
      <trkpt lat="48.84546" lon="2.31201">
        <ele>42.599998474121</ele>
        <time>2016-06-06T19:28:50.000Z</time>
      </trkpt>
      <trkpt lat="48.84535" lon="2.31179">
        <ele>42.400001525879</ele>
        <time>2016-06-06T19:28:55.000Z</time>
      </trkpt>
      <trkpt lat="48.84535" lon="2.31168">
        <ele>42.200000762939</ele>
        <time>2016-06-06T19:29:15.000Z</time>
      </trkpt>
      <trkpt lat="48.84527" lon="2.31139">
        <ele>42.599998474121</ele>
        <time>2016-06-06T19:29:20.000Z</time>
      </trkpt>
      <trkpt lat="48.8452" lon="2.31111">
        <ele>43.200000762939</ele>
        <time>2016-06-06T19:29:25.000Z</time>
      </trkpt>
      <trkpt lat="48.84517" lon="2.31098">
        <ele>43.599998474121</ele>
        <time>2016-06-06T19:29:28.000Z</time>
      </trkpt>
      <trkpt lat="48.84506" lon="2.31071">
        <ele>44.200000762939</ele>
        <time>2016-06-06T19:29:35.000Z</time>
      </trkpt>
      <trkpt lat="48.84494" lon="2.31044">
        <ele>44.400001525879</ele>
        <time>2016-06-06T19:29:41.000Z</time>
      </trkpt>
      <trkpt lat="48.84487" lon="2.31019">
        <ele>44.400001525879</ele>
        <time>2016-06-06T19:29:45.000Z</time>
      </trkpt>
      <trkpt lat="48.84478" lon="2.30987">
        <ele>44.599998474121</ele>
        <time>2016-06-06T19:29:49.000Z</time>
      </trkpt>
      <trkpt lat="48.8447" lon="2.30961">
        <ele>44.599998474121</ele>
        <time>2016-06-06T19:29:52.000Z</time>
      </trkpt>
      <trkpt lat="48.84463" lon="2.30935">
        <ele>44.799999237061</ele>
        <time>2016-06-06T19:29:55.000Z</time>
      </trkpt>
      <trkpt lat="48.84456" lon="2.30908">
        <ele>45</ele>
        <time>2016-06-06T19:29:58.000Z</time>
      </trkpt>
      <trkpt lat="48.84448" lon="2.30882">
        <ele>46</ele>
        <time>2016-06-06T19:30:01.000Z</time>
      </trkpt>
      <trkpt lat="48.84441" lon="2.30862">
        <ele>46.799999237061</ele>
        <time>2016-06-06T19:30:03.000Z</time>
      </trkpt>
      <trkpt lat="48.84432" lon="2.30833">
        <ele>48</ele>
        <time>2016-06-06T19:30:06.000Z</time>
      </trkpt>
      <trkpt lat="48.84424" lon="2.30802">
        <ele>47.599998474121</ele>
        <time>2016-06-06T19:30:08.000Z</time>
      </trkpt>
      <trkpt lat="48.84415" lon="2.30772">
        <ele>47.400001525879</ele>
        <time>2016-06-06T19:30:12.000Z</time>
      </trkpt>
      <trkpt lat="48.84405" lon="2.30742">
        <ele>46.799999237061</ele>
        <time>2016-06-06T19:30:15.000Z</time>
      </trkpt>
      <trkpt lat="48.84397" lon="2.3071">
        <ele>46.200000762939</ele>
        <time>2016-06-06T19:30:17.000Z</time>
      </trkpt>
      <trkpt lat="48.84388" lon="2.30684">
        <ele>45.599998474121</ele>
        <time>2016-06-06T19:30:21.000Z</time>
      </trkpt>
      <trkpt lat="48.84381" lon="2.30665">
        <ele>45</ele>
        <time>2016-06-06T19:30:24.000Z</time>
      </trkpt>
      <trkpt lat="48.84379" lon="2.30662">
        <ele>45</ele>
        <time>2016-06-06T19:30:26.000Z</time>
      </trkpt>
      <trkpt lat="48.84374" lon="2.30653">
        <ele>44.799999237061</ele>
        <time>2016-06-06T19:30:29.000Z</time>
      </trkpt>
      <trkpt lat="48.8437" lon="2.30639">
        <ele>44.799999237061</ele>
        <time>2016-06-06T19:30:33.000Z</time>
      </trkpt>
      <trkpt lat="48.84368" lon="2.30631">
        <ele>44.599998474121</ele>
        <time>2016-06-06T19:30:35.000Z</time>
      </trkpt>
      <trkpt lat="48.84361" lon="2.30603">
        <ele>44.200000762939</ele>
        <time>2016-06-06T19:30:40.000Z</time>
      </trkpt>
      <trkpt lat="48.84355" lon="2.30574">
        <ele>44</ele>
        <time>2016-06-06T19:30:44.000Z</time>
      </trkpt>
      <trkpt lat="48.84351" lon="2.3056">
        <ele>44.200000762939</ele>
        <time>2016-06-06T19:30:46.000Z</time>
      </trkpt>
      <trkpt lat="48.84343" lon="2.3053">
        <ele>44.400001525879</ele>
        <time>2016-06-06T19:30:50.000Z</time>
      </trkpt>
      <trkpt lat="48.84339" lon="2.30513">
        <ele>44.599998474121</ele>
        <time>2016-06-06T19:30:52.000Z</time>
      </trkpt>
      <trkpt lat="48.84333" lon="2.30496">
        <ele>44.799999237061</ele>
        <time>2016-06-06T19:30:54.000Z</time>
      </trkpt>
      <trkpt lat="48.84326" lon="2.30473">
        <ele>45</ele>
        <time>2016-06-06T19:30:57.000Z</time>
      </trkpt>
      <trkpt lat="48.84319" lon="2.30443">
        <ele>44.799999237061</ele>
        <time>2016-06-06T19:31:01.000Z</time>
      </trkpt>
      <trkpt lat="48.8431" lon="2.30412">
        <ele>44.599998474121</ele>
        <time>2016-06-06T19:31:05.000Z</time>
      </trkpt>
      <trkpt lat="48.84302" lon="2.30383">
        <ele>44.200000762939</ele>
        <time>2016-06-06T19:31:08.000Z</time>
      </trkpt>
      <trkpt lat="48.84299" lon="2.30373">
        <ele>44.200000762939</ele>
        <time>2016-06-06T19:31:09.000Z</time>
      </trkpt>
      <trkpt lat="48.84291" lon="2.30347">
        <ele>44</ele>
        <time>2016-06-06T19:31:11.000Z</time>
      </trkpt>
      <trkpt lat="48.84283" lon="2.30322">
        <ele>44.200000762939</ele>
        <time>2016-06-06T19:31:15.000Z</time>
      </trkpt>
      <trkpt lat="48.84276" lon="2.30304">
        <ele>44.599998474121</ele>
        <time>2016-06-06T19:31:18.000Z</time>
      </trkpt>
      <trkpt lat="48.84276" lon="2.30287">
        <ele>45</ele>
        <time>2016-06-06T19:31:21.000Z</time>
      </trkpt>
      <trkpt lat="48.84271" lon="2.30271">
        <ele>45.400001525879</ele>
        <time>2016-06-06T19:31:26.000Z</time>
      </trkpt>
      <trkpt lat="48.84261" lon="2.30247">
        <ele>46.200000762939</ele>
        <time>2016-06-06T19:31:32.000Z</time>
      </trkpt>
      <trkpt lat="48.84255" lon="2.30231">
        <ele>46.799999237061</ele>
        <time>2016-06-06T19:31:35.000Z</time>
      </trkpt>
      <trkpt lat="48.84244" lon="2.30204">
        <ele>47.799999237061</ele>
        <time>2016-06-06T19:31:39.000Z</time>
      </trkpt>
      <trkpt lat="48.84242" lon="2.30197">
        <ele>48.200000762939</ele>
        <time>2016-06-06T19:31:40.000Z</time>
      </trkpt>
      <trkpt lat="48.84238" lon="2.30181">
        <ele>48.799999237061</ele>
        <time>2016-06-06T19:31:42.000Z</time>
      </trkpt>
      <trkpt lat="48.8423" lon="2.30154">
        <ele>49.200000762939</ele>
        <time>2016-06-06T19:31:45.000Z</time>
      </trkpt>
      <trkpt lat="48.84221" lon="2.30123">
        <ele>48.200000762939</ele>
        <time>2016-06-06T19:31:48.000Z</time>
      </trkpt>
      <trkpt lat="48.84211" lon="2.30095">
        <ele>47.400001525879</ele>
        <time>2016-06-06T19:31:51.000Z</time>
      </trkpt>
      <trkpt lat="48.84204" lon="2.30075">
        <ele>46.799999237061</ele>
        <time>2016-06-06T19:31:53.000Z</time>
      </trkpt>
      <trkpt lat="48.84197" lon="2.30046">
        <ele>46.200000762939</ele>
        <time>2016-06-06T19:31:56.000Z</time>
      </trkpt>
      <trkpt lat="48.8419" lon="2.3002">
        <ele>45.599998474121</ele>
        <time>2016-06-06T19:31:59.000Z</time>
      </trkpt>
      <trkpt lat="48.84182" lon="2.29995">
        <ele>45.200000762939</ele>
        <time>2016-06-06T19:32:02.000Z</time>
      </trkpt>
      <trkpt lat="48.84178" lon="2.29983">
        <ele>45</ele>
        <time>2016-06-06T19:32:04.000Z</time>
      </trkpt>
      <trkpt lat="48.84169" lon="2.29963">
        <ele>44.599998474121</ele>
        <time>2016-06-06T19:32:08.000Z</time>
      </trkpt>
      <trkpt lat="48.84164" lon="2.29942">
        <ele>44.200000762939</ele>
        <time>2016-06-06T19:32:12.000Z</time>
      </trkpt>
      <trkpt lat="48.84162" lon="2.29919">
        <ele>43.799999237061</ele>
        <time>2016-06-06T19:32:16.000Z</time>
      </trkpt>
      <trkpt lat="48.84162" lon="2.29912">
        <ele>43.599998474121</ele>
        <time>2016-06-06T19:32:18.000Z</time>
      </trkpt>
      <trkpt lat="48.84165" lon="2.29906">
        <ele>43.400001525879</ele>
        <time>2016-06-06T19:32:22.000Z</time>
      </trkpt>
      <trkpt lat="48.84161" lon="2.29893">
        <ele>43.200000762939</ele>
        <time>2016-06-06T19:32:32.000Z</time>
      </trkpt>
      <trkpt lat="48.84153" lon="2.29862">
        <ele>43.200000762939</ele>
        <time>2016-06-06T19:32:37.000Z</time>
      </trkpt>
      <trkpt lat="48.84142" lon="2.29843">
        <ele>43.200000762939</ele>
        <time>2016-06-06T19:32:39.000Z</time>
      </trkpt>
      <trkpt lat="48.84132" lon="2.29808">
        <ele>43.400001525879</ele>
        <time>2016-06-06T19:32:42.000Z</time>
      </trkpt>
      <trkpt lat="48.8412" lon="2.29773">
        <ele>43.200000762939</ele>
        <time>2016-06-06T19:32:45.000Z</time>
      </trkpt>
      <trkpt lat="48.84111" lon="2.29747">
        <ele>43</ele>
        <time>2016-06-06T19:32:47.000Z</time>
      </trkpt>
      <trkpt lat="48.841" lon="2.2971">
        <ele>43.599998474121</ele>
        <time>2016-06-06T19:32:50.000Z</time>
      </trkpt>
      <trkpt lat="48.84092" lon="2.29686">
        <ele>44</ele>
        <time>2016-06-06T19:32:52.000Z</time>
      </trkpt>
      <trkpt lat="48.8408" lon="2.2965">
        <ele>43.200000762939</ele>
        <time>2016-06-06T19:32:55.000Z</time>
      </trkpt>
      <trkpt lat="48.84069" lon="2.29615">
        <ele>41.400001525879</ele>
        <time>2016-06-06T19:32:58.000Z</time>
      </trkpt>
      <trkpt lat="48.8406" lon="2.29585">
        <ele>40.200000762939</ele>
        <time>2016-06-06T19:33:01.000Z</time>
      </trkpt>
      <trkpt lat="48.84052" lon="2.29559">
        <ele>39.799999237061</ele>
        <time>2016-06-06T19:33:04.000Z</time>
      </trkpt>
      <trkpt lat="48.84042" lon="2.29534">
        <ele>39.200000762939</ele>
        <time>2016-06-06T19:33:07.000Z</time>
      </trkpt>
      <trkpt lat="48.84031" lon="2.29501">
        <ele>38.400001525879</ele>
        <time>2016-06-06T19:33:11.000Z</time>
      </trkpt>
      <trkpt lat="48.84027" lon="2.29493">
        <ele>38.200000762939</ele>
        <time>2016-06-06T19:33:12.000Z</time>
      </trkpt>
      <trkpt lat="48.84015" lon="2.29467">
        <ele>37.799999237061</ele>
        <time>2016-06-06T19:33:15.000Z</time>
      </trkpt>
      <trkpt lat="48.84005" lon="2.29436">
        <ele>37.599998474121</ele>
        <time>2016-06-06T19:33:18.000Z</time>
      </trkpt>
      <trkpt lat="48.83995" lon="2.29408">
        <ele>37.599998474121</ele>
        <time>2016-06-06T19:33:21.000Z</time>
      </trkpt>
      <trkpt lat="48.83984" lon="2.29382">
        <ele>39</ele>
        <time>2016-06-06T19:33:24.000Z</time>
      </trkpt>
      <trkpt lat="48.83974" lon="2.29355">
        <ele>40</ele>
        <time>2016-06-06T19:33:27.000Z</time>
      </trkpt>
      <trkpt lat="48.83965" lon="2.29329">
        <ele>41</ele>
        <time>2016-06-06T19:33:30.000Z</time>
      </trkpt>
      <trkpt lat="48.83963" lon="2.29321">
        <ele>41.200000762939</ele>
        <time>2016-06-06T19:33:31.000Z</time>
      </trkpt>
      <trkpt lat="48.83954" lon="2.29292">
        <ele>42</ele>
        <time>2016-06-06T19:33:35.000Z</time>
      </trkpt>
      <trkpt lat="48.83949" lon="2.29278">
        <ele>42.200000762939</ele>
        <time>2016-06-06T19:33:37.000Z</time>
      </trkpt>
      <trkpt lat="48.83939" lon="2.29253">
        <ele>42.799999237061</ele>
        <time>2016-06-06T19:33:41.000Z</time>
      </trkpt>
      <trkpt lat="48.83937" lon="2.2924">
        <ele>42.799999237061</ele>
        <time>2016-06-06T19:33:43.000Z</time>
      </trkpt>
      <trkpt lat="48.83933" lon="2.29223">
        <ele>42.200000762939</ele>
        <time>2016-06-06T19:33:46.000Z</time>
      </trkpt>
      <trkpt lat="48.83932" lon="2.29214">
        <ele>42</ele>
        <time>2016-06-06T19:33:48.000Z</time>
      </trkpt>
      <trkpt lat="48.83933" lon="2.29205">
        <ele>41.599998474121</ele>
        <time>2016-06-06T19:33:52.000Z</time>
      </trkpt>
      <trkpt lat="48.83933" lon="2.29204">
        <ele>41.599998474121</ele>
        <time>2016-06-06T19:33:53.000Z</time>
      </trkpt>
      <trkpt lat="48.83943" lon="2.29203">
        <ele>41.400001525879</ele>
        <time>2016-06-06T19:34:15.000Z</time>
      </trkpt>
      <trkpt lat="48.8394" lon="2.29199">
        <ele>41.200000762939</ele>
        <time>2016-06-06T19:34:37.000Z</time>
      </trkpt>
      <trkpt lat="48.83931" lon="2.29176">
        <ele>40.599998474121</ele>
        <time>2016-06-06T19:34:50.000Z</time>
      </trkpt>
      <trkpt lat="48.83923" lon="2.29145">
        <ele>40.200000762939</ele>
        <time>2016-06-06T19:34:55.000Z</time>
      </trkpt>
      <trkpt lat="48.83913" lon="2.29113">
        <ele>40</ele>
        <time>2016-06-06T19:34:59.000Z</time>
      </trkpt>
      <trkpt lat="48.83905" lon="2.29086">
        <ele>39.799999237061</ele>
        <time>2016-06-06T19:35:02.000Z</time>
      </trkpt>
      <trkpt lat="48.83899" lon="2.2906">
        <ele>39.799999237061</ele>
        <time>2016-06-06T19:35:05.000Z</time>
      </trkpt>
      <trkpt lat="48.83891" lon="2.29034">
        <ele>39.599998474121</ele>
        <time>2016-06-06T19:35:08.000Z</time>
      </trkpt>
      <trkpt lat="48.83883" lon="2.29008">
        <ele>40.200000762939</ele>
        <time>2016-06-06T19:35:11.000Z</time>
      </trkpt>
      <trkpt lat="48.83874" lon="2.28983">
        <ele>40.599998474121</ele>
        <time>2016-06-06T19:35:14.000Z</time>
      </trkpt>
      <trkpt lat="48.83864" lon="2.28959">
        <ele>40.599998474121</ele>
        <time>2016-06-06T19:35:17.000Z</time>
      </trkpt>
      <trkpt lat="48.83855" lon="2.28931">
        <ele>40.799999237061</ele>
        <time>2016-06-06T19:35:21.000Z</time>
      </trkpt>
      <trkpt lat="48.83847" lon="2.28905">
        <ele>40.799999237061</ele>
        <time>2016-06-06T19:35:25.000Z</time>
      </trkpt>
      <trkpt lat="48.8384" lon="2.28878">
        <ele>40.799999237061</ele>
        <time>2016-06-06T19:35:29.000Z</time>
      </trkpt>
      <trkpt lat="48.83829" lon="2.28848">
        <ele>40.799999237061</ele>
        <time>2016-06-06T19:35:33.000Z</time>
      </trkpt>
      <trkpt lat="48.83821" lon="2.28817">
        <ele>40.200000762939</ele>
        <time>2016-06-06T19:35:37.000Z</time>
      </trkpt>
      <trkpt lat="48.83818" lon="2.28796">
        <ele>39</ele>
        <time>2016-06-06T19:35:39.000Z</time>
      </trkpt>
      <trkpt lat="48.83812" lon="2.28762">
        <ele>37.400001525879</ele>
        <time>2016-06-06T19:35:43.000Z</time>
      </trkpt>
      <trkpt lat="48.83805" lon="2.28732">
        <ele>37</ele>
        <time>2016-06-06T19:35:46.000Z</time>
      </trkpt>
      <trkpt lat="48.83802" lon="2.28722">
        <ele>37.400001525879</ele>
        <time>2016-06-06T19:35:47.000Z</time>
      </trkpt>
      <trkpt lat="48.83794" lon="2.28691">
        <ele>38</ele>
        <time>2016-06-06T19:35:50.000Z</time>
      </trkpt>
      <trkpt lat="48.83784" lon="2.28661">
        <ele>38.200000762939</ele>
        <time>2016-06-06T19:35:53.000Z</time>
      </trkpt>
      <trkpt lat="48.83776" lon="2.28627">
        <ele>37.200000762939</ele>
        <time>2016-06-06T19:35:56.000Z</time>
      </trkpt>
      <trkpt lat="48.83769" lon="2.28594">
        <ele>36.400001525879</ele>
        <time>2016-06-06T19:35:59.000Z</time>
      </trkpt>
      <trkpt lat="48.83767" lon="2.28584">
        <ele>36</ele>
        <time>2016-06-06T19:36:00.000Z</time>
      </trkpt>
      <trkpt lat="48.83762" lon="2.28565">
        <ele>36</ele>
        <time>2016-06-06T19:36:02.000Z</time>
      </trkpt>
      <trkpt lat="48.83752" lon="2.28531">
        <ele>36</ele>
        <time>2016-06-06T19:36:06.000Z</time>
      </trkpt>
      <trkpt lat="48.83741" lon="2.285">
        <ele>35.799999237061</ele>
        <time>2016-06-06T19:36:10.000Z</time>
      </trkpt>
      <trkpt lat="48.8373" lon="2.28467">
        <ele>37.799999237061</ele>
        <time>2016-06-06T19:36:14.000Z</time>
      </trkpt>
      <trkpt lat="48.83721" lon="2.28442">
        <ele>39.400001525879</ele>
        <time>2016-06-06T19:36:17.000Z</time>
      </trkpt>
      <trkpt lat="48.8371" lon="2.28417">
        <ele>40.799999237061</ele>
        <time>2016-06-06T19:36:20.000Z</time>
      </trkpt>
      <trkpt lat="48.83698" lon="2.2839">
        <ele>41.599998474121</ele>
        <time>2016-06-06T19:36:24.000Z</time>
      </trkpt>
      <trkpt lat="48.83693" lon="2.28381">
        <ele>41.799999237061</ele>
        <time>2016-06-06T19:36:26.000Z</time>
      </trkpt>
      <trkpt lat="48.83685" lon="2.28355">
        <ele>41.799999237061</ele>
        <time>2016-06-06T19:36:31.000Z</time>
      </trkpt>
      <trkpt lat="48.83677" lon="2.28336">
        <ele>41.599998474121</ele>
        <time>2016-06-06T19:36:34.000Z</time>
      </trkpt>
      <trkpt lat="48.83667" lon="2.28312">
        <ele>41.599998474121</ele>
        <time>2016-06-06T19:36:37.000Z</time>
      </trkpt>
      <trkpt lat="48.83657" lon="2.28288">
        <ele>42</ele>
        <time>2016-06-06T19:36:40.000Z</time>
      </trkpt>
      <trkpt lat="48.83647" lon="2.28263">
        <ele>42.799999237061</ele>
        <time>2016-06-06T19:36:43.000Z</time>
      </trkpt>
      <trkpt lat="48.83639" lon="2.28236">
        <ele>42.799999237061</ele>
        <time>2016-06-06T19:36:46.000Z</time>
      </trkpt>
      <trkpt lat="48.83631" lon="2.28209">
        <ele>41.599998474121</ele>
        <time>2016-06-06T19:36:49.000Z</time>
      </trkpt>
      <trkpt lat="48.8362" lon="2.28179">
        <ele>40.200000762939</ele>
        <time>2016-06-06T19:36:53.000Z</time>
      </trkpt>
      <trkpt lat="48.83617" lon="2.28155">
        <ele>39.799999237061</ele>
        <time>2016-06-06T19:36:57.000Z</time>
      </trkpt>
      <trkpt lat="48.83617" lon="2.28152">
        <ele>39.799999237061</ele>
        <time>2016-06-06T19:36:58.000Z</time>
      </trkpt>
      <trkpt lat="48.83616" lon="2.28147">
        <ele>39.599998474121</ele>
        <time>2016-06-06T19:37:00.000Z</time>
      </trkpt>
      <trkpt lat="48.83628" lon="2.28141">
        <ele>40.599998474121</ele>
        <time>2016-06-06T19:37:16.000Z</time>
      </trkpt>
      <trkpt lat="48.83625" lon="2.28143">
        <ele>40.400001525879</ele>
        <time>2016-06-06T19:37:26.000Z</time>
      </trkpt>
      <trkpt lat="48.83611" lon="2.28127">
        <ele>38.599998474121</ele>
        <time>2016-06-06T19:37:45.000Z</time>
      </trkpt>
      <trkpt lat="48.83595" lon="2.28117">
        <ele>37.599998474121</ele>
        <time>2016-06-06T19:37:50.000Z</time>
      </trkpt>
      <trkpt lat="48.83572" lon="2.28117">
        <ele>37</ele>
        <time>2016-06-06T19:37:54.000Z</time>
      </trkpt>
      <trkpt lat="48.83554" lon="2.2811">
        <ele>36.400001525879</ele>
        <time>2016-06-06T19:37:59.000Z</time>
      </trkpt>
      <trkpt lat="48.83536" lon="2.28105">
        <ele>35.599998474121</ele>
        <time>2016-06-06T19:38:08.000Z</time>
      </trkpt>
      <trkpt lat="48.83522" lon="2.28125">
        <ele>34.400001525879</ele>
        <time>2016-06-06T19:38:16.000Z</time>
      </trkpt>
      <trkpt lat="48.83515" lon="2.28152">
        <ele>34.200000762939</ele>
        <time>2016-06-06T19:38:21.000Z</time>
      </trkpt>
      <trkpt lat="48.83508" lon="2.28178">
        <ele>34.400001525879</ele>
        <time>2016-06-06T19:38:25.000Z</time>
      </trkpt>
      <trkpt lat="48.83501" lon="2.28205">
        <ele>35</ele>
        <time>2016-06-06T19:38:29.000Z</time>
      </trkpt>
      <trkpt lat="48.83492" lon="2.28233">
        <ele>35.599998474121</ele>
        <time>2016-06-06T19:38:33.000Z</time>
      </trkpt>
      <trkpt lat="48.83482" lon="2.28261">
        <ele>37.200000762939</ele>
        <time>2016-06-06T19:38:37.000Z</time>
      </trkpt>
      <trkpt lat="48.83472" lon="2.28289">
        <ele>38.799999237061</ele>
        <time>2016-06-06T19:38:41.000Z</time>
      </trkpt>
      <trkpt lat="48.83462" lon="2.28318">
        <ele>38.599998474121</ele>
        <time>2016-06-06T19:38:45.000Z</time>
      </trkpt>
      <trkpt lat="48.83453" lon="2.28344">
        <ele>37.599998474121</ele>
        <time>2016-06-06T19:38:49.000Z</time>
      </trkpt>
      <trkpt lat="48.83443" lon="2.28371">
        <ele>37.200000762939</ele>
        <time>2016-06-06T19:38:54.000Z</time>
      </trkpt>
      <trkpt lat="48.83436" lon="2.28387">
        <ele>37.200000762939</ele>
        <time>2016-06-06T19:38:58.000Z</time>
      </trkpt>
      <trkpt lat="48.83428" lon="2.28395">
        <ele>37.799999237061</ele>
        <time>2016-06-06T19:39:02.000Z</time>
      </trkpt>
      <trkpt lat="48.83427" lon="2.28396">
        <ele>37.799999237061</ele>
        <time>2016-06-06T19:39:03.000Z</time>
      </trkpt>
      <trkpt lat="48.83425" lon="2.28392">
        <ele>38</ele>
        <time>2016-06-06T19:39:07.000Z</time>
      </trkpt>
      <trkpt lat="48.83419" lon="2.28405">
        <ele>38.599998474121</ele>
        <time>2016-06-06T19:39:23.000Z</time>
      </trkpt>
      <trkpt lat="48.83412" lon="2.28436">
        <ele>38.799999237061</ele>
        <time>2016-06-06T19:39:30.000Z</time>
      </trkpt>
      <trkpt lat="48.83411" lon="2.28441">
        <ele>38.799999237061</ele>
        <time>2016-06-06T19:39:31.000Z</time>
      </trkpt>
      <trkpt lat="48.83409" lon="2.28447">
        <ele>38.799999237061</ele>
        <time>2016-06-06T19:39:32.000Z</time>
      </trkpt>
      <trkpt lat="48.834" lon="2.28473">
        <ele>38.200000762939</ele>
        <time>2016-06-06T19:39:36.000Z</time>
      </trkpt>
      <trkpt lat="48.83391" lon="2.28499">
        <ele>36.799999237061</ele>
        <time>2016-06-06T19:39:40.000Z</time>
      </trkpt>
      <trkpt lat="48.83382" lon="2.28529">
        <ele>38</ele>
        <time>2016-06-06T19:39:44.000Z</time>
      </trkpt>
      <trkpt lat="48.83372" lon="2.28557">
        <ele>38.599998474121</ele>
        <time>2016-06-06T19:39:48.000Z</time>
      </trkpt>
      <trkpt lat="48.83362" lon="2.28587">
        <ele>39</ele>
        <time>2016-06-06T19:39:52.000Z</time>
      </trkpt>
      <trkpt lat="48.83353" lon="2.28617">
        <ele>41.799999237061</ele>
        <time>2016-06-06T19:39:56.000Z</time>
      </trkpt>
      <trkpt lat="48.83342" lon="2.28642">
        <ele>44</ele>
        <time>2016-06-06T19:40:00.000Z</time>
      </trkpt>
      <trkpt lat="48.83337" lon="2.28652">
        <ele>44.200000762939</ele>
        <time>2016-06-06T19:40:02.000Z</time>
      </trkpt>
      <trkpt lat="48.83325" lon="2.28679">
        <ele>43</ele>
        <time>2016-06-06T19:40:07.000Z</time>
      </trkpt>
      <trkpt lat="48.83314" lon="2.28704">
        <ele>42</ele>
        <time>2016-06-06T19:40:12.000Z</time>
      </trkpt>
      <trkpt lat="48.8331" lon="2.28712">
        <ele>42</ele>
        <time>2016-06-06T19:40:14.000Z</time>
      </trkpt>
      <trkpt lat="48.83301" lon="2.28721">
        <ele>41.799999237061</ele>
        <time>2016-06-06T19:40:18.000Z</time>
      </trkpt>
      <trkpt lat="48.83284" lon="2.28731">
        <ele>41.200000762939</ele>
        <time>2016-06-06T19:40:26.000Z</time>
      </trkpt>
      <trkpt lat="48.83265" lon="2.28741">
        <ele>40.799999237061</ele>
        <time>2016-06-06T19:40:36.000Z</time>
      </trkpt>
      <trkpt lat="48.83249" lon="2.28752">
        <ele>41.200000762939</ele>
        <time>2016-06-06T19:40:43.000Z</time>
      </trkpt>
      <trkpt lat="48.8323" lon="2.28756">
        <ele>41.200000762939</ele>
        <time>2016-06-06T19:40:52.000Z</time>
      </trkpt>
      <trkpt lat="48.83229" lon="2.28756">
        <ele>41.200000762939</ele>
        <time>2016-06-06T19:40:53.000Z</time>
      </trkpt>
      <trkpt lat="48.83228" lon="2.28756">
        <ele>41.200000762939</ele>
        <time>2016-06-06T19:42:27.000Z</time>
      </trkpt>
      <trkpt lat="48.83224" lon="2.28783">
        <ele>41.799999237061</ele>
        <time>2016-06-06T19:42:39.000Z</time>
      </trkpt>
      <trkpt lat="48.83224" lon="2.28789">
        <ele>42</ele>
        <time>2016-06-06T19:42:45.000Z</time>
      </trkpt>
      <trkpt lat="48.83226" lon="2.2881">
        <ele>42.599998474121</ele>
        <time>2016-06-06T19:43:11.000Z</time>
      </trkpt>
      <trkpt lat="48.83227" lon="2.28841">
        <ele>43.599998474121</ele>
        <time>2016-06-06T19:43:17.000Z</time>
      </trkpt>
      <trkpt lat="48.83228" lon="2.28869">
        <ele>44.799999237061</ele>
        <time>2016-06-06T19:43:22.000Z</time>
      </trkpt>
      <trkpt lat="48.83224" lon="2.28897">
        <ele>46.599998474121</ele>
        <time>2016-06-06T19:43:28.000Z</time>
      </trkpt>
      <trkpt lat="48.83217" lon="2.28922">
        <ele>48.200000762939</ele>
        <time>2016-06-06T19:43:34.000Z</time>
      </trkpt>
      <trkpt lat="48.83206" lon="2.28951">
        <ele>50.599998474121</ele>
        <time>2016-06-06T19:43:40.000Z</time>
      </trkpt>
      <trkpt lat="48.83201" lon="2.28961">
        <ele>51.599998474121</ele>
        <time>2016-06-06T19:43:42.000Z</time>
      </trkpt>
      <trkpt lat="48.83191" lon="2.28985">
        <ele>54</ele>
        <time>2016-06-06T19:43:46.000Z</time>
      </trkpt>
      <trkpt lat="48.83183" lon="2.29003">
        <ele>54.799999237061</ele>
        <time>2016-06-06T19:43:49.000Z</time>
      </trkpt>
      <trkpt lat="48.83171" lon="2.29028">
        <ele>55</ele>
        <time>2016-06-06T19:43:53.000Z</time>
      </trkpt>
      <trkpt lat="48.83163" lon="2.29046">
        <ele>55</ele>
        <time>2016-06-06T19:43:56.000Z</time>
      </trkpt>
      <trkpt lat="48.83156" lon="2.29059">
        <ele>55.200000762939</ele>
        <time>2016-06-06T19:43:58.000Z</time>
      </trkpt>
      <trkpt lat="48.83152" lon="2.29073">
        <ele>55.799999237061</ele>
        <time>2016-06-06T19:44:00.000Z</time>
      </trkpt>
      <trkpt lat="48.83142" lon="2.291">
        <ele>56.599998474121</ele>
        <time>2016-06-06T19:44:04.000Z</time>
      </trkpt>
      <trkpt lat="48.83139" lon="2.29107">
        <ele>56.799999237061</ele>
        <time>2016-06-06T19:44:05.000Z</time>
      </trkpt>
      <trkpt lat="48.83133" lon="2.29119">
        <ele>57</ele>
        <time>2016-06-06T19:44:07.000Z</time>
      </trkpt>
      <trkpt lat="48.83123" lon="2.29145">
        <ele>57.799999237061</ele>
        <time>2016-06-06T19:44:11.000Z</time>
      </trkpt>
      <trkpt lat="48.8312" lon="2.29152">
        <ele>58</ele>
        <time>2016-06-06T19:44:12.000Z</time>
      </trkpt>
      <trkpt lat="48.83109" lon="2.29177">
        <ele>59.200000762939</ele>
        <time>2016-06-06T19:44:16.000Z</time>
      </trkpt>
      <trkpt lat="48.83104" lon="2.29189">
        <ele>60.599998474121</ele>
        <time>2016-06-06T19:44:18.000Z</time>
      </trkpt>
      <trkpt lat="48.83092" lon="2.29213">
        <ele>63.200000762939</ele>
        <time>2016-06-06T19:44:23.000Z</time>
      </trkpt>
      <trkpt lat="48.83082" lon="2.29237">
        <ele>65.400001525879</ele>
        <time>2016-06-06T19:44:30.000Z</time>
      </trkpt>
      <trkpt lat="48.83074" lon="2.29248">
        <ele>66</ele>
        <time>2016-06-06T19:44:36.000Z</time>
      </trkpt>
      <trkpt lat="48.83078" lon="2.29247">
        <ele>66</ele>
        <time>2016-06-06T19:46:11.000Z</time>
      </trkpt>
      <trkpt lat="48.83071" lon="2.29277">
        <ele>66.800003051758</ele>
        <time>2016-06-06T19:46:16.000Z</time>
      </trkpt>
      <trkpt lat="48.83063" lon="2.29303">
        <ele>67.199996948242</ele>
        <time>2016-06-06T19:46:19.000Z</time>
      </trkpt>
      <trkpt lat="48.83061" lon="2.29313">
        <ele>67.199996948242</ele>
        <time>2016-06-06T19:46:20.000Z</time>
      </trkpt>
      <trkpt lat="48.83054" lon="2.29342">
        <ele>66.800003051758</ele>
        <time>2016-06-06T19:46:23.000Z</time>
      </trkpt>
      <trkpt lat="48.83051" lon="2.29352">
        <ele>66.199996948242</ele>
        <time>2016-06-06T19:46:24.000Z</time>
      </trkpt>
      <trkpt lat="48.83041" lon="2.29381">
        <ele>64.800003051758</ele>
        <time>2016-06-06T19:46:27.000Z</time>
      </trkpt>
      <trkpt lat="48.83034" lon="2.294">
        <ele>63.799999237061</ele>
        <time>2016-06-06T19:46:29.000Z</time>
      </trkpt>
      <trkpt lat="48.83025" lon="2.29428">
        <ele>63.400001525879</ele>
        <time>2016-06-06T19:46:32.000Z</time>
      </trkpt>
      <trkpt lat="48.83018" lon="2.29454">
        <ele>64</ele>
        <time>2016-06-06T19:46:35.000Z</time>
      </trkpt>
      <trkpt lat="48.83007" lon="2.29485">
        <ele>64.800003051758</ele>
        <time>2016-06-06T19:46:39.000Z</time>
      </trkpt>
      <trkpt lat="48.82998" lon="2.29513">
        <ele>67.199996948242</ele>
        <time>2016-06-06T19:46:43.000Z</time>
      </trkpt>
      <trkpt lat="48.82988" lon="2.29541">
        <ele>69.199996948242</ele>
        <time>2016-06-06T19:46:48.000Z</time>
      </trkpt>
      <trkpt lat="48.82979" lon="2.29564">
        <ele>70.800003051758</ele>
        <time>2016-06-06T19:46:54.000Z</time>
      </trkpt>
      <trkpt lat="48.82971" lon="2.2958">
        <ele>72</ele>
        <time>2016-06-06T19:47:24.000Z</time>
      </trkpt>
      <trkpt lat="48.82965" lon="2.29611">
        <ele>73.400001525879</ele>
        <time>2016-06-06T19:47:30.000Z</time>
      </trkpt>
      <trkpt lat="48.8296" lon="2.29638">
        <ele>72</ele>
        <time>2016-06-06T19:47:34.000Z</time>
      </trkpt>
      <trkpt lat="48.82954" lon="2.29666">
        <ele>70.599998474121</ele>
        <time>2016-06-06T19:47:38.000Z</time>
      </trkpt>
      <trkpt lat="48.82949" lon="2.29697">
        <ele>71</ele>
        <time>2016-06-06T19:47:42.000Z</time>
      </trkpt>
      <trkpt lat="48.82943" lon="2.29729">
        <ele>72.400001525879</ele>
        <time>2016-06-06T19:47:46.000Z</time>
      </trkpt>
      <trkpt lat="48.82937" lon="2.29763">
        <ele>73.199996948242</ele>
        <time>2016-06-06T19:47:50.000Z</time>
      </trkpt>
      <trkpt lat="48.8293" lon="2.29795">
        <ele>73.800003051758</ele>
        <time>2016-06-06T19:47:54.000Z</time>
      </trkpt>
      <trkpt lat="48.82923" lon="2.29827">
        <ele>74.199996948242</ele>
        <time>2016-06-06T19:47:58.000Z</time>
      </trkpt>
      <trkpt lat="48.82915" lon="2.29858">
        <ele>73.599998474121</ele>
        <time>2016-06-06T19:48:02.000Z</time>
      </trkpt>
      <trkpt lat="48.82908" lon="2.29887">
        <ele>73</ele>
        <time>2016-06-06T19:48:06.000Z</time>
      </trkpt>
      <trkpt lat="48.82907" lon="2.29894">
        <ele>73.199996948242</ele>
        <time>2016-06-06T19:48:07.000Z</time>
      </trkpt>
      <trkpt lat="48.82902" lon="2.29925">
        <ele>73.800003051758</ele>
        <time>2016-06-06T19:48:11.000Z</time>
      </trkpt>
      <trkpt lat="48.82896" lon="2.29956">
        <ele>74.599998474121</ele>
        <time>2016-06-06T19:48:15.000Z</time>
      </trkpt>
      <trkpt lat="48.82888" lon="2.29988">
        <ele>76.199996948242</ele>
        <time>2016-06-06T19:48:19.000Z</time>
      </trkpt>
      <trkpt lat="48.82879" lon="2.3002">
        <ele>75</ele>
        <time>2016-06-06T19:48:23.000Z</time>
      </trkpt>
      <trkpt lat="48.82871" lon="2.30052">
        <ele>75.199996948242</ele>
        <time>2016-06-06T19:48:27.000Z</time>
      </trkpt>
      <trkpt lat="48.82864" lon="2.30082">
        <ele>75.199996948242</ele>
        <time>2016-06-06T19:48:31.000Z</time>
      </trkpt>
      <trkpt lat="48.82856" lon="2.30109">
        <ele>73.599998474121</ele>
        <time>2016-06-06T19:48:35.000Z</time>
      </trkpt>
      <trkpt lat="48.82852" lon="2.30129">
        <ele>71.800003051758</ele>
        <time>2016-06-06T19:48:38.000Z</time>
      </trkpt>
      <trkpt lat="48.82847" lon="2.30145">
        <ele>70.199996948242</ele>
        <time>2016-06-06T19:48:42.000Z</time>
      </trkpt>
      <trkpt lat="48.82843" lon="2.30161">
        <ele>69.199996948242</ele>
        <time>2016-06-06T19:49:00.000Z</time>
      </trkpt>
      <trkpt lat="48.82838" lon="2.30193">
        <ele>68.800003051758</ele>
        <time>2016-06-06T19:49:05.000Z</time>
      </trkpt>
      <trkpt lat="48.82832" lon="2.30222">
        <ele>68.599998474121</ele>
        <time>2016-06-06T19:49:09.000Z</time>
      </trkpt>
      <trkpt lat="48.82825" lon="2.30248">
        <ele>67.599998474121</ele>
        <time>2016-06-06T19:49:13.000Z</time>
      </trkpt>
      <trkpt lat="48.82819" lon="2.30277">
        <ele>68</ele>
        <time>2016-06-06T19:49:17.000Z</time>
      </trkpt>
      <trkpt lat="48.82812" lon="2.30308">
        <ele>68.400001525879</ele>
        <time>2016-06-06T19:49:21.000Z</time>
      </trkpt>
      <trkpt lat="48.82806" lon="2.30336">
        <ele>68.800003051758</ele>
        <time>2016-06-06T19:49:24.000Z</time>
      </trkpt>
      <trkpt lat="48.82798" lon="2.30366">
        <ele>68.199996948242</ele>
        <time>2016-06-06T19:49:27.000Z</time>
      </trkpt>
      <trkpt lat="48.8279" lon="2.30397">
        <ele>68</ele>
        <time>2016-06-06T19:49:30.000Z</time>
      </trkpt>
      <trkpt lat="48.82781" lon="2.30427">
        <ele>67.599998474121</ele>
        <time>2016-06-06T19:49:33.000Z</time>
      </trkpt>
      <trkpt lat="48.8278" lon="2.30458">
        <ele>67.800003051758</ele>
        <time>2016-06-06T19:49:36.000Z</time>
      </trkpt>
      <trkpt lat="48.82771" lon="2.30487">
        <ele>68</ele>
        <time>2016-06-06T19:49:41.000Z</time>
      </trkpt>
      <trkpt lat="48.82769" lon="2.30493">
        <ele>68</ele>
        <time>2016-06-06T19:49:42.000Z</time>
      </trkpt>
      <trkpt lat="48.82763" lon="2.30517">
        <ele>68.599998474121</ele>
        <time>2016-06-06T19:49:47.000Z</time>
      </trkpt>
      <trkpt lat="48.82761" lon="2.30545">
        <ele>69</ele>
        <time>2016-06-06T19:49:52.000Z</time>
      </trkpt>
      <trkpt lat="48.82755" lon="2.30576">
        <ele>69.599998474121</ele>
        <time>2016-06-06T19:49:57.000Z</time>
      </trkpt>
      <trkpt lat="48.82749" lon="2.30603">
        <ele>71</ele>
        <time>2016-06-06T19:50:01.000Z</time>
      </trkpt>
      <trkpt lat="48.82746" lon="2.30616">
        <ele>71.599998474121</ele>
        <time>2016-06-06T19:50:03.000Z</time>
      </trkpt>
      <trkpt lat="48.8274" lon="2.30648">
        <ele>72.800003051758</ele>
        <time>2016-06-06T19:50:08.000Z</time>
      </trkpt>
      <trkpt lat="48.82736" lon="2.3066">
        <ele>73</ele>
        <time>2016-06-06T19:50:10.000Z</time>
      </trkpt>
      <trkpt lat="48.82734" lon="2.30674">
        <ele>72.599998474121</ele>
        <time>2016-06-06T19:50:12.000Z</time>
      </trkpt>
      <trkpt lat="48.82729" lon="2.307">
        <ele>71.599998474121</ele>
        <time>2016-06-06T19:50:16.000Z</time>
      </trkpt>
      <trkpt lat="48.82726" lon="2.30713">
        <ele>72</ele>
        <time>2016-06-06T19:50:18.000Z</time>
      </trkpt>
      <trkpt lat="48.82722" lon="2.30742">
        <ele>73</ele>
        <time>2016-06-06T19:50:22.000Z</time>
      </trkpt>
      <trkpt lat="48.82715" lon="2.30772">
        <ele>72.800003051758</ele>
        <time>2016-06-06T19:50:26.000Z</time>
      </trkpt>
      <trkpt lat="48.82711" lon="2.30787">
        <ele>72</ele>
        <time>2016-06-06T19:50:28.000Z</time>
      </trkpt>
      <trkpt lat="48.82703" lon="2.3082">
        <ele>70.199996948242</ele>
        <time>2016-06-06T19:50:32.000Z</time>
      </trkpt>
      <trkpt lat="48.82695" lon="2.30853">
        <ele>70.199996948242</ele>
        <time>2016-06-06T19:50:36.000Z</time>
      </trkpt>
      <trkpt lat="48.82689" lon="2.30879">
        <ele>70.599998474121</ele>
        <time>2016-06-06T19:50:39.000Z</time>
      </trkpt>
      <trkpt lat="48.82688" lon="2.30887">
        <ele>70.599998474121</ele>
        <time>2016-06-06T19:50:40.000Z</time>
      </trkpt>
      <trkpt lat="48.8268" lon="2.3092">
        <ele>70.800003051758</ele>
        <time>2016-06-06T19:50:44.000Z</time>
      </trkpt>
      <trkpt lat="48.82675" lon="2.30947">
        <ele>71.800003051758</ele>
        <time>2016-06-06T19:50:47.000Z</time>
      </trkpt>
      <trkpt lat="48.82669" lon="2.30975">
        <ele>72.800003051758</ele>
        <time>2016-06-06T19:50:50.000Z</time>
      </trkpt>
      <trkpt lat="48.82663" lon="2.31005">
        <ele>73</ele>
        <time>2016-06-06T19:50:53.000Z</time>
      </trkpt>
      <trkpt lat="48.82658" lon="2.31037">
        <ele>72.400001525879</ele>
        <time>2016-06-06T19:50:56.000Z</time>
      </trkpt>
      <trkpt lat="48.82655" lon="2.31071">
        <ele>71.599998474121</ele>
        <time>2016-06-06T19:50:59.000Z</time>
      </trkpt>
      <trkpt lat="48.82651" lon="2.31095">
        <ele>70.400001525879</ele>
        <time>2016-06-06T19:51:01.000Z</time>
      </trkpt>
      <trkpt lat="48.82646" lon="2.31118">
        <ele>68.599998474121</ele>
        <time>2016-06-06T19:51:03.000Z</time>
      </trkpt>
      <trkpt lat="48.82638" lon="2.31153">
        <ele>68.400001525879</ele>
        <time>2016-06-06T19:51:06.000Z</time>
      </trkpt>
      <trkpt lat="48.82631" lon="2.31187">
        <ele>68.599998474121</ele>
        <time>2016-06-06T19:51:09.000Z</time>
      </trkpt>
      <trkpt lat="48.82626" lon="2.31222">
        <ele>70.400001525879</ele>
        <time>2016-06-06T19:51:12.000Z</time>
      </trkpt>
      <trkpt lat="48.82618" lon="2.31253">
        <ele>71.800003051758</ele>
        <time>2016-06-06T19:51:15.000Z</time>
      </trkpt>
      <trkpt lat="48.8261" lon="2.31283">
        <ele>71.599998474121</ele>
        <time>2016-06-06T19:51:18.000Z</time>
      </trkpt>
      <trkpt lat="48.82601" lon="2.31312">
        <ele>71</ele>
        <time>2016-06-06T19:51:21.000Z</time>
      </trkpt>
      <trkpt lat="48.82594" lon="2.31339">
        <ele>70.599998474121</ele>
        <time>2016-06-06T19:51:24.000Z</time>
      </trkpt>
      <trkpt lat="48.82587" lon="2.31369">
        <ele>70.599998474121</ele>
        <time>2016-06-06T19:51:27.000Z</time>
      </trkpt>
      <trkpt lat="48.82584" lon="2.31389">
        <ele>70.599998474121</ele>
        <time>2016-06-06T19:51:29.000Z</time>
      </trkpt>
      <trkpt lat="48.82578" lon="2.31419">
        <ele>70.400001525879</ele>
        <time>2016-06-06T19:51:32.000Z</time>
      </trkpt>
      <trkpt lat="48.82573" lon="2.31441">
        <ele>70</ele>
        <time>2016-06-06T19:51:34.000Z</time>
      </trkpt>
      <trkpt lat="48.82565" lon="2.31474">
        <ele>70.199996948242</ele>
        <time>2016-06-06T19:51:37.000Z</time>
      </trkpt>
      <trkpt lat="48.82558" lon="2.31508">
        <ele>70.199996948242</ele>
        <time>2016-06-06T19:51:40.000Z</time>
      </trkpt>
      <trkpt lat="48.82549" lon="2.3154">
        <ele>69</ele>
        <time>2016-06-06T19:51:43.000Z</time>
      </trkpt>
      <trkpt lat="48.8254" lon="2.31571">
        <ele>69.400001525879</ele>
        <time>2016-06-06T19:51:46.000Z</time>
      </trkpt>
      <trkpt lat="48.82532" lon="2.31602">
        <ele>69.400001525879</ele>
        <time>2016-06-06T19:51:49.000Z</time>
      </trkpt>
      <trkpt lat="48.82525" lon="2.31632">
        <ele>69.400001525879</ele>
        <time>2016-06-06T19:51:52.000Z</time>
      </trkpt>
      <trkpt lat="48.82519" lon="2.31662">
        <ele>69</ele>
        <time>2016-06-06T19:51:55.000Z</time>
      </trkpt>
      <trkpt lat="48.82513" lon="2.31691">
        <ele>70.599998474121</ele>
        <time>2016-06-06T19:51:58.000Z</time>
      </trkpt>
      <trkpt lat="48.82505" lon="2.31718">
        <ele>72.199996948242</ele>
        <time>2016-06-06T19:52:01.000Z</time>
      </trkpt>
      <trkpt lat="48.82496" lon="2.3175">
        <ele>74.400001525879</ele>
        <time>2016-06-06T19:52:05.000Z</time>
      </trkpt>
      <trkpt lat="48.82489" lon="2.31782">
        <ele>77.199996948242</ele>
        <time>2016-06-06T19:52:09.000Z</time>
      </trkpt>
      <trkpt lat="48.82483" lon="2.31808">
        <ele>77.800003051758</ele>
        <time>2016-06-06T19:52:13.000Z</time>
      </trkpt>
      <trkpt lat="48.82474" lon="2.31836">
        <ele>77</ele>
        <time>2016-06-06T19:52:19.000Z</time>
      </trkpt>
      <trkpt lat="48.8247" lon="2.31849">
        <ele>76.400001525879</ele>
        <time>2016-06-06T19:52:22.000Z</time>
      </trkpt>
      <trkpt lat="48.82468" lon="2.31861">
        <ele>76</ele>
        <time>2016-06-06T19:52:25.000Z</time>
      </trkpt>
      <trkpt lat="48.82466" lon="2.3189">
        <ele>74.400001525879</ele>
        <time>2016-06-06T19:52:31.000Z</time>
      </trkpt>
      <trkpt lat="48.82461" lon="2.31909">
        <ele>73.199996948242</ele>
        <time>2016-06-06T19:52:36.000Z</time>
      </trkpt>
      <trkpt lat="48.8246" lon="2.3192">
        <ele>73.199996948242</ele>
        <time>2016-06-06T19:52:55.000Z</time>
      </trkpt>
      <trkpt lat="48.82455" lon="2.31946">
        <ele>73.199996948242</ele>
        <time>2016-06-06T19:53:19.000Z</time>
      </trkpt>
      <trkpt lat="48.8245" lon="2.31979">
        <ele>73.400001525879</ele>
        <time>2016-06-06T19:53:24.000Z</time>
      </trkpt>
      <trkpt lat="48.82444" lon="2.32005">
        <ele>73.400001525879</ele>
        <time>2016-06-06T19:53:27.000Z</time>
      </trkpt>
      <trkpt lat="48.82438" lon="2.32032">
        <ele>74.199996948242</ele>
        <time>2016-06-06T19:53:30.000Z</time>
      </trkpt>
      <trkpt lat="48.82431" lon="2.32058">
        <ele>75.199996948242</ele>
        <time>2016-06-06T19:53:33.000Z</time>
      </trkpt>
      <trkpt lat="48.82423" lon="2.32092">
        <ele>75</ele>
        <time>2016-06-06T19:53:37.000Z</time>
      </trkpt>
      <trkpt lat="48.82415" lon="2.32125">
        <ele>73.199996948242</ele>
        <time>2016-06-06T19:53:41.000Z</time>
      </trkpt>
      <trkpt lat="48.82409" lon="2.3215">
        <ele>72.599998474121</ele>
        <time>2016-06-06T19:53:44.000Z</time>
      </trkpt>
      <trkpt lat="48.82403" lon="2.32177">
        <ele>72.599998474121</ele>
        <time>2016-06-06T19:53:47.000Z</time>
      </trkpt>
      <trkpt lat="48.82397" lon="2.32203">
        <ele>73</ele>
        <time>2016-06-06T19:53:50.000Z</time>
      </trkpt>
      <trkpt lat="48.82391" lon="2.32231">
        <ele>73.400001525879</ele>
        <time>2016-06-06T19:53:53.000Z</time>
      </trkpt>
      <trkpt lat="48.82384" lon="2.32258">
        <ele>73.800003051758</ele>
        <time>2016-06-06T19:53:56.000Z</time>
      </trkpt>
      <trkpt lat="48.82382" lon="2.32267">
        <ele>74</ele>
        <time>2016-06-06T19:53:57.000Z</time>
      </trkpt>
      <trkpt lat="48.82376" lon="2.32296">
        <ele>75</ele>
        <time>2016-06-06T19:54:00.000Z</time>
      </trkpt>
      <trkpt lat="48.8237" lon="2.32322">
        <ele>76.199996948242</ele>
        <time>2016-06-06T19:54:03.000Z</time>
      </trkpt>
      <trkpt lat="48.82365" lon="2.32349">
        <ele>77.199996948242</ele>
        <time>2016-06-06T19:54:06.000Z</time>
      </trkpt>
      <trkpt lat="48.82359" lon="2.32375">
        <ele>78.400001525879</ele>
        <time>2016-06-06T19:54:09.000Z</time>
      </trkpt>
      <trkpt lat="48.82349" lon="2.32406">
        <ele>79.800003051758</ele>
        <time>2016-06-06T19:54:13.000Z</time>
      </trkpt>
      <trkpt lat="48.82343" lon="2.3242">
        <ele>79.199996948242</ele>
        <time>2016-06-06T19:54:15.000Z</time>
      </trkpt>
      <trkpt lat="48.82334" lon="2.32442">
        <ele>78</ele>
        <time>2016-06-06T19:54:18.000Z</time>
      </trkpt>
      <trkpt lat="48.82325" lon="2.3247">
        <ele>76.400001525879</ele>
        <time>2016-06-06T19:54:22.000Z</time>
      </trkpt>
      <trkpt lat="48.82322" lon="2.32482">
        <ele>75.599998474121</ele>
        <time>2016-06-06T19:54:24.000Z</time>
      </trkpt>
      <trkpt lat="48.82315" lon="2.32508">
        <ele>74.599998474121</ele>
        <time>2016-06-06T19:54:29.000Z</time>
      </trkpt>
      <trkpt lat="48.82313" lon="2.3252">
        <ele>74.400001525879</ele>
        <time>2016-06-06T19:54:32.000Z</time>
      </trkpt>
      <trkpt lat="48.8231" lon="2.32525">
        <ele>74.199996948242</ele>
        <time>2016-06-06T19:54:34.000Z</time>
      </trkpt>
      <trkpt lat="48.82307" lon="2.32531">
        <ele>74.199996948242</ele>
        <time>2016-06-06T19:56:25.000Z</time>
      </trkpt>
      <trkpt lat="48.82313" lon="2.32559">
        <ele>75</ele>
        <time>2016-06-06T19:56:34.000Z</time>
      </trkpt>
      <trkpt lat="48.82318" lon="2.32565">
        <ele>75.199996948242</ele>
        <time>2016-06-06T19:56:39.000Z</time>
      </trkpt>
      <trkpt lat="48.82337" lon="2.32567">
        <ele>76</ele>
        <time>2016-06-06T19:56:57.000Z</time>
      </trkpt>
      <trkpt lat="48.82356" lon="2.32568">
        <ele>77</ele>
        <time>2016-06-06T19:57:02.000Z</time>
      </trkpt>
      <trkpt lat="48.82376" lon="2.32573">
        <ele>76.599998474121</ele>
        <time>2016-06-06T19:57:08.000Z</time>
      </trkpt>
      <trkpt lat="48.82398" lon="2.32576">
        <ele>76</ele>
        <time>2016-06-06T19:57:13.000Z</time>
      </trkpt>
      <trkpt lat="48.8242" lon="2.32579">
        <ele>75.400001525879</ele>
        <time>2016-06-06T19:57:18.000Z</time>
      </trkpt>
      <trkpt lat="48.82439" lon="2.32581">
        <ele>75</ele>
        <time>2016-06-06T19:57:22.000Z</time>
      </trkpt>
      <trkpt lat="48.82458" lon="2.32585">
        <ele>75.199996948242</ele>
        <time>2016-06-06T19:57:26.000Z</time>
      </trkpt>
      <trkpt lat="48.82478" lon="2.32594">
        <ele>75.199996948242</ele>
        <time>2016-06-06T19:57:30.000Z</time>
      </trkpt>
      <trkpt lat="48.82498" lon="2.32598">
        <ele>75.199996948242</ele>
        <time>2016-06-06T19:57:34.000Z</time>
      </trkpt>
      <trkpt lat="48.82516" lon="2.32602">
        <ele>75.400001525879</ele>
        <time>2016-06-06T19:57:38.000Z</time>
      </trkpt>
      <trkpt lat="48.82531" lon="2.32606">
        <ele>75.199996948242</ele>
        <time>2016-06-06T19:57:44.000Z</time>
      </trkpt>
      <trkpt lat="48.82514" lon="2.32596">
        <ele>75.599998474121</ele>
        <time>2016-06-06T19:57:53.000Z</time>
      </trkpt>
      <trkpt lat="48.82496" lon="2.32589">
        <ele>75.400001525879</ele>
        <time>2016-06-06T19:57:58.000Z</time>
      </trkpt>
      <trkpt lat="48.8249" lon="2.32595">
        <ele>75.199996948242</ele>
        <time>2016-06-06T19:58:02.000Z</time>
      </trkpt>
      <trkpt lat="48.82504" lon="2.32619">
        <ele>74.800003051758</ele>
        <time>2016-06-06T19:58:07.000Z</time>
      </trkpt>
      <trkpt lat="48.82518" lon="2.32647">
        <ele>74.400001525879</ele>
        <time>2016-06-06T19:58:12.000Z</time>
      </trkpt>
      <trkpt lat="48.82528" lon="2.32677">
        <ele>73.599998474121</ele>
        <time>2016-06-06T19:58:16.000Z</time>
      </trkpt>
      <trkpt lat="48.82537" lon="2.32701">
        <ele>72.800003051758</ele>
        <time>2016-06-06T19:58:20.000Z</time>
      </trkpt>
      <trkpt lat="48.82542" lon="2.32713">
        <ele>72.400001525879</ele>
        <time>2016-06-06T19:58:22.000Z</time>
      </trkpt>
      <trkpt lat="48.82552" lon="2.32742">
        <ele>71.400001525879</ele>
        <time>2016-06-06T19:58:27.000Z</time>
      </trkpt>
      <trkpt lat="48.82554" lon="2.32747">
        <ele>71.199996948242</ele>
        <time>2016-06-06T19:58:28.000Z</time>
      </trkpt>
      <trkpt lat="48.82562" lon="2.32762">
        <ele>71.599998474121</ele>
        <time>2016-06-06T19:58:31.000Z</time>
      </trkpt>
      <trkpt lat="48.82577" lon="2.32781">
        <ele>72.400001525879</ele>
        <time>2016-06-06T19:58:35.000Z</time>
      </trkpt>
      <trkpt lat="48.82582" lon="2.32784">
        <ele>72.599998474121</ele>
        <time>2016-06-06T19:58:36.000Z</time>
      </trkpt>
      <trkpt lat="48.82592" lon="2.32815">
        <ele>73.400001525879</ele>
        <time>2016-06-06T19:58:40.000Z</time>
      </trkpt>
      <trkpt lat="48.82596" lon="2.32822">
        <ele>73.599998474121</ele>
        <time>2016-06-06T19:58:41.000Z</time>
      </trkpt>
      <trkpt lat="48.82607" lon="2.32848">
        <ele>74.800003051758</ele>
        <time>2016-06-06T19:58:45.000Z</time>
      </trkpt>
      <trkpt lat="48.8262" lon="2.32873">
        <ele>76.400001525879</ele>
        <time>2016-06-06T19:58:50.000Z</time>
      </trkpt>
      <trkpt lat="48.82621" lon="2.32879">
        <ele>76.599998474121</ele>
        <time>2016-06-06T19:58:51.000Z</time>
      </trkpt>
      <trkpt lat="48.82632" lon="2.32898">
        <ele>77.800003051758</ele>
        <time>2016-06-06T19:58:55.000Z</time>
      </trkpt>
      <trkpt lat="48.82635" lon="2.32902">
        <ele>78.199996948242</ele>
        <time>2016-06-06T19:58:56.000Z</time>
      </trkpt>
      <trkpt lat="48.82649" lon="2.32921">
        <ele>78.599998474121</ele>
        <time>2016-06-06T19:59:01.000Z</time>
      </trkpt>
      <trkpt lat="48.8265" lon="2.32926">
        <ele>78.400001525879</ele>
        <time>2016-06-06T19:59:02.000Z</time>
      </trkpt>
      <trkpt lat="48.82653" lon="2.32938">
        <ele>78</ele>
        <time>2016-06-06T19:59:04.000Z</time>
      </trkpt>
      <trkpt lat="48.82658" lon="2.32953">
        <ele>77.400001525879</ele>
        <time>2016-06-06T19:59:07.000Z</time>
      </trkpt>
      <trkpt lat="48.82669" lon="2.32977">
        <ele>76.400001525879</ele>
        <time>2016-06-06T19:59:13.000Z</time>
      </trkpt>
      <trkpt lat="48.82684" lon="2.32997">
        <ele>76.199996948242</ele>
        <time>2016-06-06T19:59:18.000Z</time>
      </trkpt>
      <trkpt lat="48.82692" lon="2.33028">
        <ele>75.599998474121</ele>
        <time>2016-06-06T19:59:23.000Z</time>
      </trkpt>
      <trkpt lat="48.82702" lon="2.33056">
        <ele>75.199996948242</ele>
        <time>2016-06-06T19:59:28.000Z</time>
      </trkpt>
      <trkpt lat="48.82714" lon="2.33084">
        <ele>75</ele>
        <time>2016-06-06T19:59:33.000Z</time>
      </trkpt>
      <trkpt lat="48.82725" lon="2.33108">
        <ele>74.599998474121</ele>
        <time>2016-06-06T19:59:37.000Z</time>
      </trkpt>
      <trkpt lat="48.82728" lon="2.33114">
        <ele>74.599998474121</ele>
        <time>2016-06-06T19:59:38.000Z</time>
      </trkpt>
      <trkpt lat="48.82743" lon="2.33137">
        <ele>74.400001525879</ele>
        <time>2016-06-06T19:59:42.000Z</time>
      </trkpt>
      <trkpt lat="48.82757" lon="2.33158">
        <ele>74.400001525879</ele>
        <time>2016-06-06T19:59:46.000Z</time>
      </trkpt>
      <trkpt lat="48.82771" lon="2.33177">
        <ele>73.800003051758</ele>
        <time>2016-06-06T19:59:50.000Z</time>
      </trkpt>
      <trkpt lat="48.82777" lon="2.33196">
        <ele>73.199996948242</ele>
        <time>2016-06-06T19:59:53.000Z</time>
      </trkpt>
      <trkpt lat="48.82779" lon="2.33225">
        <ele>72.800003051758</ele>
        <time>2016-06-06T19:59:56.000Z</time>
      </trkpt>
      <trkpt lat="48.82784" lon="2.33237">
        <ele>72.199996948242</ele>
        <time>2016-06-06T19:59:58.000Z</time>
      </trkpt>
      <trkpt lat="48.82788" lon="2.33245">
        <ele>71.800003051758</ele>
        <time>2016-06-06T20:00:00.000Z</time>
      </trkpt>
      <trkpt lat="48.82794" lon="2.33252">
        <ele>71.599998474121</ele>
        <time>2016-06-06T20:00:03.000Z</time>
      </trkpt>
      <trkpt lat="48.82797" lon="2.33258">
        <ele>71.400001525879</ele>
        <time>2016-06-06T20:00:06.000Z</time>
      </trkpt>
      <trkpt lat="48.82792" lon="2.33255">
        <ele>71.599998474121</ele>
        <time>2016-06-06T20:00:24.000Z</time>
      </trkpt>
      <trkpt lat="48.82811" lon="2.33267">
        <ele>70.400001525879</ele>
        <time>2016-06-06T20:00:30.000Z</time>
      </trkpt>
      <trkpt lat="48.82828" lon="2.33277">
        <ele>69.400001525879</ele>
        <time>2016-06-06T20:00:35.000Z</time>
      </trkpt>
      <trkpt lat="48.82847" lon="2.33286">
        <ele>68</ele>
        <time>2016-06-06T20:00:40.000Z</time>
      </trkpt>
      <trkpt lat="48.82865" lon="2.33296">
        <ele>67.199996948242</ele>
        <time>2016-06-06T20:00:45.000Z</time>
      </trkpt>
      <trkpt lat="48.82872" lon="2.33302">
        <ele>67</ele>
        <time>2016-06-06T20:00:48.000Z</time>
      </trkpt>
      <trkpt lat="48.8289" lon="2.33313">
        <ele>66.599998474121</ele>
        <time>2016-06-06T20:00:53.000Z</time>
      </trkpt>
      <trkpt lat="48.82912" lon="2.33323">
        <ele>65.800003051758</ele>
        <time>2016-06-06T20:00:58.000Z</time>
      </trkpt>
      <trkpt lat="48.82931" lon="2.33334">
        <ele>65.199996948242</ele>
        <time>2016-06-06T20:01:02.000Z</time>
      </trkpt>
      <trkpt lat="48.82948" lon="2.33348">
        <ele>64.800003051758</ele>
        <time>2016-06-06T20:01:06.000Z</time>
      </trkpt>
      <trkpt lat="48.82964" lon="2.33362">
        <ele>64.400001525879</ele>
        <time>2016-06-06T20:01:09.000Z</time>
      </trkpt>
      <trkpt lat="48.82969" lon="2.33369">
        <ele>64.199996948242</ele>
        <time>2016-06-06T20:01:10.000Z</time>
      </trkpt>
      <trkpt lat="48.82981" lon="2.33392">
        <ele>64</ele>
        <time>2016-06-06T20:01:16.000Z</time>
      </trkpt>
      <trkpt lat="48.82985" lon="2.33399">
        <ele>64</ele>
        <time>2016-06-06T20:01:18.000Z</time>
      </trkpt>
      <trkpt lat="48.82989" lon="2.33409">
        <ele>63.799999237061</ele>
        <time>2016-06-06T20:01:33.000Z</time>
      </trkpt>
      <trkpt lat="48.83009" lon="2.334">
        <ele>63.400001525879</ele>
        <time>2016-06-06T20:01:42.000Z</time>
      </trkpt>
      <trkpt lat="48.83025" lon="2.33398">
        <ele>63.200000762939</ele>
        <time>2016-06-06T20:01:48.000Z</time>
      </trkpt>
      <trkpt lat="48.83042" lon="2.33408">
        <ele>62.599998474121</ele>
        <time>2016-06-06T20:01:54.000Z</time>
      </trkpt>
      <trkpt lat="48.83053" lon="2.33413">
        <ele>62.200000762939</ele>
        <time>2016-06-06T20:01:57.000Z</time>
      </trkpt>
      <trkpt lat="48.83068" lon="2.33424">
        <ele>61.799999237061</ele>
        <time>2016-06-06T20:02:01.000Z</time>
      </trkpt>
      <trkpt lat="48.83085" lon="2.33433">
        <ele>61.400001525879</ele>
        <time>2016-06-06T20:02:05.000Z</time>
      </trkpt>
      <trkpt lat="48.83103" lon="2.33451">
        <ele>61</ele>
        <time>2016-06-06T20:02:10.000Z</time>
      </trkpt>
      <trkpt lat="48.83121" lon="2.33462">
        <ele>61.599998474121</ele>
        <time>2016-06-06T20:02:15.000Z</time>
      </trkpt>
      <trkpt lat="48.83138" lon="2.33475">
        <ele>62.200000762939</ele>
        <time>2016-06-06T20:02:20.000Z</time>
      </trkpt>
      <trkpt lat="48.83154" lon="2.3349">
        <ele>62.799999237061</ele>
        <time>2016-06-06T20:02:24.000Z</time>
      </trkpt>
      <trkpt lat="48.83174" lon="2.335">
        <ele>63.400001525879</ele>
        <time>2016-06-06T20:02:29.000Z</time>
      </trkpt>
      <trkpt lat="48.83193" lon="2.33515">
        <ele>64.199996948242</ele>
        <time>2016-06-06T20:02:34.000Z</time>
      </trkpt>
      <trkpt lat="48.83212" lon="2.33531">
        <ele>64.599998474121</ele>
        <time>2016-06-06T20:02:39.000Z</time>
      </trkpt>
      <trkpt lat="48.83223" lon="2.33539">
        <ele>65</ele>
        <time>2016-06-06T20:02:42.000Z</time>
      </trkpt>
      <trkpt lat="48.83241" lon="2.33553">
        <ele>65.199996948242</ele>
        <time>2016-06-06T20:02:47.000Z</time>
      </trkpt>
      <trkpt lat="48.83248" lon="2.33559">
        <ele>65.400001525879</ele>
        <time>2016-06-06T20:02:49.000Z</time>
      </trkpt>
      <trkpt lat="48.83266" lon="2.33576">
        <ele>65.800003051758</ele>
        <time>2016-06-06T20:02:54.000Z</time>
      </trkpt>
      <trkpt lat="48.83289" lon="2.33584">
        <ele>65.199996948242</ele>
        <time>2016-06-06T20:02:59.000Z</time>
      </trkpt>
      <trkpt lat="48.83294" lon="2.33586">
        <ele>65</ele>
        <time>2016-06-06T20:03:00.000Z</time>
      </trkpt>
      <trkpt lat="48.83313" lon="2.33602">
        <ele>64.400001525879</ele>
        <time>2016-06-06T20:03:05.000Z</time>
      </trkpt>
      <trkpt lat="48.8332" lon="2.33608">
        <ele>64</ele>
        <time>2016-06-06T20:03:07.000Z</time>
      </trkpt>
      <trkpt lat="48.83337" lon="2.33619">
        <ele>63.400001525879</ele>
        <time>2016-06-06T20:03:12.000Z</time>
      </trkpt>
      <trkpt lat="48.83352" lon="2.33626">
        <ele>62.799999237061</ele>
        <time>2016-06-06T20:03:16.000Z</time>
      </trkpt>
      <trkpt lat="48.8337" lon="2.33636">
        <ele>62.400001525879</ele>
        <time>2016-06-06T20:03:21.000Z</time>
      </trkpt>
      <trkpt lat="48.83388" lon="2.33648">
        <ele>62.400001525879</ele>
        <time>2016-06-06T20:03:26.000Z</time>
      </trkpt>
      <trkpt lat="48.83408" lon="2.33657">
        <ele>62.200000762939</ele>
        <time>2016-06-06T20:03:31.000Z</time>
      </trkpt>
      <trkpt lat="48.83426" lon="2.33665">
        <ele>62.200000762939</ele>
        <time>2016-06-06T20:03:35.000Z</time>
      </trkpt>
      <trkpt lat="48.83444" lon="2.33677">
        <ele>61.599998474121</ele>
        <time>2016-06-06T20:03:39.000Z</time>
      </trkpt>
      <trkpt lat="48.83463" lon="2.3369">
        <ele>60.799999237061</ele>
        <time>2016-06-06T20:03:45.000Z</time>
      </trkpt>
      <trkpt lat="48.8347" lon="2.33696">
        <ele>60.400001525879</ele>
        <time>2016-06-06T20:03:47.000Z</time>
      </trkpt>
      <trkpt lat="48.83488" lon="2.33708">
        <ele>59.799999237061</ele>
        <time>2016-06-06T20:03:52.000Z</time>
      </trkpt>
      <trkpt lat="48.83507" lon="2.33721">
        <ele>59.200000762939</ele>
        <time>2016-06-06T20:03:57.000Z</time>
      </trkpt>
      <trkpt lat="48.83519" lon="2.33729">
        <ele>58.799999237061</ele>
        <time>2016-06-06T20:04:00.000Z</time>
      </trkpt>
      <trkpt lat="48.83539" lon="2.33742">
        <ele>59</ele>
        <time>2016-06-06T20:04:05.000Z</time>
      </trkpt>
      <trkpt lat="48.83559" lon="2.33753">
        <ele>59.599998474121</ele>
        <time>2016-06-06T20:04:10.000Z</time>
      </trkpt>
      <trkpt lat="48.83578" lon="2.33765">
        <ele>60.200000762939</ele>
        <time>2016-06-06T20:04:15.000Z</time>
      </trkpt>
      <trkpt lat="48.83593" lon="2.33775">
        <ele>60.799999237061</ele>
        <time>2016-06-06T20:04:19.000Z</time>
      </trkpt>
      <trkpt lat="48.83614" lon="2.33786">
        <ele>61</ele>
        <time>2016-06-06T20:04:24.000Z</time>
      </trkpt>
      <trkpt lat="48.83634" lon="2.33798">
        <ele>60.400001525879</ele>
        <time>2016-06-06T20:04:29.000Z</time>
      </trkpt>
      <trkpt lat="48.83654" lon="2.33812">
        <ele>59.799999237061</ele>
        <time>2016-06-06T20:04:34.000Z</time>
      </trkpt>
      <trkpt lat="48.83669" lon="2.33823">
        <ele>59.400001525879</ele>
        <time>2016-06-06T20:04:38.000Z</time>
      </trkpt>
      <trkpt lat="48.83684" lon="2.33832">
        <ele>59</ele>
        <time>2016-06-06T20:04:42.000Z</time>
      </trkpt>
      <trkpt lat="48.83703" lon="2.33845">
        <ele>59.200000762939</ele>
        <time>2016-06-06T20:04:47.000Z</time>
      </trkpt>
      <trkpt lat="48.8371" lon="2.33851">
        <ele>59.200000762939</ele>
        <time>2016-06-06T20:04:49.000Z</time>
      </trkpt>
      <trkpt lat="48.83727" lon="2.33864">
        <ele>59.599998474121</ele>
        <time>2016-06-06T20:04:54.000Z</time>
      </trkpt>
      <trkpt lat="48.83743" lon="2.33875">
        <ele>60</ele>
        <time>2016-06-06T20:04:59.000Z</time>
      </trkpt>
      <trkpt lat="48.83762" lon="2.33884">
        <ele>60.400001525879</ele>
        <time>2016-06-06T20:05:04.000Z</time>
      </trkpt>
      <trkpt lat="48.83784" lon="2.33892">
        <ele>60.400001525879</ele>
        <time>2016-06-06T20:05:09.000Z</time>
      </trkpt>
      <trkpt lat="48.83806" lon="2.339">
        <ele>60</ele>
        <time>2016-06-06T20:05:14.000Z</time>
      </trkpt>
      <trkpt lat="48.83809" lon="2.33902">
        <ele>59.799999237061</ele>
        <time>2016-06-06T20:05:15.000Z</time>
      </trkpt>
      <trkpt lat="48.83821" lon="2.3391">
        <ele>59.599998474121</ele>
        <time>2016-06-06T20:05:18.000Z</time>
      </trkpt>
      <trkpt lat="48.83841" lon="2.33924">
        <ele>59</ele>
        <time>2016-06-06T20:05:23.000Z</time>
      </trkpt>
      <trkpt lat="48.83859" lon="2.33937">
        <ele>58.599998474121</ele>
        <time>2016-06-06T20:05:28.000Z</time>
      </trkpt>
      <trkpt lat="48.83873" lon="2.33949">
        <ele>59</ele>
        <time>2016-06-06T20:05:34.000Z</time>
      </trkpt>
      <trkpt lat="48.83875" lon="2.33952">
        <ele>59</ele>
        <time>2016-06-06T20:05:36.000Z</time>
      </trkpt>
      <trkpt lat="48.83889" lon="2.33965">
        <ele>59.400001525879</ele>
        <time>2016-06-06T20:06:12.000Z</time>
      </trkpt>
      <trkpt lat="48.83891" lon="2.33964">
        <ele>59.400001525879</ele>
        <time>2016-06-06T20:06:13.000Z</time>
      </trkpt>
      <trkpt lat="48.83899" lon="2.33939">
        <ele>60.200000762939</ele>
        <time>2016-06-06T20:06:20.000Z</time>
      </trkpt>
      <trkpt lat="48.83901" lon="2.33935">
        <ele>60.400001525879</ele>
        <time>2016-06-06T20:06:21.000Z</time>
      </trkpt>
      <trkpt lat="48.83908" lon="2.33906">
        <ele>61</ele>
        <time>2016-06-06T20:06:27.000Z</time>
      </trkpt>
      <trkpt lat="48.83914" lon="2.33879">
        <ele>61.599998474121</ele>
        <time>2016-06-06T20:06:32.000Z</time>
      </trkpt>
      <trkpt lat="48.8392" lon="2.33851">
        <ele>62</ele>
        <time>2016-06-06T20:06:37.000Z</time>
      </trkpt>
      <trkpt lat="48.83933" lon="2.33831">
        <ele>62.799999237061</ele>
        <time>2016-06-06T20:06:47.000Z</time>
      </trkpt>
      <trkpt lat="48.83949" lon="2.33844">
        <ele>63</ele>
        <time>2016-06-06T20:06:54.000Z</time>
      </trkpt>
      <trkpt lat="48.83968" lon="2.33857">
        <ele>63.400001525879</ele>
        <time>2016-06-06T20:07:00.000Z</time>
      </trkpt>
      <trkpt lat="48.83987" lon="2.33867">
        <ele>63.799999237061</ele>
        <time>2016-06-06T20:07:05.000Z</time>
      </trkpt>
      <trkpt lat="48.84006" lon="2.33879">
        <ele>64</ele>
        <time>2016-06-06T20:07:10.000Z</time>
      </trkpt>
      <trkpt lat="48.84026" lon="2.33892">
        <ele>64.199996948242</ele>
        <time>2016-06-06T20:07:15.000Z</time>
      </trkpt>
      <trkpt lat="48.84045" lon="2.33907">
        <ele>64</ele>
        <time>2016-06-06T20:07:20.000Z</time>
      </trkpt>
      <trkpt lat="48.84062" lon="2.33926">
        <ele>64</ele>
        <time>2016-06-06T20:07:25.000Z</time>
      </trkpt>
      <trkpt lat="48.84077" lon="2.33941">
        <ele>64</ele>
        <time>2016-06-06T20:07:29.000Z</time>
      </trkpt>
      <trkpt lat="48.84091" lon="2.33953">
        <ele>64</ele>
        <time>2016-06-06T20:07:33.000Z</time>
      </trkpt>
      <trkpt lat="48.84111" lon="2.33962">
        <ele>64</ele>
        <time>2016-06-06T20:07:38.000Z</time>
      </trkpt>
      <trkpt lat="48.84119" lon="2.33968">
        <ele>64.199996948242</ele>
        <time>2016-06-06T20:07:40.000Z</time>
      </trkpt>
      <trkpt lat="48.84138" lon="2.33983">
        <ele>64.400001525879</ele>
        <time>2016-06-06T20:07:45.000Z</time>
      </trkpt>
      <trkpt lat="48.84155" lon="2.33992">
        <ele>64.599998474121</ele>
        <time>2016-06-06T20:07:49.000Z</time>
      </trkpt>
      <trkpt lat="48.84165" lon="2.33997">
        <ele>64.800003051758</ele>
        <time>2016-06-06T20:07:51.000Z</time>
      </trkpt>
      <trkpt lat="48.84183" lon="2.34007">
        <ele>64.800003051758</ele>
        <time>2016-06-06T20:07:55.000Z</time>
      </trkpt>
      <trkpt lat="48.84199" lon="2.34019">
        <ele>64.599998474121</ele>
        <time>2016-06-06T20:07:59.000Z</time>
      </trkpt>
      <trkpt lat="48.84218" lon="2.34034">
        <ele>64.199996948242</ele>
        <time>2016-06-06T20:08:04.000Z</time>
      </trkpt>
      <trkpt lat="48.84228" lon="2.3406">
        <ele>63.799999237061</ele>
        <time>2016-06-06T20:08:07.000Z</time>
      </trkpt>
      <trkpt lat="48.84224" lon="2.34086">
        <ele>63.799999237061</ele>
        <time>2016-06-06T20:08:11.000Z</time>
      </trkpt>
      <trkpt lat="48.84222" lon="2.34092">
        <ele>63.799999237061</ele>
        <time>2016-06-06T20:08:12.000Z</time>
      </trkpt>
      <trkpt lat="48.84218" lon="2.34103">
        <ele>64.199996948242</ele>
        <time>2016-06-06T20:08:14.000Z</time>
      </trkpt>
      <trkpt lat="48.84214" lon="2.34112">
        <ele>64.199996948242</ele>
        <time>2016-06-06T20:08:16.000Z</time>
      </trkpt>
      <trkpt lat="48.84199" lon="2.34128">
        <ele>63.200000762939</ele>
        <time>2016-06-06T20:08:21.000Z</time>
      </trkpt>
      <trkpt lat="48.84192" lon="2.34141">
        <ele>62.599998474121</ele>
        <time>2016-06-06T20:08:24.000Z</time>
      </trkpt>
      <trkpt lat="48.84188" lon="2.34151">
        <ele>62.200000762939</ele>
        <time>2016-06-06T20:08:26.000Z</time>
      </trkpt>
      <trkpt lat="48.84186" lon="2.34171">
        <ele>62</ele>
        <time>2016-06-06T20:08:29.000Z</time>
      </trkpt>
      <trkpt lat="48.84181" lon="2.34186">
        <ele>62</ele>
        <time>2016-06-06T20:08:32.000Z</time>
      </trkpt>
      <trkpt lat="48.84171" lon="2.34211">
        <ele>62</ele>
        <time>2016-06-06T20:08:37.000Z</time>
      </trkpt>
      <trkpt lat="48.84162" lon="2.3424">
        <ele>62</ele>
        <time>2016-06-06T20:08:42.000Z</time>
      </trkpt>
      <trkpt lat="48.84154" lon="2.34268">
        <ele>61.799999237061</ele>
        <time>2016-06-06T20:08:47.000Z</time>
      </trkpt>
      <trkpt lat="48.84145" lon="2.34287">
        <ele>61.599998474121</ele>
        <time>2016-06-06T20:08:51.000Z</time>
      </trkpt>
      <trkpt lat="48.84139" lon="2.34301">
        <ele>60.799999237061</ele>
        <time>2016-06-06T20:08:54.000Z</time>
      </trkpt>
      <trkpt lat="48.84136" lon="2.34311">
        <ele>60.400001525879</ele>
        <time>2016-06-06T20:08:56.000Z</time>
      </trkpt>
      <trkpt lat="48.84131" lon="2.34332">
        <ele>59.599998474121</ele>
        <time>2016-06-06T20:09:01.000Z</time>
      </trkpt>
      <trkpt lat="48.84138" lon="2.3433">
        <ele>59.799999237061</ele>
        <time>2016-06-06T20:09:05.000Z</time>
      </trkpt>
      <trkpt lat="48.84157" lon="2.34319">
        <ele>60.599998474121</ele>
        <time>2016-06-06T20:09:11.000Z</time>
      </trkpt>
      <trkpt lat="48.84175" lon="2.34309">
        <ele>61.200000762939</ele>
        <time>2016-06-06T20:09:16.000Z</time>
      </trkpt>
      <trkpt lat="48.84194" lon="2.343">
        <ele>61.400001525879</ele>
        <time>2016-06-06T20:09:21.000Z</time>
      </trkpt>
      <trkpt lat="48.84214" lon="2.34292">
        <ele>61.799999237061</ele>
        <time>2016-06-06T20:09:26.000Z</time>
      </trkpt>
      <trkpt lat="48.84232" lon="2.34287">
        <ele>62</ele>
        <time>2016-06-06T20:09:31.000Z</time>
      </trkpt>
      <trkpt lat="48.8425" lon="2.34282">
        <ele>62.599998474121</ele>
        <time>2016-06-06T20:09:36.000Z</time>
      </trkpt>
      <trkpt lat="48.84268" lon="2.34273">
        <ele>63.200000762939</ele>
        <time>2016-06-06T20:09:40.000Z</time>
      </trkpt>
      <trkpt lat="48.84288" lon="2.34264">
        <ele>64</ele>
        <time>2016-06-06T20:09:44.000Z</time>
      </trkpt>
      <trkpt lat="48.84305" lon="2.34251">
        <ele>63.400001525879</ele>
        <time>2016-06-06T20:09:48.000Z</time>
      </trkpt>
      <trkpt lat="48.84323" lon="2.34246">
        <ele>62.799999237061</ele>
        <time>2016-06-06T20:09:52.000Z</time>
      </trkpt>
      <trkpt lat="48.84344" lon="2.34239">
        <ele>62.400001525879</ele>
        <time>2016-06-06T20:09:57.000Z</time>
      </trkpt>
      <trkpt lat="48.84363" lon="2.34233">
        <ele>62.200000762939</ele>
        <time>2016-06-06T20:10:01.000Z</time>
      </trkpt>
      <trkpt lat="48.84382" lon="2.34223">
        <ele>63</ele>
        <time>2016-06-06T20:10:06.000Z</time>
      </trkpt>
      <trkpt lat="48.84389" lon="2.34219">
        <ele>63.200000762939</ele>
        <time>2016-06-06T20:10:08.000Z</time>
      </trkpt>
      <trkpt lat="48.84396" lon="2.34213">
        <ele>63.400001525879</ele>
        <time>2016-06-06T20:10:10.000Z</time>
      </trkpt>
      <trkpt lat="48.84401" lon="2.34208">
        <ele>63.599998474121</ele>
        <time>2016-06-06T20:10:12.000Z</time>
      </trkpt>
      <trkpt lat="48.84418" lon="2.34203">
        <ele>63.599998474121</ele>
        <time>2016-06-06T20:10:17.000Z</time>
      </trkpt>
      <trkpt lat="48.84424" lon="2.34202">
        <ele>63.799999237061</ele>
        <time>2016-06-06T20:10:20.000Z</time>
      </trkpt>
      <trkpt lat="48.84441" lon="2.34194">
        <ele>63.799999237061</ele>
        <time>2016-06-06T20:10:27.000Z</time>
      </trkpt>
      <trkpt lat="48.84459" lon="2.34184">
        <ele>64.400001525879</ele>
        <time>2016-06-06T20:10:32.000Z</time>
      </trkpt>
      <trkpt lat="48.84477" lon="2.34174">
        <ele>65</ele>
        <time>2016-06-06T20:10:37.000Z</time>
      </trkpt>
      <trkpt lat="48.84497" lon="2.34164">
        <ele>65.800003051758</ele>
        <time>2016-06-06T20:10:42.000Z</time>
      </trkpt>
      <trkpt lat="48.84514" lon="2.34153">
        <ele>66.400001525879</ele>
        <time>2016-06-06T20:10:46.000Z</time>
      </trkpt>
      <trkpt lat="48.84532" lon="2.34141">
        <ele>66.800003051758</ele>
        <time>2016-06-06T20:10:50.000Z</time>
      </trkpt>
      <trkpt lat="48.84553" lon="2.34129">
        <ele>67</ele>
        <time>2016-06-06T20:10:54.000Z</time>
      </trkpt>
      <trkpt lat="48.84574" lon="2.3412">
        <ele>66.599998474121</ele>
        <time>2016-06-06T20:10:58.000Z</time>
      </trkpt>
      <trkpt lat="48.84592" lon="2.34112">
        <ele>65.800003051758</ele>
        <time>2016-06-06T20:11:02.000Z</time>
      </trkpt>
      <trkpt lat="48.8461" lon="2.34103">
        <ele>65</ele>
        <time>2016-06-06T20:11:06.000Z</time>
      </trkpt>
      <trkpt lat="48.84627" lon="2.34093">
        <ele>64</ele>
        <time>2016-06-06T20:11:10.000Z</time>
      </trkpt>
      <trkpt lat="48.84648" lon="2.34084">
        <ele>62.599998474121</ele>
        <time>2016-06-06T20:11:14.000Z</time>
      </trkpt>
      <trkpt lat="48.84668" lon="2.34074">
        <ele>61.599998474121</ele>
        <time>2016-06-06T20:11:18.000Z</time>
      </trkpt>
      <trkpt lat="48.84677" lon="2.34069">
        <ele>61.200000762939</ele>
        <time>2016-06-06T20:11:20.000Z</time>
      </trkpt>
      <trkpt lat="48.84688" lon="2.34067">
        <ele>59.599998474121</ele>
        <time>2016-06-06T20:11:22.000Z</time>
      </trkpt>
      <trkpt lat="48.84706" lon="2.34072">
        <ele>59.400001525879</ele>
        <time>2016-06-06T20:11:26.000Z</time>
      </trkpt>
      <trkpt lat="48.84713" lon="2.34076">
        <ele>59.599998474121</ele>
        <time>2016-06-06T20:11:28.000Z</time>
      </trkpt>
      <trkpt lat="48.8472" lon="2.34081">
        <ele>59.799999237061</ele>
        <time>2016-06-06T20:11:31.000Z</time>
      </trkpt>
      <trkpt lat="48.84723" lon="2.34085">
        <ele>59.799999237061</ele>
        <time>2016-06-06T20:11:33.000Z</time>
      </trkpt>
      <trkpt lat="48.84738" lon="2.34097">
        <ele>59.599998474121</ele>
        <time>2016-06-06T20:12:00.000Z</time>
      </trkpt>
      <trkpt lat="48.84757" lon="2.34103">
        <ele>59</ele>
        <time>2016-06-06T20:12:07.000Z</time>
      </trkpt>
      <trkpt lat="48.84779" lon="2.34107">
        <ele>58.799999237061</ele>
        <time>2016-06-06T20:12:16.000Z</time>
      </trkpt>
      <trkpt lat="48.84799" lon="2.34113">
        <ele>59</ele>
        <time>2016-06-06T20:12:22.000Z</time>
      </trkpt>
      <trkpt lat="48.8482" lon="2.34123">
        <ele>59.599998474121</ele>
        <time>2016-06-06T20:12:27.000Z</time>
      </trkpt>
      <trkpt lat="48.84839" lon="2.34134">
        <ele>60.200000762939</ele>
        <time>2016-06-06T20:12:31.000Z</time>
      </trkpt>
      <trkpt lat="48.84861" lon="2.34149">
        <ele>60.599998474121</ele>
        <time>2016-06-06T20:12:35.000Z</time>
      </trkpt>
      <trkpt lat="48.84867" lon="2.34152">
        <ele>60.200000762939</ele>
        <time>2016-06-06T20:12:36.000Z</time>
      </trkpt>
      <trkpt lat="48.84884" lon="2.34163">
        <ele>59.200000762939</ele>
        <time>2016-06-06T20:12:39.000Z</time>
      </trkpt>
      <trkpt lat="48.84902" lon="2.34174">
        <ele>58.400001525879</ele>
        <time>2016-06-06T20:12:42.000Z</time>
      </trkpt>
      <trkpt lat="48.84921" lon="2.34186">
        <ele>57.400001525879</ele>
        <time>2016-06-06T20:12:45.000Z</time>
      </trkpt>
      <trkpt lat="48.8494" lon="2.34197">
        <ele>56.400001525879</ele>
        <time>2016-06-06T20:12:48.000Z</time>
      </trkpt>
      <trkpt lat="48.84958" lon="2.34209">
        <ele>55.599998474121</ele>
        <time>2016-06-06T20:12:51.000Z</time>
      </trkpt>
      <trkpt lat="48.84976" lon="2.3422">
        <ele>55</ele>
        <time>2016-06-06T20:12:54.000Z</time>
      </trkpt>
      <trkpt lat="48.84982" lon="2.34223">
        <ele>54.599998474121</ele>
        <time>2016-06-06T20:12:55.000Z</time>
      </trkpt>
      <trkpt lat="48.85002" lon="2.34239">
        <ele>53.799999237061</ele>
        <time>2016-06-06T20:12:58.000Z</time>
      </trkpt>
      <trkpt lat="48.85017" lon="2.34248">
        <ele>53.200000762939</ele>
        <time>2016-06-06T20:13:01.000Z</time>
      </trkpt>
      <trkpt lat="48.8503" lon="2.3426">
        <ele>52.599998474121</ele>
        <time>2016-06-06T20:13:22.000Z</time>
      </trkpt>
      <trkpt lat="48.85052" lon="2.34271">
        <ele>51</ele>
        <time>2016-06-06T20:13:27.000Z</time>
      </trkpt>
      <trkpt lat="48.85072" lon="2.34286">
        <ele>49.599998474121</ele>
        <time>2016-06-06T20:13:31.000Z</time>
      </trkpt>
      <trkpt lat="48.85093" lon="2.34298">
        <ele>48.400001525879</ele>
        <time>2016-06-06T20:13:35.000Z</time>
      </trkpt>
      <trkpt lat="48.85113" lon="2.34306">
        <ele>47.799999237061</ele>
        <time>2016-06-06T20:13:40.000Z</time>
      </trkpt>
      <trkpt lat="48.8512" lon="2.34309">
        <ele>47.799999237061</ele>
        <time>2016-06-06T20:13:43.000Z</time>
      </trkpt>
      <trkpt lat="48.85139" lon="2.34318">
        <ele>48</ele>
        <time>2016-06-06T20:13:49.000Z</time>
      </trkpt>
      <trkpt lat="48.85157" lon="2.34326">
        <ele>48.400001525879</ele>
        <time>2016-06-06T20:13:53.000Z</time>
      </trkpt>
      <trkpt lat="48.85176" lon="2.34334">
        <ele>48.599998474121</ele>
        <time>2016-06-06T20:13:57.000Z</time>
      </trkpt>
      <trkpt lat="48.85195" lon="2.34342">
        <ele>49.200000762939</ele>
        <time>2016-06-06T20:14:01.000Z</time>
      </trkpt>
      <trkpt lat="48.85214" lon="2.34349">
        <ele>49.400001525879</ele>
        <time>2016-06-06T20:14:05.000Z</time>
      </trkpt>
      <trkpt lat="48.85236" lon="2.34357">
        <ele>49.599998474121</ele>
        <time>2016-06-06T20:14:09.000Z</time>
      </trkpt>
      <trkpt lat="48.85258" lon="2.34366">
        <ele>49.799999237061</ele>
        <time>2016-06-06T20:14:13.000Z</time>
      </trkpt>
      <trkpt lat="48.85279" lon="2.34375">
        <ele>49.599998474121</ele>
        <time>2016-06-06T20:14:17.000Z</time>
      </trkpt>
      <trkpt lat="48.85292" lon="2.34382">
        <ele>48.599998474121</ele>
        <time>2016-06-06T20:14:20.000Z</time>
      </trkpt>
      <trkpt lat="48.85312" lon="2.34389">
        <ele>47.200000762939</ele>
        <time>2016-06-06T20:14:23.000Z</time>
      </trkpt>
      <trkpt lat="48.85332" lon="2.344">
        <ele>45.599998474121</ele>
        <time>2016-06-06T20:14:27.000Z</time>
      </trkpt>
      <trkpt lat="48.8535" lon="2.34414">
        <ele>44.400001525879</ele>
        <time>2016-06-06T20:14:31.000Z</time>
      </trkpt>
      <trkpt lat="48.85367" lon="2.34428">
        <ele>43.599998474121</ele>
        <time>2016-06-06T20:14:35.000Z</time>
      </trkpt>
      <trkpt lat="48.85385" lon="2.34442">
        <ele>43</ele>
        <time>2016-06-06T20:14:39.000Z</time>
      </trkpt>
      <trkpt lat="48.85401" lon="2.34458">
        <ele>42.400001525879</ele>
        <time>2016-06-06T20:14:43.000Z</time>
      </trkpt>
      <trkpt lat="48.85416" lon="2.34474">
        <ele>41.799999237061</ele>
        <time>2016-06-06T20:14:47.000Z</time>
      </trkpt>
      <trkpt lat="48.85432" lon="2.34489">
        <ele>41.200000762939</ele>
        <time>2016-06-06T20:14:51.000Z</time>
      </trkpt>
      <trkpt lat="48.85449" lon="2.34505">
        <ele>41.599998474121</ele>
        <time>2016-06-06T20:14:55.000Z</time>
      </trkpt>
      <trkpt lat="48.85465" lon="2.34522">
        <ele>42.799999237061</ele>
        <time>2016-06-06T20:14:59.000Z</time>
      </trkpt>
      <trkpt lat="48.85483" lon="2.34541">
        <ele>44.200000762939</ele>
        <time>2016-06-06T20:15:03.000Z</time>
      </trkpt>
      <trkpt lat="48.855" lon="2.34559">
        <ele>45.400001525879</ele>
        <time>2016-06-06T20:15:07.000Z</time>
      </trkpt>
      <trkpt lat="48.85517" lon="2.34574">
        <ele>46.599998474121</ele>
        <time>2016-06-06T20:15:11.000Z</time>
      </trkpt>
      <trkpt lat="48.85537" lon="2.34587">
        <ele>47.200000762939</ele>
        <time>2016-06-06T20:15:15.000Z</time>
      </trkpt>
      <trkpt lat="48.85542" lon="2.3459">
        <ele>47.200000762939</ele>
        <time>2016-06-06T20:15:16.000Z</time>
      </trkpt>
      <trkpt lat="48.8556" lon="2.34599">
        <ele>47.400001525879</ele>
        <time>2016-06-06T20:15:20.000Z</time>
      </trkpt>
      <trkpt lat="48.85574" lon="2.34611">
        <ele>47.599998474121</ele>
        <time>2016-06-06T20:15:24.000Z</time>
      </trkpt>
      <trkpt lat="48.85595" lon="2.34623">
        <ele>47.799999237061</ele>
        <time>2016-06-06T20:15:29.000Z</time>
      </trkpt>
      <trkpt lat="48.85613" lon="2.34634">
        <ele>47.400001525879</ele>
        <time>2016-06-06T20:15:34.000Z</time>
      </trkpt>
      <trkpt lat="48.85623" lon="2.3465">
        <ele>46.599998474121</ele>
        <time>2016-06-06T20:15:38.000Z</time>
      </trkpt>
      <trkpt lat="48.85628" lon="2.34657">
        <ele>46.200000762939</ele>
        <time>2016-06-06T20:15:40.000Z</time>
      </trkpt>
      <trkpt lat="48.85643" lon="2.3467">
        <ele>44.799999237061</ele>
        <time>2016-06-06T20:15:46.000Z</time>
      </trkpt>
      <trkpt lat="48.85646" lon="2.34671">
        <ele>44.599998474121</ele>
        <time>2016-06-06T20:15:47.000Z</time>
      </trkpt>
      <trkpt lat="48.85657" lon="2.34682">
        <ele>43.599998474121</ele>
        <time>2016-06-06T20:15:52.000Z</time>
      </trkpt>
      <trkpt lat="48.8567" lon="2.34691">
        <ele>42.599998474121</ele>
        <time>2016-06-06T20:15:58.000Z</time>
      </trkpt>
      <trkpt lat="48.85687" lon="2.34701">
        <ele>41.200000762939</ele>
        <time>2016-06-06T20:16:05.000Z</time>
      </trkpt>
      <trkpt lat="48.85703" lon="2.34716">
        <ele>40.799999237061</ele>
        <time>2016-06-06T20:16:15.000Z</time>
      </trkpt>
      <trkpt lat="48.85711" lon="2.34733">
        <ele>40.799999237061</ele>
        <time>2016-06-06T20:17:00.000Z</time>
      </trkpt>
      <trkpt lat="48.85726" lon="2.34749">
        <ele>40.599998474121</ele>
        <time>2016-06-06T20:17:10.000Z</time>
      </trkpt>
      <trkpt lat="48.85746" lon="2.34759">
        <ele>40</ele>
        <time>2016-06-06T20:17:16.000Z</time>
      </trkpt>
      <trkpt lat="48.85765" lon="2.34765">
        <ele>39.599998474121</ele>
        <time>2016-06-06T20:17:21.000Z</time>
      </trkpt>
      <trkpt lat="48.8578" lon="2.34749">
        <ele>40.599998474121</ele>
        <time>2016-06-06T20:17:26.000Z</time>
      </trkpt>
      <trkpt lat="48.85794" lon="2.34728">
        <ele>41.200000762939</ele>
        <time>2016-06-06T20:17:31.000Z</time>
      </trkpt>
      <trkpt lat="48.85813" lon="2.34725">
        <ele>42.599998474121</ele>
        <time>2016-06-06T20:17:36.000Z</time>
      </trkpt>
      <trkpt lat="48.85833" lon="2.34728">
        <ele>44.400001525879</ele>
        <time>2016-06-06T20:17:41.000Z</time>
      </trkpt>
      <trkpt lat="48.85851" lon="2.34734">
        <ele>46.599998474121</ele>
        <time>2016-06-06T20:17:46.000Z</time>
      </trkpt>
      <trkpt lat="48.85864" lon="2.34735">
        <ele>47</ele>
        <time>2016-06-06T20:17:52.000Z</time>
      </trkpt>
      <trkpt lat="48.85872" lon="2.34738">
        <ele>46.599998474121</ele>
        <time>2016-06-06T20:17:58.000Z</time>
      </trkpt>
      <trkpt lat="48.85889" lon="2.34732">
        <ele>46.200000762939</ele>
        <time>2016-06-06T20:18:05.000Z</time>
      </trkpt>
      <trkpt lat="48.85908" lon="2.34723">
        <ele>45.799999237061</ele>
        <time>2016-06-06T20:18:10.000Z</time>
      </trkpt>
      <trkpt lat="48.85927" lon="2.34709">
        <ele>45.599998474121</ele>
        <time>2016-06-06T20:18:15.000Z</time>
      </trkpt>
      <trkpt lat="48.85945" lon="2.34701">
        <ele>45.799999237061</ele>
        <time>2016-06-06T20:18:21.000Z</time>
      </trkpt>
      <trkpt lat="48.85955" lon="2.34709">
        <ele>45.599998474121</ele>
        <time>2016-06-06T20:18:29.000Z</time>
      </trkpt>
      <trkpt lat="48.85952" lon="2.34714">
        <ele>45.400001525879</ele>
        <time>2016-06-06T20:18:41.000Z</time>
      </trkpt>
    </trkseg>
  </trk>
</gpx>